Albo Pretorio Storico - Comune di Collalto Sabino


N. Registro Descrizione Tipologia Oggetto Importo Pubbl. Scadenza
N. Registro Descrizione Tipologia Oggetto Importo Pubbl. Scadenza
  152 / 2017N.5 del 19.04.2017DELIBERA DI CONSIGLIO   APPROVAZIONE ALIQUOTA IMU, TASI E TARI E PIANO FIANZIARIO TARI ANNO 20170,0021/05/201705/06/2017
  161 / 2017SETT02 N.70 del 27.04.2017DETERMINA   LIQUIDAZIONE FATTURA DITTA VICARI ETTORE PER SOSTITUZIONE VALVOLA DI SCARICO SERBATOI462,0027/04/201712/05/2017
  160 / 2017SETT02 N.69 del 24.04.2017DETERMINA   IMPEGNO DI SPESA QSS QUALITA' SALUTE E SICUREZZA SERL PER IL SERVIZIO DI SORGEGLIANZA SICUREZZA NEI LUOGHI DI LAVORO AI LAVORATORI DIPENDENTI IN OTTEMPERANZA AL D.L.G.81/08.976,0024/04/201709/05/2017
  159 / 2017SETT02 N.68 del 24.04.2017DETERMINA   IMPEGNO DI SPESA DITTA Q.S.S. QUALITA' IN SALUTE E SICUREZZA SRL PER IL SERVIZO DI SORVEGLIANZA SANITARIA AI LAVORATORI DIPENDENTI IN OTTEMPERANZA AL D.LGS 81/081.037,0024/04/201709/05/2017
  158 / 2017SETT02 N.67 del 22.04.2017DETERMINA   IMPEGNO DI SPESA PER L'AFFIDAMENTO DELLA FORNITURA DI MATERIALE MANUTENZIONER ARCHIVI COMUNALI.209,1022/04/201707/05/2017
  157 / 2017SETT02 N.66 del 22.04.2017DETERMINA   IMPEGNO DI SPESA PER L'AFIDAMENTO DELLA FORNITURA CARBURANTE PER AUTOMEZZI DI PROPEITA' COMUNALE10.000,0022/04/201707/05/2017
  156 / 2017N.9 del 19.04.2017DELIBERA DI CONSIGLIO   COMUNICAZIONI DEL SINDACO.0,0021/04/201706/05/2017
  155 / 2017N.8 del 19.04.2017DELIBERA DI CONSIGLIO   APPROVAZIONE BILANCIO DI PREVISIONE 2017/20190,0021/04/201706/05/2017
  154 / 2017N.7 del 19.04.2017DELIBERA DI CONSIGLIO   NOTA DI AGGIORNAMENTO AL DUP 2017/20190,0021/04/201706/05/2017
  153 / 2017N.6 del 19.04.2017DELIBERA DI CONSIGLIO   CONFERMA ALIQUOTA ADDIZIONALE COMUNALE IIRPEF ANNO 20170,0021/04/201706/05/2017
  151 / 2017N.4 del 19.04.2017DELIBERA DI CONSIGLIO   APPROVAZIONE DEL PROGRAMMA TRIENNALE DEI LAVORI PUBBLICI 2017/20190,0021/04/201706/05/2017
  150 / 2017N.3 del 19.04.2017DELIBERA DI CONSIGLIO   VERIFICA AREE E FABBRICATI DA DESTINARE ALLA RESIDENZA, ALLE ATTIVIT└ PRODUTTIVE E TERZIARIE.0,0021/04/201706/05/2017
  149 / 2017N.2 del 19.04.2017DELIBERA DI CONSIGLIO   ART.58 DEL D.L. N.112 DEL 25.06.2009 CONVERTITO CON L. N. 133 DEL 06.06.2008 'APPROVAZIONE DEL 'PIANO DELLE ALIENAZIONI E VALORIZZAZIONI IMMOBILIARI'.0,0021/04/201706/05/2017
  148 / 2017N.1 del 19.04.2017DELIBERA DI CONSIGLIO   LETTURA ED APPROVAZIONE VERBALI PRECEDENTE SEDUTA.0,0021/04/201706/05/2017
  147 / 2017N.25 del 20.04.2017DELIBERA DI GIUNTA   POR-FESR LAZIO 2014-2020 - ATTUAZIONE DELL'AZIONE 5.I.I. 2 OPERE DI CONSOLIDAMENTO E MITIGAZIONE DEL RISCHIO IDROGEOLOGICO IN LOCALITA' SAN LORENZO. CUP J56J17000150002-APPROVAZIONE PROGETTO DEFINITIVO, NOMINA DEL RUP, AUTORIZZAZIONE AL SINDACO A PRESENTARE ISTANZA DI FINANZIAMENTO.0,0020/04/201705/05/2017
  146 / 2017SETT02 N.65 del 20.04.2017DETERMINA   IMPEGNO DI SPESA PER OPERAIO SPECIALIZZATO MUNITO DI PATENTE IDONEA PER LA MESSA IN OPERA DELLA PALA MECCANICA DI PROPRIETA' DI CODESTO ENTE.244,0020/04/201705/05/2017
  142 / 2017SETT02 N.64 del 19.04.2017DETERMINA   LIQUIDAZIONE FATTURA DITTA VICARI ETTORE PER MANUTENZIONE POZZETTI STRADALI.352,0019/04/201704/05/2017
  141 / 2017SETT02 N.63 del 19.04.2017DETERMINA   IMPEGNO DI SPESA PER SERVIZIO DI MANUTENZIONE SEMESTRALE IMPIANTI ANTINCENDIO.561,2019/04/201704/05/2017
  140 / 2017SETT02 N.62 del 19.04.2017DETERMINA   IMPEGNO DI SPESA PER LAVORI DI SISTEMAZIONE INGRESSO SERBATOIO ATTRAVERSO LA PREDISPOSIZONE DI UN CHIUSINO AGGIUNTIVO POSTO ALL'INTERNO DELL'ESISTENTE.440,0019/04/201704/05/2017
  136 / 2017N.24 del 01.04.2017DELIBERA DI GIUNTA   APPROVAZIONE NOTA AGGIORNAMENTO DUP 2017-20190,0006/04/201721/04/2017
  134 / 2017SETT01 N.32 del 05.04.2017DETERMINA   LIQUIDAZIONE FATTURA MAGGIOLI PER STAMPATI REFERENDUM205,5005/04/201720/04/2017
  133 / 2017SETT01 N.31 del 05.04.2017DETERMINA   LIQUIDAZIONE FATTURA ANIENE SERVIZIE SVILUPPO PER TRASPORTO ALUNNI E RACCOLTA TRASPORTO RIFIUTI SETTEMBRE 20161.008,0005/04/201720/04/2017
  132 / 2017SETT01 N.30 del 05.04.2017DETERMINA   LIQUIDAZIONE DITTA CE.DI.MAR PER FORNITURA LIBRI DI TESTO666,0405/04/201720/04/2017
  131 / 2017SETT01 N.29 del 05.04.2017DETERMINA   LIQUIDAZIONE FATTURE MAGGIOLI PER FORNITURA REGISTRI UNIONI CIVILI E ORDINANZE SINDACO233,9505/04/201720/04/2017
  128 / 2017SETT02 N.61 del 28.03.2017DETERMINA   IMPEGNO DI SPESA PER L'AFFIDAMENTO DELLA FORNITURA DI MATERIALE PER LA MANUTENZIONE ORDINARIA MANO STRADALE CENTRO STORICO198,0328/03/201712/04/2017
  127 / 2017SETT02 N.60 del 28.03.2017DETERMINA   LIQUIDAZIONE FATTURE ING. LUPI PER MANUTENIZONE IMPIANTO DEPURAZIONE3.960,0028/03/201712/04/2017
  126 / 2017SETT02 N.59 del 28.03.2017DETERMINA   LIQUIDAZIONE FATTURA DITTA TECNOGOMME PER SOSTITUZIONE PNEUMATICI AUTOBUS IVECO.350,0028/03/201712/04/2017
  125 / 2017SETT02 N.58 del 28.03.2017DETERMINA   INTERVENTO DI TAGLIO DI N. 3 CIPRESSI 7CUPRESSUS L.,1753) ALL'INTERNO DEL CIMITERO COMUNALE DI COLLALTO SABINO UBICATO IN VIA A.STAFFA.244,0028/03/201712/04/2017
  123 / 2017SETT02 N.57 del 22.03.2017DETERMINA   LIQUIDAZIONE FATTURA IMPRESA CODIBER N. PA/03/2017 PER FORNITURA MISTO CAVA1.098,0022/03/201706/04/2017
  122 / 2017SETT02 N.56 del 22.03.2017DETERMINA   LIQUIDAZIONE FATTURA 1PA2017 ELETTRAUTO ░FELLI GIANNI P╚ER INTERVENTI AUTOMEZZI COMUNALI478,5022/03/201706/04/2017
  121 / 2017SETT02 N.55 del 22.03.2017DETERMINA   LIQUIDAZIONE FATTURA N.30/2017 DITTA SEA PER MONITORAGGIO ACQUE616,1022/03/201706/04/2017
  120 / 2017SETT02 N.54 del 22.03.2017DETERMINA   LIQUIDAZIONE FATTURA N. 29/2017 DITTA SEA PER MONITORAGGIO ACQUE616,1022/03/201706/04/2017
  119 / 2017SETT02 N.53 del 22.03.2017DETERMINA   LIQUIDAZIONE FATTURA N. PA/02/2017 IMPRESA CODIBER658,8022/03/201707/04/2017
  118 / 2017SETT02 N.52 del 22.03.2017DETERMINA   LIQUIDAZIONE FATTURA DR. ONORI FRANCO PARCELLA REDAZIONE PIANO PGAF.8.004,1922/03/201706/04/2017
  117 / 2017N.23 del 16.03.2017DELIBERA DI GIUNTA   SCHEMA DI BILANCIO 2017-20190,0020/03/201704/04/2017
  116 / 2017N.22 del 16.03.2017DELIBERA DI GIUNTA   CONFERMA TARIFFA S.I.I.- 20170,0020/03/201704/04/2017
  115 / 2017N.21 del 16.03.2017DELIBERA DI GIUNTA   CONFERMA TARIFFA TARI-20170,0020/03/201704/04/2017
  114 / 2017N.20 del 16.03.2017DELIBERA DI GIUNTA   CONFERMA PIANO FINANZIARIO TARI-20170,0020/03/201704/04/2017
  113 / 2017N.19 del 16.03.2017DELIBERA DI GIUNTA   CONFERMA ALIQUOTA TASI-20170,0020/03/201704/04/2017
  112 / 2017N.18 del 16.03.2017DELIBERA DI GIUNTA   CONFERMA ALIQUOTA ADDIZIONALE IRPEF-20170,0020/03/201704/04/2017
  111 / 2017N.17 del 16.03.2017DELIBERA DI GIUNTA   CONFERMA ALIQUOTA IMU-20170,0020/03/201704/04/2017
  110 / 2017N.16 del 16.03.2017DELIBERA DI GIUNTA   CONFERMA IMPOSTA COMUNALE DI PUBBLICITA'- 20170,0020/03/201704/04/2017
  109 / 2017N.15 del 16.03.2017DELIBERA DI GIUNTA   CONFERMA TARIFFA LUCE VOTIVA -20170,0020/03/201704/04/2017
  108 / 2017N.14 del 16.03.2017DELIBERA DI GIUNTA   SERVIZI A DOMANDA INDIVIDUALE-MENSA 2017-20180,0020/03/201704/04/2017
  107 / 2017N.13 del 16.03.2017DELIBERA DI GIUNTA   CONFERMA CANONE COSAP-20170,0020/03/201704/04/2017
  106 / 2017N.12 del 16.03.2017DELIBERA DI GIUNTA   FABBISOGNO TRIENNALE PERSONALE 2017-20190,0020/03/201704/04/2017
  105 / 2017N.11 del 16.03.2017DELIBERA DI GIUNTA   ECCEDENZA DI PERSONALE-MONITORAGGIO 20170,0020/03/201704/04/2017
  104 / 2017SETT02 N.51 del 15.03.2017DETERMINA   LIQUIDAZIONE FATTURA DITTA BEYFIN PER FORNITURA GPL RISCALDAMENTO UFFICI2.489,4415/03/201730/03/2017
  103 / 2017SETT02 N.50 del 15.03.2017DETERMINA   LIQUIDAZIONE FATTURA ECOLOGIA VITERBO PER SMALTIMENTO RIFUITI MESE DI DICEMBRE 20161.808,8015/03/201730/03/2017
  102 / 2017SETT02 N.49 del 15.03.2017DETERMINA   LIQUIDAZIONE SOCIET└ ECOLOGIA VITERBO PER SMALTIMENTO RIFIUTI MESE DI GENNAIO 20172.230,7515/03/201730/03/2017
  101 / 2017SETT02 N.48 del 15.03.2017DETERMINA   LIQUIDAZIONE FATTURE DIBEOL PER FORNITURA CARBURANTE AUTOMEZZI COMUNALI1.015,9115/03/201730/03/2017
  95 / 2017SETT02 N.47 del 10.03.2017DETERMINA   LIQUIDAZIONE ATTIVIT└ PAESAGGISTICO - AMBIENTALE PER IL RILASCIO AUTORIZZAZIONI E PARERI PAESAGGISTICI L.R. 59/95 E S.M.I.951,6010/03/201725/03/2017
  94 / 2017SETT01 N.28 del 03.03.2017DETERMINA   RIMBORSO SPESE LEGALI AVV. FABIO MONACO PER SENTENZA N. 113/2017.2.918,2403/03/201718/03/2017
  96 / 2017SETT02 N.46 del 02.03.2017DETERMINA   IMPEGNO DI SPESA DITTA BEYFIN SPA PER FORNITURA GPL DA RISCALDAMENTO.18.700,0002/03/201717/03/2017
  93 / 2017N.10 del 02.03.2017DELIBERA DI GIUNTA   APPROVAZIONE BANDO DI GARA PER LA VENDITA CON PREZZO RIBASSATO BOSCO DI CASTAGNO IN LOCALITA' CAMPEPOLI.0,0002/03/201717/03/2017
  92 / 2017SETT01 N.27 del 02.03.2017DETERMINA   LIQAUIDAZIONE FATTURA N.9 DEL 1.2.2017 RIO OASI PER RICOVERO RSA415,5002/03/201717/03/2017
  91 / 2017SETT02 N.45 del 01.03.2017DETERMINA   IMPEGNO DI SPESA AFFIDAMENTO FORNITURA DI MISTO CAVA SISTEMAZIONE STRADA COMUNALE PONTE GIOVANNETTI VICENNE1.098,0001/03/201716/03/2017
  89 / 2017N.9 del 20.02.2017DELIBERA DI GIUNTA   APPROVAZIONE PROGETTO ' TURANO IN TOUR - ECOMUSEO DEL TURANO .D.G.R. 771/2016-0,0001/03/201716/03/2017
  88 / 2017SETT01 N.26 del 25.02.2017DETERMINA   LIQUIDAZIONE FATTURE DITTA PC POMPEI PER ASSISTENZA TECNICA E MIGLIORAMENTO FUNZIONALITA' UFFICI7.500,0025/02/201712/03/2017
  87 / 2017SETT01 N.25 del 25.02.2017DETERMINA   RIMBORSO SPESE COMUNE DI NESPOLO PER SERVIZIO VIGILANZA PERIODO 01.10.2016-31.12.20161.377,8125/02/201712/03/2017
  86 / 2017SETT01 N.24 del 25.02.2017DETERMINA   IMPEGNO SPESA PER FORNITURA E CONFIGURAZIONE ANTIVIRUS PC UFFICIO FINANZIARIO85,0025/02/201712/03/2017
  85 / 2017SETT02 N.44 del 23.02.2017DETERMINA   IMPEGNO DI SPESA PER L'AFFIDAMENTO DEL SERVIZIO DI VERIFICA DECENNALE SERBATOIO GPL DA 25 MC CON EMISSIONE ACUSTICA SITUATO IN LOC. PESCHIERA7.320,0023/02/201710/03/2017
  84 / 2017SETT02 N.43 del 23.02.2017DETERMINA   INTEGRAZIONE IMPEGNO DI SPESA PER L'AFFIDAMENTO DEL SERVIZIO DI SMALTIMENTO, TRASPORTO COMPRENSIVO DI INSTALLAZIONE CASSONE E RITIRO DELLO STESSO PER CONFERIMENTO C/O IMPIANTO AUTORIZZATO MATERIALE PROVENIENTE DA SOGMBERO MAGAZZINO1.080,1923/02/201710/03/2017
  83 / 2017SETT02 N.42 del 23.02.2017DETERMINA   LIQUIDAZIONE FATTURA N.5 DEL 4.2.2017 IMPRESA EDILE GENTILE VITTORINO.976,0023/02/201710/03/2017
  82 / 2017SETT02 N.41 del 22.02.2017DETERMINA   LIQUIDAZIONE FATTURA REALFA SERVICE SAS PER FORNITURA TONER .176,9022/02/201706/03/2017
  81 / 2017SETT02 N.40 del 22.02.2017DETERMINA   LIQUIDAZIONE FATTURA CHIMNICA REATINA RIETI PER FORNITURA CLORURO.658,8022/02/201709/03/2017
  80 / 2017SETT02 N.39 del 22.02.2017DETERMINA   IMPEGNO DI SPESA PER INTERVENTI DI MANUTENZIONE ORDINARIA ACQUEDOTTO COMUNALE CON SOSTITUZIONE VALVOLE E RACCORDI.352,0022/02/201709/03/2017
  78 / 2017SETT01 N.23 del 11.02.2017DETERMINA   PRESA ATTO PRESENTAZIONE DOMANDE ASSEGNO DI CURA FINALIZZATO AD INTERVENTI IN FAVORE DI PERSONE CON DISABILIT└ GRAVISSIME ( DGR 239/13).0,0011/02/201726/02/2017
  77 / 2017N.8 del 09.02.2017DELIBERA DI GIUNTA   INDIRIZZO AL SINDACO PER ACCORDO TRANSATTIVO COMUNE DI COLLALTO SABINO - EREDI VALENTI MARIANNA0,0011/02/201726/02/2017
  76 / 2017SETT01 N.22 del 09.02.2017DETERMINA   LIQUIDAZIONE ONORARI E RIMBORSO SPESE AL REVISORE DEI CONTI.4.096,5509/02/201724/02/2017
  74 / 2017SETT02 N.37 del 09.02.2017DETERMINA   IMPEGNOD I SPESA PER L'AFFIDAMENTO DELLA FORNITURA DIMISTO CAVA PER LA SISTEMAZIONE DI UNA STRADA LOC. ' PESCHIERA'658,8009/02/201724/02/2017
  73 / 2017SETT02 N.36 del 09.02.2017DETERMINA   IMPEGNO DI SPESA OFFICINA FELICI PER REVIZIONE OBBLIGATORIA PULMINO SERVIZI SOCIALI.66,8809/02/201724/02/2017
  72 / 2017SETT02 N.35 del 09.02.2017DETERMINA   IMPEGNO DI SPESA OFFICINA FELICI PER INTERVENTI DI MANUTENZIONE AUTOCOMPATTATORE IVECO EUROCARGO.511,1809/02/201724/02/2017
  71 / 2017SETT02 N.34 del 09.02.2017DETERMINA   LIQUIDAZIONE FATTURA GEOLOGO CHIARETTI FRANCESCO PER RELAZIONE GEOLOGICA COSTRUZIONE N.45 LOCULI NEL CIMITERO DEL CAPOLUOGO.3.133,2009/02/201724/02/2017
  70 / 2017SETT01 N.21 del 07.02.2017DETERMINA   LIQUIDAZIONE FATTURA . 2 DEL 30.01.2017 S.R.L. RIO OASI PER RICOVERO RSA.0,0007/02/201722/02/2017
  68 / 2017SETT02 N.32 del 04.02.2017DETERMINA   LIQUIDAZIONE FATTURA DITTA PRAGMA PER RIMOZIONE RIFIUTI INGOMBRANTI.660,0004/02/201719/02/2017
  67 / 2017SETT02 N.31 del 04.02.2017DETERMINA   IMPEGNO DI SPESA IMPRSA EDILE GENTILE PER INTERVENTI DI RIPARAZIONE SERBATOIO COMUNALE.976,0004/02/201719/02/2017
  66 / 2017SETT02 N.30 del 04.02.2017DETERMINA   LIQUIDAZIONE SOCIET└ PRAGMA PER SVUOTAMENTO CAMPANE.385,0004/02/201719/02/2017
  65 / 2017SETT01 N.20 del 04.02.2017DETERMINA   PROROGA INCARICO AVV. ROCCA ALDO QUALE LEGALE DI FIDUCIA DEL COMUNE PER INCARICHI DI ASSISTENZA E DIFESA.10.943,4004/02/201719/02/2017
  64 / 2017SETT02 N.29 del 04.02.2017DETERMINA   AFFIDAMENTO VENDITA MATERIALE RITRAIBILE DAL TAGLIO BOSCO COMUNALE ' LA SELVA I░ LOTTO' DITTA NANDO DI NICOLA.0,0004/02/201719/02/2017
  63 / 2017SETT02 N.28 del 04.02.2017DETERMINA   IMPEGNO DI SPESA PER L'AFFIDAMENTO DEL SERVIZIO MONITORAGGIO DELL'ACQUA DESTINATA AL CONSUMO UMANO - ANALISI DI ROUTINE E ANALISI STRAORDINARIE ANNO 2017.1.159,0004/02/201719/02/2017
  62 / 2017SETT02 N.27 del 03.02.2017DETERMINA   IMPEGNO DI SPESA PER L'AFFIDAMENTO DEL SERVIZIO MONITORAGGIO DELL'ACQUA IN INGRESSO ED IN USCITA DAL DEPURATORE AQUE REFLUE DEL COMUNE DI COLLALTO SABINO LOC. ' FONTE VASSALLO' ANNO 2017.1.159,0003/02/201718/02/2017
  61 / 2017N.7 del 31.01.2017DELIBERA DI GIUNTA   APPROVAZIONE PIANO TRIENNALE PREVENZIONE CORRUZIONE E PER LA TRASPARENZA 2017/2019.0,0003/02/201718/02/2017
  60 / 2017N.6 del 31.01.2017DELIBERA DI GIUNTA   ATTO DI INDIRIZZO PER PROROGA CONFERIMENTO INCARICO LEGALE ESTERNO MEDIANTE CONVENZIONE PER PATROCINIO LEGALE DELL'ENTE RELATVAMENTE A CONTENZIOSI CIVILI E AMMINISTRATIVI.0,0003/02/201718/02/2017
  58 / 2017SETT01 N.19 del 02.02.2017DETERMINA   IMPEGNO SPESA DITTA MAGGIOLI PER FORNITURA REGISTRO UNIONI CIVILI0,0002/02/201717/02/2017
  57 / 2017SETT01 N.18 del 02.02.2017DETERMINA   LIQUIDAZIONE FATTURA MYO SPA PER FORNITURA MATERIALE D'UFFICIO808,8602/02/201717/02/2017
  56 / 2017SETT01 N.17 del 02.02.2017DETERMINA   LIQUIDAZIONE FATTURA IDEA DIGITALE PER COPIE ECCEDENTI63,4402/02/201717/02/2017
  55 / 2017SETT01 N.16 del 02.02.2017DETERMINA   RIMBORSO SUORE PER MENSA ASILO MESI OTTOBRE-DICEMBRE 2016835,0002/02/201717/02/2017
  54 / 2017SETT02 N.26 del 01.02.2017DETERMINA   IMPEGNO DI SPESA PER AFFIDAMENTO SERVIZIO DI GESTIONE, MANUTENZIONE ORDINARIA E STRAORDINARIA DEL DEPURATORE COMUNALE ACQUE REFLUE LOC. FONTE VASSALLO.20.790,0001/02/201716/02/2017
  53 / 2017SETT02 N.25 del 30.01.2017DETERMINA   IMPEGNO DI SPESA PER LAVORI DI PULIZIA FOSSE BIOLOGICHE DEL CAPOLUOGO E FRAZIONI E TRASPORTO IMPIANTO AUTORIZZATO.1.980,0030/01/201714/02/2017
  52 / 2017SETT02 N.24 del 28.01.2017DETERMINA   PROROGA SERVIZIO SMALTIMENTO RSU - ECOLOGIA VITERBO. ANNO 2017.30.221,6230/01/201714/02/2017
  51 / 2017N.5 del 26.01.2017DELIBERA DI GIUNTA   L.190/2012 AVENTE AD OGGETTO: ' DISPOSIZIONI PER LA PREVENZIONE E LA REPRESSIONE DELLA CORRUZIONE E DELL'ILLEGALIT└ NELLA PUBBLICA AMMINISTRAZIONE': DETERMINAZIONE OBIETTIVI STRATEGICI IN MATERIA DI PREVENZIONE DELLA CORRUZIONE E TRASPARENZA PER IL TRIENNIO 2017/2019.0,0028/01/201712/02/2017
  50 / 2017SETT01 N.15 del 25.01.2017DETERMINA   IMPEGNO DI SPESA RSA RIO OASI PER DEGENZA SIG.RA ZACCHIA VELIA.0,0025/01/201709/02/2017
  49 / 2017SETT01 N.14 del 21.01.2017DETERMINA   LIQUIDAZIONE LAVORO STRAORDINARIO DIPENDENTI COMUNALI REFERENDUM POPOLARE 4.12.2016.414,2021/01/201705/02/2017
  48 / 2017N.4 del 19.01.2017DELIBERA DI GIUNTA   ATTO DI INDIRIZZO AL RESPONSABILE DEL SERVIZO PER MANUTENZIONE IMPIANTO PUBBLICA ILLUMINAZIONE E ILLUMINAZIONE VOTIVA.0,0020/01/201704/02/2017
  47 / 2017N.3 del 19.01.2017DELIBERA DI GIUNTA   INDIRIZZO AL RESPONSABILE DEL SERVIZIO PER CONCESSIONE CONTRIBUTO ALLE SUORE MISSIONARIE CATECHISTE DI COLLALTO SABINO PER MENSA ALUNNI SCUOLA MATERNA0,0020/01/201704/02/2017
  46 / 2017N.2 del 19.01.2017DELIBERA DI GIUNTA   APPROVAZIONE PROGETTO DI FATTIBILITA' TECNICA ED ECONOMICA DEI LAVORI DI MESSA IN SICUREZZA DEL CENTRO ABITATO - VERSANTE EST DEL CAPOLUOGO.0,0020/01/201704/02/2017
  43 / 2017SETT01 N.13 del 19.01.2017DETERMINA   LIQUIDAZIONE FATTURA COOP. ANIENE SERVIZI E SVILUPPO PER TRASPORTO SCOLASTICO MESI OTTOBRE E NOVEMBRE 20161.836,0019/01/201703/02/2017
  42 / 2017SETT01 N.12 del 19.01.2017DETERMINA   LIQUIDAZIONE FATTURA STUDIO K PER NUOVO SOFTWARE AIRE+ ANPR1.200,0019/01/201703/02/2017
  41 / 2017SETT02 N.23 del 17.01.2017DETERMINA   FORNITURA CLORURO DI SODIO PER DISGELO STRADALE.628,0019/01/201703/02/2017
  39 / 2017SETT01 N.11 del 18.01.2017DETERMINA   LIQUIDAZIONE FATTURA CARTOPLASTICA REATINA PER FORNITURA TIMBRI57,0018/01/201702/02/2017
  38 / 2017SETT01 N.10 del 18.01.2017DETERMINA   LIQUIDAZIONE FATTURA ANIENE SERVIZIO E SVILUPPO PER MENSA SCOLASTICA713,8518/01/201702/02/2017
  37 / 2017SETT01 N.9 del 18.01.2017DETERMINA   LIQUIDAZIONE FATTURA LIBRERIA LA SORGENTE PER FORNITURA LIBRI DI TESTO51,9318/01/201702/02/2017
  36 / 2017SETT01 N.8 del 18.01.2017DETERMINA   LIQUIDAZIONE FATTURA IEMME SISTEMI SRL PER ASSISTENZA CENTRALINO374,0018/01/201702/02/2017
  35 / 2017SETT01 N.6 del 18.01.2017DETERMINA   RIMBORSO COMUNE NESPOLO PER CONVENZIONE SERVIZIO DI VIGILANZA III TRIMESTRE 20161.400,6118/01/201702/02/2017
  34 / 2017SETT01 N.7 del 18.01.2017DETERMINA   IMPEGNO SPESA DITTA MYO PER FORNITURA MATERIALE DI CANCELLERIA814,8618/01/201702/02/2017
  33 / 2017SETT01 N.5 del 18.01.2017DETERMINA   IMPEGNO SPESA DITTA PC DI MARIO POMPEI PER FORNITURA TAMBURO PER SCANNER196,7218/01/201702/02/2017
  32 / 2017SETT01 N.4 del 18.01.2017DETERMINA   IMPEGNO SPESA DITTA STUDIO K PER ASSISTENZA ANNO 20174.300,0018/01/201702/02/2017
  31 / 2017SETT01 N.3 del 18.01.2017DETERMINA   IMPEGNO DI SPESA DITTA STUDIO K PER ASSISTENZA FATTURAZIONE ELETTRONICA ANNO 2017600,0018/01/201702/02/2017
  30 / 2017SETT01 N.2 del 18.01.2017DETERMINA   IMPEGNO SPESA DITTA CE.DI.MAR PER ACQUISTO LIBRI DI TESTO SCUOLA ELEMENTARE666,0418/01/201702/02/2017
  28 / 2017SETT01 N.1 del 17.01.2017DETERMINA   RELAZIONE ANNUALE DEL RESPONSABILE DELLA CORRUZIONE ANNO 2016.0,0017/01/201701/02/2017
  27 / 2017SETT02 N.22 del 17.01.2017DETERMINA   IMPEGNO DI SPESA P╚ER ELIMINAZIONE INFILTRAZIONE ACQUA SERBATOIO COMUNALE POSTO SULLA STRUTTURA ESTERNA TORRE CASTELLO3.289,0017/01/201701/02/2017
  26 / 2017SETT02 N.21 del 17.01.2017DETERMINA   IMPEGNO DI SPESA DITTA SA.CI.TE PER SGOMBERO MOBILI E MATERIALE VECCHIO PRESSO I MAGAZZINI EX SCUOLE.976,0017/01/201701/02/2017
  25 / 2017SETT02 N.20 del 17.01.2017DETERMINA   INCARICO PER LA PROGETTAZIONE DI FATTIBILITA' TECNICO ED ECONOMICA PER I LAVORI DI MESSA IN SICUREZZA DEL CENTRO ABITATO VERSANTE EST - CAPOLUOGO' ART. 31 D.LGS.VO 50/2016.0,0017/01/201701/02/2017
  24 / 2017SETT02 N.19 del 17.01.2017DETERMINA   REVOCA AFFIDAMENTO INCARICO ALL'ING. ERNESTO FOSCHI PER LA PROGETTAZIONE DI FATTIBILITA' TECNICA ED ECOOMICA DEI LAVORI DI MESSA IN SICUREZZA DEL CENTRO ABITATO - VERSANTE EST DEL CAPOLUOGO.0,0017/01/201701/02/2017
  23 / 2017SETT02 N.18 del 16.01.2017DETERMINA   IMPEGNO DI SPESA SPALATURA NEVE E SPARGISALE STAGIONE 2017.4.880,0016/01/201731/01/2017
  22 / 2017SETT02 N.17 del 16.01.2017DETERMINA   LIQUIDAZIONE FATTURA 297/2016 DITTA GIORGIO QUINTO SRL.844,2416/01/201731/01/2017
  21 / 2017SETT02 N.16 del 16.01.2017DETERMINA   LIQUIDAZIONE FATTURA N.302/2016 DITTA GIORGIO QUINTO RIETI.812,1516/01/201731/01/2017
  20 / 2017SETT02 N.15 del 16.01.2017DETERMINA   LIQUIDAZIONE FATTURE ECOLOGIA VITERBO PER SAMALTIMENTO RSU2.481,8216/01/201731/01/2017
  19 / 2017SETT02 N.14 del 16.01.2017DETERMINA   LIQUIDAZIONE FATTURA N.62/2016 DACA PER MANUTENZIONE ESTINTORI.0,0016/01/201731/01/2017
  18 / 2017SETT02 N.13 del 16.01.2017DETERMINA   LIQUIDAZIOE FATTURA DIBEOL ECOLOGICA PER FORNITURA CARBURANTE AUTOMEZZI COMUNALI743,1916/01/201731/01/2017
  17 / 2017SETT02 N.12 del 16.01.2017DETERMINA   LIQUIDAZIONE FATTURA N.15/2016 OFFICINA FELICI PER MANUTENZIONE AUTOCOMPATTORE.562,5116/01/201731/01/2017
  16 / 2017SETT02 N.11 del 16.01.2017DETERMINA   LIQUIDAZIONE FATTURA N.14 OFFICINA FELICI PER INTERVENTI AUTOCOMPATTATORE.1.555,5016/01/201731/01/2017
  15 / 2017SETT02 N.10 del 16.01.2017DETERMINA   LIQUIDAZIONE FATTURA N.18/01 ELETTROTERMOIDRAULICA DI BIANCHI FRANCESCO. PER FORNITURA IPOLCORITO DI SODIO.610,0016/01/201731/01/2017
  14 / 2017SETT02 N.9 del 13.01.2017DETERMINA   IMPEGNO DI SPESA SPALATURA NEVE E SPARGISALE CAPOLUOGO STAGIONE 20171.220,0013/01/201728/01/2017
  13 / 2017N.1 del 12.01.2017DELIBERA DI GIUNTA   ANTICIPAZIONE DI TESORERIA - UTILIZZO DI ENTRATE A SPECIFICA DESTINAZIONE - ART.195 E 222 DEL D.LGS N.267/2000 (TUEL) - AUTORIZZAZIONE AL TESORIERE AD ELEVARE IUL LIMITE DI CUI ALL'ART.222 DEL TUEL DA TRE A CINQUE DODICESIMI FINO AL 31.12.2017.0,0013/01/201728/01/2017
  12 / 2017SETT02 N.8 del 12.01.2017DETERMINA   LIQUIDAZIONE FATTURA N. PA/41/2016 DITTA CODIBER.1.540,0012/01/201727/01/2017
  11 / 2017SETT02 N.7 del 12.01.2017DETERMINA   LIQUIDAZIONE FATTURA N. PA/43/2016 DITTA CODIBER976,0012/01/201727/01/2017
  10 / 2017SETT02 N.6 del 12.01.2017DETERMINA   LIQUIDAZIONE FATTURA N.13/2016 OFFICINA FELICI DI MARIO FELICI.179,3412/01/201727/01/2017
  9 / 2017SETT02 N.5 del 12.01.2017DETERMINA   LIQUIDAZIONE FATTURA N. 12/2016 OFFICINA FELICI DI FELICI MARIO1.295,6412/01/201727/01/2017
  8 / 2017SETT02 N.4 del 12.01.2017DETERMINA   LIQUIDAZIONE FATTURA N. 11/2016 OFFICINA FELICI DI MARIO FELICI228,1412/01/201727/01/2017
  445 / 2016SETT02 N.3 del 12.01.2017DETERMINA   LIQUIDAZIONJE FATTURA N. 16 DEL 21.12.2016 OFFICINA FELICI DI MARIO FELICI.228,1412/01/201727/01/2017
  5 / 2017SETT02 N.1 del 12.01.2017DETERMINA   REGOLARIZZAZIONE ORDINANZA N.15 DEL 28.11.2016 RELATIVA AI LAVORI DI RIPARAZIONE ACQUEDOTTO COMUNALE VIA DEL CASARINO1.980,0011/01/201726/01/2017
  444 / 2016SETT02 N.2 del 12.01.2017DETERMINA   LIQUIDAZIONE OFFICINA FELICI DI MARO FELICI FATTURA 16 DEL 27.12.20161.743,3811/01/201726/01/2017
  2 / 2017AVVISI VARI   NUOVA MODULISTICA PER LA RICHIESTA DI CARBURANTI USO AGRICOLO - UFFICIO IMA DI POGGIO MOIANO0,0005/01/201706/03/2017
  1 / 2017SETT02 N.161 del 29.12.2016DETERMINA   CONFERIMENTO INCARICO PROGETTO DI FATTIBILIT└ TECNICA ED ECONOMICA 'LAVORI DI MESSA IN SICUREZZA DEL CENTRO ABITATO' VERSANTE EST0,0031/12/201615/01/2017
  443 / 2016SETT02 N.163 del 31.12.2016DETERMINA   IMPEGNO DI SPESA TECNOGOMME DI CARSOLI PER CAMBIO PENUMATICI AUTOBUS IVECO.280,0031/12/201615/01/2017
  441 / 2016N.46 del 22.12.2016DELIBERA DI CONSIGLIO   RATIFICA DELIBERA DI GIUNTA COMUNALE N.73 DEL 30.11.2016 AVENTE AD OGGETTO: VARIAZIONI AL BILANCIO0,0029/12/201613/01/2017
  440 / 2016N.45 del 22.12.2016DELIBERA DI CONSIGLIO   PRESA D'ATTO PIANO PROGRAMMA - CONTRATTO DI SERVIZIO E BILANCIO DI PREVISIONE2016-2018- CONSORZIO SOCIALE RI/1.0,0029/12/201613/01/2017
  439 / 2016N.44 del 22.12.2016DELIBERA DI CONSIGLIO   LETTURA ED APPROVAZIONE VERBALI PRECEDENTE SEDUTA.0,0029/12/201613/01/2017
  437 / 2016N.76 del 22.12.2016DELIBERA DI GIUNTA   PROGETTO MADRE LINGUA INGLESE - EROGAZIONE CONTRIBUTO ALLA SCUOLA PRIMARIA DI COLLALTO SABINO ANNO SCOALSTICO 2016/2017 31.12.2017.0,0023/12/201607/01/2017
  436 / 2016N.75 del 22.12.2016DELIBERA DI GIUNTA   APPROVAZIONE DELLO SCHEMA DI PROGRAMMA TRIENNALE DEI LAVORI PUBBLICI 2017/2019.0,0023/12/201607/01/2017
  435 / 2016N.74 del 22.12.2016DELIBERA DI GIUNTA   LSU PRESA ATTO COMUNICAZIONE REGIONE LAZIO0,0023/12/201607/01/2017
  433 / 2016SETT02 N.160 del 20.12.2016DETERMINA   IMPEGNO DI SPESA OFFICINA FELICI PER REVISIONE AUTOMEZZO IVECO R.S.U.562,5120/12/201604/01/2017
  432 / 2016SETT02 N.159 del 20.12.2016DETERMINA   IMPEGNO DI SPESA AUTOFFICINA FELICI P╚ER MANUTENZIONE AUTOCOMPATTATORE IVECO.1.555,5020/12/201604/01/2017
  431 / 2016SETT02 N.158 del 20.12.2016DETERMINA   IMPEGNO DI SPESA OFFICINA FELICI DI CARSOLI PER MANUTENZIONE AUTOCOMPATTORE RS.U.1.743,0020/12/201604/01/2017
  429 / 2016ORDINANZA   ORDINANZA DI INSTALLAZIONE SEGNALETICA VERTICALE DI DIVIETO DI SOSTA IN VIA ROMA FRAZIONE RICETTO0,0017/12/201615/01/2017
  428 / 2016N.41 del 03.12.2016DELIBERA DI CONSIGLIO   LETTURA ED APPROVAZIONE VERBALI PRECEDENTE SEDUTA.0,0016/12/201631/12/2016
  427 / 2016N.43 del 03.12.2016DELIBERA DI CONSIGLIO   COMUNICAZIONI DEL SINDACO.0,0016/12/201631/12/2016
  424 / 2016SETT01 N.103 del 13.12.2016DETERMINA   LIQUIDAZIONE FATTURA COOOPERATIVA ANIENE SERVIZIO E SVILUPPO DI TIVOLI PER MENSA MESE DI OTTOBRE 2016313,8513/12/201628/12/2016
  422 / 2016SETT02 N.157 del 12.12.2016DETERMINA   LIQUIDAZIONE FATTURA ECOLOGIA VITERBO SRL PER SMALTIMENTO RSU2.370,4912/12/201627/12/2016
  421 / 2016SETT02 N.156 del 12.12.2016DETERMINA   LIQUIDAZIONE FATTURA IMPRESA CODIBER PER MANUTENZIONE LOCALI SCUOLA ELEMENTARE2.745,0012/12/201627/12/2016
  420 / 2016SETT02 N.155 del 12.12.2016DETERMINA   LIQUIDAZIONE FATTURA DITTA FARID PER INTERVENTI DI RIPARAZIONE AUTOMEZZO RSU208,8312/12/201627/12/2016
  419 / 2016SETT02 N.154 del 12.12.2016DETERMINA   LIQUIDAZIONE FATTURA DITTA BEYFIN PER FORNITURA GPL RISCALDAMENTO UFFICI COMUNALI.246,7612/12/201627/12/2016
  418 / 2016SETT02 N.153 del 12.12.2016DETERMINA   LIQUIDAZIONE FATTURA G2 MISURATORI PER FORNITURA CONTATORI915,0012/12/201627/12/2016
  417 / 2016SETT02 N.152 del 12.12.2016DETERMINA   LIQUIDAZIONE FATTURA DIBEOL PER FORNITURA CARBURANTE AUTOMEZZI COMUNALI.805,0012/12/201627/12/2016
  416 / 2016SETT02 N.149 del 12.12.2016DETERMINA   LIQUIDAZIONE DITTA ARCANGELI ALESSANDRO CARSOLI PER FORNITURA MATERIALE RIPARAZIONE MANTO DI COPERTURA LOCALI SERBATOI176,3012/12/201627/12/2016
  415 / 2016SETT02 N.150 del 12.12.2016DETERMINA   LIQUIDAZIONE FATTURA DITTA SA.CI.TE. PER SWVUOTAMENTO CAMPANE DI VETRO.244,0012/12/201627/12/2016
  414 / 2016SETT02 N.148 del 12.12.2016DETERMINA   LIQUIDAZIONE FATTURA N.2/2016 DITTA FELLI MARIO PER RIPARAZIONE PERDITA ACQUA FRAZIONE RICETTO858,0012/12/201627/12/2016
  413 / 2016SETT02 N.147 del 12.12.2016DETERMINA   LIQUIDAZIONE FATTURA N.1/2016 DITTA FELLI MARIO PER RIPARAZIONE PERDITA ACQUA MURA DI CINTA2.178,0012/12/201627/12/2016
  412 / 2016SETT02 N.146 del 09.12.2016DETERMINA   IMPEGNO DI SPESA DITTA REALFA CARSOLI PER ACQUISTO CARTUCCE STAMPANTI E FAX176,9009/12/201624/12/2016
  411 / 2016SETT02 N.145 del 09.12.2016DETERMINA   AFFIDAMENTO LAVORI DITTA CODIBER PER MJANUTENZIONE ORDINARIA FACCIATA EDICIO SCOLASTICO.976,0009/12/201624/12/2016
  410 / 2016SETT02 N.144 del 09.12.2016DETERMINA   LIQUIDAZIONE FATTURA DR. ONORI FRANCO PER REDAZIONE PGAF.5.345,9409/12/201624/12/2016
  409 / 2016SETT02 N.143 del 07.12.2016DETERMINA   APPROVAZIONE STATO FINALE RELAZIONE SUL CONTO FINALE E CERTIFICATO DI REGOLARE ESECUZIONE LAVORI DI RECUPERO E MESSA IN SICUREZZA EDILIZIA SCOLASTICA DGR 42/2015.213,1007/12/201622/12/2016
  408 / 2016SETT02 N.142 del 07.12.2016DETERMINA   APPROVAZIONE II SAL LAVORI RECUPERO E MESSA IN SICUREZZA EDILIZIA SCOLASTICA DGR 42/2015 - LIQUIDAZIONE 2░ CERTIFICATO DI PAGAMENTO IMPRESA CODIBER854.616,0007/12/201622/12/2016
  407 / 2016SETT01 N.102 del 07.12.2016DETERMINA   LIQUIDAZIONE COMPETENZE SEGGIO CONSULTAZIONI REFERENDARIE 04.12.2016546,0007/12/201622/12/2016
  405 / 2016N.42 del 03.12.2016DELIBERA DI CONSIGLIO   APPROVAZIONE PIANO COMUNALE DI EMERGENZA DI PROTEZIONE CIVILE0,0003/12/201618/12/2016
  404 / 2016N.73 del 30.11.2016DELIBERA DI GIUNTA   ART. 175 D.LGS. 18 AGOSTO 2000 - VARIAZIONI AL BILANCIO DI PREVISIONE FINANZIARIO 2016/2018.0,0003/12/201618/12/2016
  403 / 2016N.72 del 24.11.2016DELIBERA DI GIUNTA   MODIFICA ORARIO DI LAVORO OPERAI PER IL PERIODO 15.10 - 15-50,0003/12/201618/12/2016
  402 / 2016N.71 del 24.11.2016DELIBERA DI GIUNTA   QUANTIFICAZIONE SOMME NON SOGGETTE AD ESECUZIONE FORZATA I░ SEMESTRE 2017.0,0003/12/201618/12/2016
  401 / 2016N.70 del 24.11.2016DELIBERA DI GIUNTA   ANTICIPAZIONE DI TESORERIA - UTILIZZO DI ENTRATE A SPECIFICA DESTINAZIONE - ART. 195 E 222 DEL D.LGS N. 267/2000 (TUEL) - AUTORIZZAZIONE AL TESORIERE PER L'ESERCIZIO 2017.0,0003/12/201618/12/2016
  400 / 2016N.69 del 24.11.2016DELIBERA DI GIUNTA   ADESIONE PROGETTO 'INTERNATIONAL ARTIST FOR AMATRICE'' - CONCESSIONE PATROCINIO GRATUITO .0,0003/12/201618/12/2016
  399 / 2016N.68 del 24.11.2016DELIBERA DI GIUNTA   PROPOSTA DI ADESIONE ALL'INIZIATIVA DI ANCI LAZIO '' UN CONTRIBUTO PER LA RICOSTRUZIONE DI DUE EDIFICI PUBBLICI A BENEFICIO DEI COMUNI DI AMATRICE ED ACCUMOLI''.0,0003/12/201618/12/2016
  398 / 2016SETT01 N.101 del 03.12.2016DETERMINA   AFFIDAMENTO DEL SERVIZIO DI TESORERIA COMUNALE PERIODO 2017/2021. AGGIUDICAZIONE.3.500,0003/12/201618/12/2016
  397 / 2016SETT01 N.100 del 02.12.2016DETERMINA   SERVIZIO CIVICO COMUNALE - DURATA ED IMPEGNO DI SPESA.2.000,0002/12/201617/12/2016
  396 / 2016SETT02 N.141 del 01.12.2016DETERMINA   APPROVAZIONE RENDICONTAZIONE LAVORI DI COMPLETAMENTO IDRICO-FOGNANTE NEL CAPOLUOGO E NELLE FRAZIONI NELL'AMBITO DEL FINANZIAMENTO REGIONE LAZIO - DIREZIONE REGIONALE AMBIENTE E PROTEZIONE CIVILE 'APQ8' TUTELA DELLE ACQUE E GESTIONE INTEGRATA DELLE RISORSE IDRICHE - INTERVENTO 110,0001/12/201616/12/2016
  395 / 2016SETT02 N.140 del 01.12.2016DETERMINA   NUOVO ORARIO DI LAVORO INVERNALE 2016/20170,0001/12/201616/12/2016
  391 / 2016SETT02 N.139 del 21.11.2016DETERMINA   LIQUIDAZIONE FATTURA SABINA SIMIC PER FORNITURA POMPE DI RICIRCOLO FANGHI AL DEPURATORE COMUNALE4.880,0021/11/201606/12/2016
  390 / 2016SETT02 N.138 del 19.11.2016DETERMINA   AFFIDAMENTO SOCIETA' COOPERATIVA ANIENE SERVIZI E SVILUPPO PER RIPRISTINO STRADA COMUNALE FONTE DEGLI SPIRITI.244,0019/11/201604/12/2016
  389 / 2016SETT01 N.99 del 19.11.2016DETERMINA   INTERVENTI DI MIGLIORAMENTO DELLA FUNZIONALITA' DEGLI UFFICI OMUNALI. AFFIDAMENTO INCARICO- IMPEGNO DI SPESA.419,9919/11/201604/12/2016
  388 / 2016SETT02 N.137 del 16.11.2016DETERMINA   IMPEGNO DI SPESA PER FORNITURA IPOCLORITO DI SODIO.610,0016/11/201601/12/2016
  383 / 2016SETT02 N.136 del 14.11.2016DETERMINA   IMPEGNO DI SPESA PER LA FORNITURA DI ABBIGLIAMENTO E DISPOSITIVI DI PROTEZIONE INDIVIDUALE STAGIONE INVERNALE.852,7814/11/201629/11/2016
  382 / 2016SETT02 N.135 del 14.11.2016DETERMINA   LIQUIDAZIONE FATTURA Q.S.S. PER ATTIVIT└ DI GESTIONE SALUTE E SICUREZZA LUOGHI PUBBLICI.850,0014/11/201629/11/2016
  380 / 2016SETT01 N.98 del 11.11.2016DETERMINA   1APPROVAZIONE NUOVO BANDO DI GARA SEVIZIO DI TESORERIA ANNI 2017/2021.0,0011/11/201626/11/2016
  377 / 2016SETT02 N.134 del 08.11.2016DETERMINA   REGOLARIZZAZIONE ORDINANZA N. 6 DEL 20.0'9.2016 RIPARAZIONE TRATTO RETE FOGNARIO VIA ROMA.2.630,0008/11/201623/11/2016
  376 / 2016SETT02 N.133 del 08.11.2016DETERMINA   IMPEGNO DI SPESA PER LAVORI DI MANUTENZIONE ODINARIA POZZETTI DEPURATORE COMUNALE LOCLAITA' FONTE VASSALLO.1.540,0008/11/201623/11/2016
  375 / 2016SETT02 N.132 del 08.11.2016DETERMINA   REGOLARIZZAZIONE ORDINANZA N. 7 DEL 21.09.2016 - LAVORI URGENTE ACQUEDOTTO COMUNALE.1.100,0008/11/201623/11/2016
  374 / 2016SETT01 N.97 del 08.11.2016DETERMINA   RIMBORSO SPESE TRASPORTO ALUNNI994,8008/11/201623/11/2016
  373 / 2016SETT01 N.96 del 08.11.2016DETERMINA   LIQUIDAZIONE FATTURA IL SOLCO PER MENSA SCOLASTICA MESE DI MAGGIO 2016868,7508/11/201623/11/2016
  369 / 2016SETT02 N.131 del 03.11.2016DETERMINA   AFFIDAMENTO INCARICO REDAZIONE PEC COMUNE DI COLLALTO SABINO.3.122,0004/11/201619/11/2016
  368 / 2016N.67 del 03.11.2016DELIBERA DI GIUNTA   REFERENDUM POPOLARE DEL 4.12.2016 - ASSEGNAZIONE SPAZI PER LE AFFISSIONI DI PROGAMANDA DA PARTE DI PARTITI O GRUPPI POLITICI RAPPRESENTANTI IN PARLAMENTO E COMITATI PROMOTORE0,0004/11/201619/11/2016
  367 / 2016N.66 del 03.11.2016DELIBERA DI GIUNTA   REFERENDUM POPOLARE DEL 4.12.2016 - INDIVIDUAZIONE DEI LUOGHI DESTINATI ALLE AFFISSIONI PER LA PROPAGANDA DFA PARTE DEI PARTITI E GRUPPI POLITICI RAPPRESENTANTI IN PARLAMENTO E DEI PROMOTIRI DEL REFERENDUM.0,0004/11/201619/11/2016
  366 / 2016N.65 del 27.10.2016DELIBERA DI GIUNTA   INDIRIZZO AL RESPONSABILE DELL'UFFICIO TECNICO PER RECESSO CONTRATTO DI LOCAZIONE.0,0004/11/201619/11/2016
  365 / 2016SETT02 N.130 del 03.11.2016DETERMINA   IMPEGNO DI SPESA DITTA ARCANGELI ALESSANDRO PER FORNITURA MATERIALE RIPARAZIONE SERBATOIO COMUNALE.220,3003/11/201618/11/2016
  364 / 2016SETT02 N.129 del 03.11.2016DETERMINA   LIQUIDAZIONE FATTURA N.356 DITTA SEA PER ANALISI ACQUE390,4003/11/201618/11/2016
  363 / 2016SETT02 N.128 del 03.11.2016DETERMINA   LIQUIDAZIONE FATTURA N. 357 DITTA SEA PER ANALISI ACQUE.976,0003/11/201618/11/2016
  362 / 2016SETT02 N.127 del 03.11.2016DETERMINA   LIQUIDAZIONE FATTURA V2-1161 ECOLOGIA VITERBO PER SAMALTIMENTO RIFIUTI.2.421,4703/11/201618/11/2016
  361 / 2016SETT02 N.126 del 03.11.2016DETERMINA   LIQUIDAZIONE FATTURA N. 36/90 DITTA DIBEOL OPER FORNITURA CARBURANTI MEZZI COMUNALI.1.285,7603/11/201618/11/2016
  357 / 2016SETT02 N.125 del 29.10.2016DETERMINA   APPROVAZIONE I SAL LAVORI RECUPERO E MESSA IN SICUREZZA EDILIZIA SCOLASTICA DGR 42/2015 - LIQUIDAZIONE 1░ CERTIFICATO DI PAGAMENTO IMPRESA CODIBER.33.862,3429/10/201613/11/2016
  356 / 2016SETT01 N.95 del 28.10.2016DETERMINA   APPROVAZIONE BANDO DI GARA PER L'AFFIDAMENTO DEL SERVIZIO DI TESORERIA COMUNALE PERIODO 2017/2021 - SCHEMA DI DOMANDA - DICHIARAZIONE CUMULATIVA.0,0028/10/201612/11/2016
  355 / 2016SETT02 N.124 del 28.10.2016DETERMINA   IMPEGNO DI SPESA PER LAVORI DI RIPARAZIONE PERDITA ACQUA IN FRAZIONE RICETTO858,0028/10/201612/11/2016
  354 / 2016N.40 del 21.10.2016DELIBERA DI CONSIGLIO   APPROVAZIONE SCHEMA DI CONVENZIONE PER IL SERVIZIO DI TESORERIA COMUNALE- APPROVAZIONE CRITERI DI AGGIUDICAZIONE.0,0028/10/201612/11/2016
  353 / 2016N.39 del 21.10.2016DELIBERA DI CONSIGLIO   VARIAZIONE AL BILANCIO DI PREVISIONE 2016/2018.0,0028/10/201612/11/2016
  352 / 2016N.38 del 21.10.2016DELIBERA DI CONSIGLIO   RISPOSTA INTERROGAZIONE AVENTE COME OGGETTO: ' SITUAZIONE DEBITORIA E RICONOSCIMENTO DEBITI FUORI BILANCIO'.0,0028/10/201612/11/2016
  351 / 2016N.37 del 21.10.2016DELIBERA DI CONSIGLIO   COMUNICAZIONI DEL SINDACO.0,0028/10/201612/11/2016
  350 / 2016N.36 del 21.10.2016DELIBERA DI CONSIGLIO   ISTITUZIONE COMMISSIONE CONSILIARE PER LA ' VIGILANZA, TRASPARENZA E PARTECIPAZIONE'.0,0028/10/201612/11/2016
  349 / 2016N.35 del 21.10.2016DELIBERA DI CONSIGLIO   LETTURA ED APPROVAZIONE VERBALI PRECEDENTE SEDUTA.0,0028/10/201612/11/2016
  347 / 2016N.64 del 21.10.2016DELIBERA DI GIUNTA   PATROCINIO GRATUITO PROGETTO ' IL BANCO ALIMENTARE' -0,0028/10/201612/11/2016
  346 / 2016SETT01 N.94 del 25.10.2016DETERMINA   REFERENDUM POPOLARI 4.12.2016 - COSTITUZIONE UFFICIO COMUNALE DI CENSIMENTO E IMPEGNO DI SPESE PER GLI ADEMPIMENTI CONNESSI.7.000,0025/10/201609/11/2016
  345 / 2016SETT01 N.93 del 25.10.2016DETERMINA   SERVIZIO CIVICO COMUNALE ANNO 2016 - APPROVAZIONE GRADUATORIA.0,0025/10/201609/11/2016
  341 / 2016SETT01 N.92 del 18.10.2016DETERMINA   COSTITUZIONE DI APPOSITO UFFICIO ELETTORALE COMUNALE PER LA CONSULTAZIONE ELETTORALE REFERENDARIA DEL 4.12.2016. IMPEGNO DI SPESA PER GLI ADEMPIMENTI CONNESSI.7.000,0018/10/201602/11/2016
  340 / 2016SETT01 N.91 del 18.10.2016DETERMINA   AFFIDAMENTO SERVIZIO MENSA SCOLASTICA ANNO 2016/2017 - COOPERATIVA SOCIALE ' ANIENE SERVIZI E SVILUPPO'.7.488,0018/10/201602/11/2016
  339 / 2016SETT02 N.123 del 15.10.2016DETERMINA   LIQUIDAZIONE FATTURA REALFA SERVICE SAS PER FORNITURA TONER E MATERIALI STAMPATI UFFICI COMUNALI720,1115/10/201630/10/2016
  338 / 2016SETT02 N.122 del 15.10.2016DETERMINA   IMPEGNO DI SPESA OFFICINA FELICI SAS PER MANUTENZIONE ORDINARIA APE PIAGGIO288,1415/10/201630/10/2016
  342 / 2016SETT02 N.116 del 13.10.2016DETERMINA   LIQUIDAZIONE FATTURA DITTA DIEBOL PER FORNITURA DCARBURANTE AUTOMEZZI COMUNALI.1.282,6213/10/201628/10/2016
  337 / 2016SETT02 N.121 del 13.10.2016DETERMINA   INTEGRAZIONE IMPEGNO DI SPESA DITTA S.E.A. PER ANALISI ACQUA POTABILE.976,0013/10/201628/10/2016
  336 / 2016SETT02 N.120 del 13.10.2016DETERMINA   IMPEGNO DI SPESA PER CONTROLLO CENTRALE TERMICA EDIFICIO COMUNALE E SCOLASTICO.524,6013/10/201628/10/2016
  335 / 2016SETT02 N.119 del 13.10.2016DETERMINA   LIQUIDAZIONE DITTA ELETTROTERMOIDRAULICA DI BIANCHI FRANCESCO PER FORNITURA IPOCLORITO DI SODIO.610,0013/10/201628/10/2016
  334 / 2016SETT02 N.118 del 13.10.2016DETERMINA   INTEGRAZIONE IMPEGNO DI SPESA DITTA QSS DI RIETI PER ADEMPIMENTI SALUTE E SICUREZZA SUL LAVORO.850,0013/10/201628/10/2016
  333 / 2016SETT02 N.117 del 13.10.2016DETERMINA   REGOLARIZZAZIONE ORDINANZA N.1 DEL 1.7.2016 RELATIVA AI LAVORI DI RIPARAZIONE ACQUEDOTTO SP29 (VIA IV NOVEMBRE) BIVIO NUOVA CIRCONVALLAZIONE ARINGO.1.500,0013/10/201628/10/2016
  331 / 2016SETT02 N.115 del 13.10.2016DETERMINA   LIQUIDAZIONE FATTURA DITTA VICARI ETTORE GIULIANO PER SOSTITUZIONE COLLETTORI IN RAME GUASTO FRAZIONE RICETTO.500,2013/10/201628/10/2016
  330 / 2016SETT02 N.114 del 13.10.2016DETERMINA   LIQUIDAZIONE FATTURA DITTA VICARI ETTORE GIULIANO PERR MANUTENZIONE CORPI RADIANTE EDIFICIO COMUNALE329,4013/10/201628/10/2016
  329 / 2016SETT02 N.113 del 13.10.2016DETERMINA   LIQUIDAZIONE FATTURA DITTA ELETTROTERMOIDRAULICA DI FRANCESCO BIANCHI PER LAVORI DI MESSA IN FUNZIONE POMPA SERBATOI COMUNALI0,0013/10/201628/10/2016
  327 / 2016SETT01 N.90 del 08.10.2016DETERMINA   PROGETTO SERVIZIO CIVICO COMUNALE - NOMINA COMMISSIONE.0,0008/10/201623/10/2016
  324 / 2016N.63 del 20.09.2016DELIBERA DI GIUNTA   APPROVAZIONE PERIZIA DI VARIANTE SUPPLETIVA SUI LAVORI DI ' MESSA IN SICUREZZSA DELL'EDILIZIA SCOLASTICA - SCUOLA ELEMENTARE CAPOLUOGO'.0,0006/10/201621/10/2016
  323 / 2016N.62 del 20.09.2016DELIBERA DI GIUNTA   RETROCESSIONE LOCULO CIMITERIALE.0,0006/10/201621/10/2016
  322 / 2016N.61 del 20.09.2016DELIBERA DI GIUNTA   CONCESSIONE PATROCINIO GRATUITO LOGO PER LA MANIFESTAZIONE ' IL PAESE DI BABBO NATALE 2016 - IV EDIZIONE'.0,0006/10/201621/10/2016
  321 / 2016N.34 del 20.09.2016DELIBERA DI CONSIGLIO   ADESIONE DEL COMUNE DI COLLALTO SABINO ALLA ASSOCIAZIONE DENOMINATA 'I BORGHI PIU' BELLI D'ITALIA NEL LAZIO'0,0006/10/201621/10/2016
  320 / 2016N.33 del 20.09.2016DELIBERA DI CONSIGLIO   INTERROGAZIONE A RISPOSTA ORALE0,0006/10/201621/10/2016
  319 / 2016N.32 del 20.09.2016DELIBERA DI CONSIGLIO   MODIFICHE ED INTEGRAZIONI AL REGOLAMENTO DEL CONSIGLIO E DELLE COMMISSIONI CONSILIARI-REDAZIONE,DEPOSITO E APPROVAZIONE VERBALI DELLE SEDUTE.0,0006/10/201621/10/2016
  318 / 2016N.31 del 20.09.2016DELIBERA DI CONSIGLIO   APPROVAZIONE DEL REGOLAMENTO PER LE VIDEORIPRESE E LA TRASMISSIONE DELLE SEDUTE PUBBLICHE VIA WEB.0,0006/10/201621/10/2016
  317 / 2016N.30 del 20.09.2016DELIBERA DI CONSIGLIO   LETTURA ED APPROVAZIONE VERBALI PRECEDENTE SEDUTA.0,0006/10/201621/10/2016
  316 / 2016SETT02 N.112 del 04.10.2016DETERMINA   IMPEGNO DI SPESA OFFICINA FELICI SAS PER MANUTENZIONE ORDINARIA PALA MECCANICA1.295,6404/10/201619/10/2016
  315 / 2016SETT02 N.111 del 04.10.2016DETERMINA   IMPEGNO DI SPESA DITTA FELICI SAS PER RIPARAZIONE PALA MECCANICA.179,3404/10/201619/10/2016
  314 / 2016SETT02 N.110 del 04.10.2016DETERMINA   IMPEGNO DI SPESA SOCIETA' SERITEL PER RIPARAIONE SISTEMA TELECONTROLLO ACQUA.1.140,7004/10/201619/10/2016
  313 / 2016SETT02 N.109 del 04.10.2016DETERMINA   IMPEGNO DI SPESA DITTA SACITE PER SVUOTAMENTO CAMPANE DI VETRO244,0004/10/201619/10/2016
  312 / 2016SETT02 N.108 del 04.10.2016DETERMINA   IMPEGNO DI SPESA DITTA CO.DI.BER PER LAVORI DI MANUTENZIONE ORDINARIA DELLE AULE E BAGNI LOCALE MENSA E PALESTRA2.745,0004/10/201619/10/2016
  311 / 2016SETT02 N.107 del 04.10.2016DETERMINA   LIQUIDAZIONE FATTURA DITTA CODIBER PER LAVORI DI RIPARAZIONE ACQUEDOTTO SP 29.1.400,0004/10/201619/10/2016
  310 / 2016SETT02 N.106 del 04.10.2016DETERMINA   LIQUIDAZIONE FATTURA N.4/PA DEL 22.09.2016 PER FORNITURA PIANTE ORNAMENTALI.1.045,0004/10/201619/10/2016
  309 / 2016SETT01 N.89 del 03.10.2016DETERMINA   AFFIDAMENTO SERVIZIO DI TRASPORTO SCOLASTICO ALLA SOCIETA' COOPERATIVA ANIENE SERVIZI E SVILUPPO.7.000,0003/10/201618/10/2016
  308 / 2016SETT02 N.105 del 27.09.2016DETERMINA   LIQUIDAZIONE FATTURA DITTA DIBEOL ECOLOGIA SRL PER FORNITURA GASOLIO MESE DI GIUGNO 2016616,0727/09/201612/10/2016
  307 / 2016SETT02 N.104 del 27.09.2016DETERMINA   LIQUIDAZIONE DITTA DIBEOL PER FORNITURA GASOLIO MESE DI APRILE435,2527/09/201612/10/2016
  305 / 2016SETT02 N.102 del 26.09.2016DETERMINA   LIQUIDAZIONE FATTURA DITTA DIBEOL ECOLOGICA PER FORNITURA CARBURANTE AUTOMEZZI COMUNALI2.436,8026/09/201611/10/2016
  304 / 2016SETT02 N.101 del 26.09.2016DETERMINA   LIQUIDAZIONE FATTURA DR. CALIENDO EMILIO PER RELAZIONE STIMA AREA FRAZIONE RICETTO..1.116,7926/09/201611/10/2016
  303 / 2016SETT02 N.100 del 26.09.2016DETERMINA   LIQUIDAZIONE FATTURA GEOM. ANGELA BALLACCI PER REDAZIONE INVENTARIO BENI MOBILI ED IMMOBILI COMUNALI.2.992,5026/09/201611/10/2016
  302 / 2016SETT02 N.99 del 26.09.2016DETERMINA   LIQUIDAZIONE FATTURA V2-1025 DEL 31.08.2016 - SMALTIMENTO R.S.I. AGOSTO 20164.916,4526/09/201611/10/2016
  300 / 2016SETT02 N.97 del 24.09.2016DETERMINA   LIQUIDAZIONE FATTURA N.7-16 - OFFICINA FELICI PER INTERVENTI SCUOLABUS.843,0224/09/201609/10/2016
  299 / 2016SETT02 N.96 del 24.09.2016DETERMINA   LIQUIDAZIONE FATTURA N.8-16 DEL 13.09.2016 PER RIPARAZIONE APE PIAGGIO.1.884,9024/09/201609/10/2016
  298 / 2016SETT02 N.95 del 24.09.2016DETERMINA   LIQUIDAZIONE FATTURA N.10-16 Q.S.S. DI RIETI1.037,0024/09/201609/10/2016
  301 / 2016SETT02 N.98 del 24.09.2016DETERMINA   LIQUIDAZIONE FATTURA N.SIP16-000007 DEL 31.08.2016 DITTA FARID SERVICE PER INTERVENTI SU AUTOCOMPATTATORE N.U.245,0520/09/201605/10/2016
  296 / 2016SETT02 N.94 del 20.09.2016DETERMINA   IMPEGNO SPESA DITTA CODIBER PER MANUTENZIONE ORDINARIA SCUOLA -PALESTRA -MENSA0,0020/09/201605/10/2016
  294 / 2016SETT01 N.88 del 20.09.2016DETERMINA   IMPEGNO SPESA DITTA CARTOPLASTICA REATINA DI RIETI PER FORNITURA TIMBRI0,0020/09/201605/10/2016
  293 / 2016N.60 del 19.09.2016DELIBERA DI GIUNTA   APPROVAZIONE DOMANDA DI PARTECIPAZIONE AL BANDO DELLA REGIONE LAZIO DI CUI ALLA DELIBERAZIONE DELL'UFFICIO DI PRESIDENZA 05.08.2016, N.82 PUBBLICATA NEL BOLLETTINO UFFICIALE DELLA REGIONE LAZIO N.73, DELL'INIZIATIVA DENOMINATA 'COLLALTO SABINO- IL PAESE DI BABBO NATALE - IV EDIZIONE'.0,0020/09/201605/10/2016
  292 / 2016SETT01 N.87 del 19.09.2016DETERMINA   LIQUIDAZIONE FATTURA PCPOMPEI DI POMPEI MARIO PER FORNITURA E ISTALLAZIONE ANTIVIRUS65,5719/09/201604/10/2016
  291 / 2016SETT01 N.86 del 19.09.2016DETERMINA   LIQUIDAZIONE FATTURA MISSIONE UFFICIO SRL PER FORNITURA CARTA401,5019/09/201604/10/2016
  290 / 2016SETT01 N.85 del 19.09.2016DETERMINA   LIQUIDAZIONE FATTURA IDEA DIGITALE PER COPIE ECCEDENTIPERIODO 26.05.16-25.08.1634,7719/09/201604/10/2016
  289 / 2016SETT02 N.93 del 17.09.2016DETERMINA   LIQUIDAZIONE FATTURA DITTA DIBEOL PER FORNITURA CARBURANTE AUTOMEZZI N.U.850,0617/09/201602/10/2016
  288 / 2016SETT02 N.92 del 17.09.2016DETERMINA   LIQUIDAZIONE FATTURA N.7 DITTA BERNARDINI AUGUSTO PER MANUTERNZIONE DECESPUGLIATORE.130,5417/09/201602/10/2016
  287 / 2016SETT02 N.91 del 17.09.2016DETERMINA   LIQUIDAZIONE FATTURA N. 6/2016 DITTA BERNARDI PER MANUTENZIONE DECESPUGLIATORE.0,0017/09/201602/10/2016
  285 / 2016SETT02 N.90 del 15.09.2016DETERMINA   IMPEGNO DI SPESA PER LAVORI DI RIPARAZIONE PERDITA LUNGO LE MURA PERIMETRALE DEL CENTRO STORICO.2.178,0015/09/201630/09/2016
  284 / 2016SETT01 N.84 del 15.09.2016DETERMINA   PROROGA TERMINE PRESENTAZIONE DOMANDE PROGETTO ' SERVIZIO CIVICO COMUNALE'.0,0015/09/201630/09/2016
  283 / 2016SETT02 N.89 del 15.09.2016DETERMINA   IMPEGNO DI SPESA PER FORNITURA IPOCLORITO DI SODIO.610,0015/09/201630/09/2016
  282 / 2016SETT01 N.83 del 15.09.2016DETERMINA   RIMBORSO SPESE AL COMUNE DI NESPOLO PER CONVENZIONE SERVIZIO DI VIGILANZA E LIQUIDIT└ INDENNIT└ DI MISSIONE AL VIGILE1.366,4115/09/201630/09/2016
  281 / 2016SETT01 N.82 del 15.09.2016DETERMINA   LIQUIDAZIONE FATTURA IEMME SISTEMI PER CANONE ASSISTENZA CENTRALINO0,0015/09/201630/09/2016
  280 / 2016SETT01 N.81 del 15.09.2016DETERMINA   LIQUIDAZIONE FATTURA STUDIO K PER CONSERVAZIONE DOCUMENTALE ANNO 2016600,0015/09/201630/09/2016
  279 / 2016SETT01 N.80 del 15.09.2016DETERMINA   LIQUIDAZIONE FATTURE STUDIO K PER ASSISTENZA PROGRAMMI ANNO 20168.350,0015/09/201630/09/2016
  277 / 2016SETT01 N.79 del 13.09.2016DETERMINA   LIQUIDAZIONE MENSA ASILO PERIODO APRILE-GIUGNO 2016945,0013/09/201628/09/2016
  274 / 2016SETT01 N.78 del 10.09.2016DETERMINA   AFFIDAMENTO SERVIZIO MENSA SCOLASTICA ANNO SCOLASTICO 2016/2017.7.200,0010/09/201625/09/2016
  273 / 2016SETT01 N.77 del 10.09.2016DETERMINA   PROROGA SERVIZIZO TRASPORTO ALUNNI648,0010/09/201625/09/2016
  272 / 2016SETT02 N.88 del 07.09.2016DETERMINA   IMPEGNO DI SPESA PER INTERVENTI DI MANUTENZIONE ORDINARIA AUTOCOMPATTATORE.254,8007/09/201622/09/2016
  271 / 2016BANDO DI GARA   BANDO VENDITA MATERIALE LEGNOSO BOSCO COMUNALE LA SELVA II░ LOTTO0,0007/09/201606/10/2016
  270 / 2016SETT02 N.87 del 06.09.2016DETERMINA   IMPEGNO DI SPESA PER FORNITURA CONTATORI ACQUA.825,0006/09/201621/09/2016
  268 / 2016SETT02 N.86 del 05.09.2016DETERMINA   IMPEGNO DI SPESA PER MESSA IN FUNZIONE DELLA POMPA PER L'ALIMENTAZIONE DELL'ACQUA DAI SERBATOI ARINGO AI SERBATOI CASTELLO.1.037,0005/09/201620/09/2016
  266 / 2016N.29 del 24.08.2016DELIBERA DI CONSIGLIO   NOMINA COMMISSIONI CONSILIARI PERMANENTI0,0001/09/201616/09/2016
  265 / 2016N.28 del 24.08.2016DELIBERA DI CONSIGLIO   APPROVAZIONE CONVENZIONE DI SEGRETERIA AI SENSI DELL'ART.30 DEL D.LGS. 267/20000,0001/09/201616/09/2016
  264 / 2016N.27 del 24.08.2016DELIBERA DI CONSIGLIO   ART.175 D.LGS. 267/2000 VARIAZIONI AL BILANCIO DI PREVISIONE 2016/20170,0001/09/201616/09/2016
  263 / 2016N.26 del 24.08.2016DELIBERA DI CONSIGLIO   LETTURA E APPROVAZIONE VERBALI PRECEDENTE SEDUTA0,0001/09/201616/09/2016
  262 / 2016N.25 del 24.08.2016DELIBERA DI CONSIGLIO   COMUNICAZIONI DEL SINDACO0,0001/09/201616/09/2016
  261 / 2016N.59 del 24.08.2016DELIBERA DI GIUNTA   APPROVAZIONE SCHEMA CONVENZIONE DI SEGRETERIA AI SENSI DELL'ART.30 DEL D.LGS.267/2000.0,0001/09/201616/09/2016
  260 / 2016N.58 del 24.08.2016DELIBERA DI GIUNTA   INDAGINE CONOSCITIVA SULLE CONDIZIONI DI UTILIZZO DEL DEPURATORE DEL COMUNE DI COLLALTO SABINO.0,0001/09/201616/09/2016
  259 / 2016N.57 del 24.08.2016DELIBERA DI GIUNTA   APPROVAZIONE PROGETTO ' SERVIZIO CIVICO.2.000,0001/09/201616/09/2016
  257 / 2016CONVOCAZ. RIUNIONE CONSIGLIO   CONVOCAZIONE CONSIGLIO COMUNALE PER IL 24.08.20160,0018/08/201601/09/2016
  258 / 2016SETT02 N.85 del 13.08.2016DETERMINA   MANUTENZIONE ORDINARIA E STRAORDINARIA STRADA E VERDE PUBBLICO E SERVIZIO RACCOLTA E TRASPORTO R.S.U. AFFIDAMENTO LAVORI ALLA COOPERATIVA SOCIALE ANIENE E SERVIZI E SVILUPPOO CON SEDE IN TIVOLI.3.000,0013/08/201628/08/2016
  256 / 2016SETT02 N.84 del 13.08.2016DETERMINA   LIQUIDAZIONE FATTURA BEYFIN PER FORNITURA GPL RISCALDAMENTO UFFICI.1.447,5313/08/201628/08/2016
  255 / 2016SETT02 N.83 del 13.08.2016DETERMINA   LIQUIDAZIONE FATTURE ECOLOGIA VITERBO PER SMALTIMENTO R.S.U.5.934,3613/08/201628/08/2016
  254 / 2016SETT01 N.76 del 10.08.2016DETERMINA   VARIAZIONE AL BLANCIO DI PREVIZIONE 2016/2018 PER UTILIZZO QUOTA VINCOLATA RISULTATO DI AVANZO DI AMMINISTRAZIONE 2015.0,0010/08/201625/08/2016
  253 / 2016SETT01 N.75 del 10.08.2016DETERMINA   LIQUIDAZIONE TRATTAMENTO DI FINE MANDATO AL SINDACO.6.455,0010/08/201625/08/2016
  252 / 2016SETT02 N.81 del 10.08.2016DETERMINA   IMPEGNO DI SPESA DITTA BERNARDI AUGUSTO PER MANUTENZIONE DECESPUGLIATORE610,0010/08/201625/08/2016
  251 / 2016SETT02 N.82 del 10.08.2016DETERMINA   IMPEGNO DI SPESA DITTA TOLLU GIUSEPPE PER MESSA A DIMORA PIANTE E FIORI GIARDINI E PARCHI COMUNALI.1.159,0010/08/201625/08/2016
  250 / 2016SETT02 N.80 del 10.08.2016DETERMINA   IMPEGNO DI SPESAA DITTA BERNARDI AUGUSTO DI CARSOLI PER RIPARAZIONE DECESPUGLIATORE-130,5410/08/201625/08/2016
  249 / 2016SETT02 N.79 del 10.08.2016DETERMINA   LIQUIDAZIONE FATTURA V2-530 ECOLOGIA VITERBO PER SMALTIMENTO RIFUITI MAGGIO 20162.201,5310/08/201625/08/2016
  248 / 2016SETT02 N.78 del 08.08.2016DETERMINA   IMPEGNO DI SPESA DTTA FARID SERVICE PER INTERVENTI DI RPARAZIONE AUTOMEZZO COMUNALE AUTOCOMPATTATORE245,0508/08/201623/08/2016
  247 / 2016SETT02 N.77 del 08.08.2016DETERMINA   LIQUIDAZIONE FATTURA ING. LUPI SRL PER MANUTENZIONE IMPIANTO DEPURAZIONE.1.980,0008/08/201623/08/2016
  246 / 2016SETT02 N.76 del 08.08.2016DETERMINA   IMPEGNO DI SPESA DITTA GIORGIO QUINTO PER FORNITURA VESTIARIO OPERAI COMUNALI.824,3508/08/201623/08/2016
  245 / 2016SETT02 N.75 del 08.08.2016DETERMINA   LIQUIDAZIONE FATTURE MEDIACONSUL PER AGGIORNAMENTO LEGISLATIVO SUL NUOVO CODICE DEGLI APPALTI.500,0008/08/201623/08/2016
  244 / 2016SETT02 N.74 del 08.08.2016DETERMINA   IMPEGNO DI SPESA OFFICINA FELICI SAS DI MARIO FELICI PER INTERVENTI SCUOLBUS COMUNALE.843,0208/08/201623/08/2016
  243 / 2016SETT02 N.73 del 08.08.2016DETERMINA   IMPEGNO DI SPESA OFFICINA FELICI PER MANUTENZIONE AUTOMEZZO COMUNALE APE PIAGGIO.1.884,9008/08/201623/08/2016
  241 / 2016SETT01 N.74 del 06.08.2016DETERMINA   LIQUIDAZIONE FATTURE MODULGRAFICA MAGGIOLI SPA PER FORNITURA STAMPATI REFEREDUM POPOLARI 17.04.2016250,7106/08/201621/08/2016
  239 / 2016SETT01 N.73 del 04.08.2016DETERMINA   IMPEGNO FORNITURA CARTA DITTA MISSIONE UFFICIO DI CITTADUCALE0,0004/08/201619/08/2016
  238 / 2016SETT01 N.72 del 04.08.2016DETERMINA   PROROGA INCARICO AVV. ALDO ROCCA QUALE LEGALE DI FIDUCIA DEL COMUNE PER INCARICHI DI ASSISTENZA E DIFESA5.471,7004/08/201619/08/2016
  237 / 2016N.56 del 04.08.2016DELIBERA DI GIUNTA   ATTO DI INDIRIZZO PER PROROGA CONFERIMENTO INCARICO LEGALE ESTERNO MEDIANTE CONVENZIONE PER PATROCINIO LEGALE DELL'ENTE RELATIVAMENTE A CONTEZIOSI CIVILI E AMMINISTRATIVI.0,0004/08/201619/08/2016
  236 / 2016SETT01 N.71 del 02.08.2016DETERMINA   LIQUIDAZIONE DIRITTI DI SEGRETERIA DOTT. CLAUDIO LAVAGNINI PERIODO NOVEMBRE 2015- APRILE 20160,0002/08/201617/08/2016
  235 / 2016SETT01 N.70 del 02.08.2016DETERMINA   LIQUIDAZIONE COMPENSI SEGRETARIO COMUNALE DOTT. CLAUDIO LAVAGNINI49,3002/08/201617/08/2016
  234 / 2016N.24 del 29.07.2016DELIBERA DI CONSIGLIO   ASSESTAMENTO BILANCIO DI PREVISIONE 2016. RICOGNIZIONE STATO DI ATTUAZIONE DEI PROGRAMMI. SALVAGUARDIA EQUILIBRI DI BILANCIO ART.193 D.LGS.267/20000,0002/08/201617/08/2016
  233 / 2016N.23 del 29.07.2016DELIBERA DI CONSIGLIO   ARTT.151 E 170 DEL D. LGS. 267/2000 - APPROVAZIONE DOCUMENTO UNICO DI PROGRAMMAZIONE (DUP) 2017/20190,0002/08/201617/08/2016
  232 / 2016N.22 del 29.07.2016DELIBERA DI CONSIGLIO   LETTURA E APPROVAZIONE VERBALI PRECEDENTE SEDUTA0,0002/08/201617/08/2016
  231 / 2016N.55 del 29.07.2016DELIBERA DI GIUNTA   CONCESSIONE PATROCINIO E AUTORIZZAZIONE ALL'USO DEL LOGO A TITOLO GRATUITO DEL COMUNE DI COLLALTO SABINO. RICHIESTA DALL'ASSOCIAZIONE PRO-LOCO DI COLLALTO SABINO0,0001/08/201616/08/2016
  230 / 2016N.54 del 29.07.2016DELIBERA DI GIUNTA   APPROVAZIONE BANDO DI GARA PER LA VENDITA DEL MATERIALE LEGNOSO RITRAIBILE DAL TAGLIO COLTURALE DI FINE TURNO DEL BOSCO CEDUO DI PROPRIETA' COMUNALE DENOMINATO 'LA SELVA' II LOTTO0,0001/08/201616/08/2016
  229 / 2016N.53 del 29.07.2016DELIBERA DI GIUNTA   APPROVAZIONE DOCUMENTO UNICO DI PROGRAMMAZIONE (DUP) 2017/20190,0001/08/201616/08/2016
  227 / 2016SETT01 N.69 del 23.07.2016DETERMINA   L.R. 20/2006 - INTERVENTI A FAVORE DELLE PERSONE NON AUTOSUFFICIENTI - ANNO 2014.7.800,0023/07/201607/08/2016
  225 / 2016SETT01 N.68 del 21.07.2016DETERMINA   LIQUIDAZIONE STRAORDINARIO DIPENDENTI COMUNALI ELEZIONI COMUNALI 5.6.2016.983,6621/07/201605/08/2016
  224 / 2016SETT01 N.67 del 21.07.2016DETERMINA   IMPEGNO DI SPESA PER FORNITURA TONER DITTA REALFA DI CARSOLI (AQ)590,2521/07/201605/08/2016
  222 / 2016N.52 del 16.07.2016DELIBERA DI GIUNTA   BANDO DELLA REGIONE LAZIO PER LA CONCESSIONE DI FINANZIAMENTI REGIONALI A FAVORE DEI COMUNI PER LA REALIZZAZIONE DI INVESTIMENTI DI CARATTERE LOCALE PER IL PERIODO 2016/2018 APPROVATO CON DETERMINA DELLA REGIONE LAZIO DEL 23.06.2016 N.G07237 IN ATTUAZIONE DELLA DGR N.195/2016.0,0016/07/201631/07/2016
  216 / 2016N.51 del 09.07.2016DELIBERA DI GIUNTA   INDIRIZZO AI RESPONSABILI DEI SERVIZI PER IL REPERIMENTO DI PERSONALE PER I SERVIZI DI MANUTENZIONE VERDE PUBBLICO RSU E TRASPORTO SCOLASTICO.0,0011/07/201626/07/2016
  215 / 2016N.50 del 09.07.2016DELIBERA DI GIUNTA   INDIRIZZO AL RESPONSABILE DEL SERVIZIO FINANZIARIO PER EROGAZIONE CONTRIBUTO SCUOLA ELEMENTARE CORSO INGLESE.0,0011/07/201626/07/2016
  214 / 2016N.49 del 09.07.2016DELIBERA DI GIUNTA   ISTITUZIONE DISTACCAMENTO VIGILI DEL FUOCO COMUNE DI CARSOLI. ADESIONE.0,0011/07/201626/07/2016
  213 / 2016N.48 del 09.07.2016DELIBERA DI GIUNTA   PIANO DI SVILUPPO TURISTICO DEL TERRITORIO DEI ' MONTI E LAGHI CARSEOLANI' APPROVAZIONE PROGETTO.0,0011/07/201626/07/2016
  212 / 2016SETT01 N.66 del 07.07.2016DETERMINA   IMPEGNO SPESA STUDIO K PER ASSISTENZA FATTURAZIONE ELETTRONICA600,0007/07/201622/07/2016
  211 / 2016SETT02 N.72 del 02.07.2016DETERMINA   LIQUIDAZIONE FATTURA DA.CA. TIVOLI PER MANUTENZIONE ESTINTORI.280,6002/07/201617/07/2016
  210 / 2016N.21 del 23.06.2016DELIBERA DI CONSIGLIO   NOMINA DELLA COMMISSIONE PER LA FORMAZIONE DEGLI ELENCHI DEI GIUDICI POPOLARI.0,0002/07/201617/07/2016
  209 / 2016N.20 del 23.06.2016DELIBERA DI CONSIGLIO   PRESENTAZIONE AL CONSIGLIO DELLE LINEE PROGRAMMATICHE RELATIVE ALLE AZIONI E AI PROGETTI DA REALIZZARE NEL CORSO DEL MANDATO ANNI 2016/2021.0,0002/07/201617/07/2016
  208 / 2016N.19 del 23.06.2016DELIBERA DI CONSIGLIO   NOMINA RAPPRESENTANTI COMUNALI PRESSO LA COMUNIT└ MONTANA DEL TURANO ZONA VIII.0,0002/07/201617/07/2016
  207 / 2016N.18 del 24.06.2016DELIBERA DI CONSIGLIO   NOMINA DELLA COMMISSIONE ELETTORALE COMUNALE.0,0002/07/201617/07/2016
  206 / 2016N.17 del 17.06.2016DELIBERA DI CONSIGLIO   COMUNICAZIONE NOMINA COMPONENTI GIUNTA.0,0002/07/201617/07/2016
  205 / 2016N.16 del 23.06.2016DELIBERA DI CONSIGLIO   COSTITUZIONE DEI GRUPPI CONSILIARI E DESIGNAZIONE DEI RISPETTIVI CAPIGRUPPO.0,0002/07/201617/07/2016
  204 / 2016N.15 del 23.06.2016DELIBERA DI CONSIGLIO   GIURAMENTO DEL SINDACO0,0002/07/201617/07/2016
  203 / 2016N.14 del 23.06.2016DELIBERA DI CONSIGLIO   CONVALIDA DEI CONSIGLIERI ELETTI NELLA CONSULTAZIONE ELETTORALE DEL 5 GIUGNO 2016 ED EVENTUALI SURROGAZIONI.0,0002/07/201617/07/2016
  202 / 2016N.47 del 28.06.2016DELIBERA DI GIUNTA   L.R. 11/04 ART.19 - RICHIESTA CONTRIBUTO ANNO 2017 PER 2INTERVENTI DI MESSA IN SICUREZZA IMPIANTO PUBBLICA ILLUMINAZIONE FRAZIONE SAN LORENZO0,0029/06/201614/07/2016
  201 / 2016N.46 del 28.06.2016DELIBERA DI GIUNTA   L.R. 72/80 INTERVENTI STRADE COMUNALI - RICHIESTA CONTRIBUTO ANNO 2017.0,0029/06/201614/07/2016
  200 / 2016N.45 del 28.06.2016DELIBERA DI GIUNTA   L.R. 48/90 LAVORI DI AMMODERNAMENTO E COMPLETAMENTO TELECONTROLLO NEL CAPOLUOGO E FRAZIONI - RICHIESTA CONTRIBUTO ANNO 2017.0,0029/06/201614/07/2016
  199 / 2016N.44 del 28.06.2016DELIBERA DI GIUNTA   L.R. 11/04 ART. 19 RICHIESTA CONTRIBUTO PER LAVORI DI INTERVENTI MESSA IN SICUREZZA IMPIANTO PUBBLICA ILLUMINAZIONE -FRAZIONE RICETTO ANNO 2017.0,0029/06/201614/07/2016
  198 / 2016N.43 del 28.06.2016DELIBERA DI GIUNTA   L.RE. 11/04 ART.19 - RICHIESTA CONTRIBUTO FINANZIARIO PER I LAVORI DI ' INTERVENTI DI MESSA IN SICUREZZA P.I. COLLALTO SABINO CAPOLUOGO0,0029/06/201614/07/2016
  197 / 2016N.42 del 28.06.2016DELIBERA DI GIUNTA   L.R. 48/90 MANUTENZIONE STRAORDINARIA OPERE IGIENICO SANITARIE FRAZIONE SAN LORENZO - RICHIESTA CONTRIBUTO ANNO 20170,0029/06/201614/07/2016
  196 / 2016N.41 del 28.06.2016DELIBERA DI GIUNTA   L.R. 48/90 MANUTENZIONE STRAORDINARIA OPERE IGIENICO SANITARIE FRAZIONE RICETTO- RICHIESTA CONTRIBUTO ANNO 20170,0029/06/201614/07/2016
  195 / 2016N.40 del 28.06.2016DELIBERA DI GIUNTA   L.R. 48/90 MANUTENZIONE STRAORDINARIA OPERE IGIENICO SANITARIE CAPOLUOGO COLLALTO SABINO - RICHIESTA CONTRIBUTO ANNO 2017.0,0029/06/201614/07/2016
  194 / 2016N.39 del 28.06.2016DELIBERA DI GIUNTA   MODIFICHE AL PROGRAMMA TRIENNALE DEI LL.PP. 2016/2018 ED ELENCO ANNUALE DELLE OPRE PUBBLICHE.0,0029/06/201614/07/2016
  193 / 2016N.38 del 28.06.2016DELIBERA DI GIUNTA   L.R. 29/92 DIRITTO ALLO STUDIO - ANNO 2016/20170,0029/06/201614/07/2016
  192 / 2016N.37 del 28.06.2016DELIBERA DI GIUNTA   L.R. 12/81 - REALIZZAZIONE IMPIANTO FOTOVOLTAICO - RICHIESTA CONTRIBUTO ANNO 2017.0,0029/06/201614/07/2016
  191 / 2016N.36 del 28.06.2016DELIBERA DI GIUNTA   L.R. 12/81 INTERVENTI DI EDILIZIA SCOLASTICA - ADEGUAMENTO SISMICO - RICHIESTA CONTRIBUTO ANNO 20170,0029/06/201614/07/2016
  190 / 2016N.35 del 28.06.2016DELIBERA DI GIUNTA   L.R. 55/76 - RICHIESTA CONTRIBUTO PER LA FORMAZIONE DI STRUMENTI DI PIANIFICAZIONE TERRITORIALE ED URBANISTICA ANNO 20170,0029/06/201614/07/2016
  189 / 2016N.34 del 28.06.2016DELIBERA DI GIUNTA   L.R. 38/99 INTERVENTO DI RIQUALIFICAZIONE CENTRI STORICI CAPOLUOGO E FRAZIONI-RICHIESTA CONTIRBUTO ANNO 2017.0,0029/06/201614/07/2016
  188 / 2016N.33 del 28.06.2016DELIBERA DI GIUNTA   L.R. 38/99 INTERVENTO SU EDIFICI COMUNALI RICADENTI NEI CENTRI STORICI CAPOLUOGO E FRAZIONI- RICHIESTA CONTRIBUTO ANNO 2017.0,0029/06/201614/07/2016
  187 / 2016N.32 del 28.06.2016DELIBERA DI GIUNTA   QUANTIFICAZIONE SOMME NON SOGGETTE AD ESECUZIONE FORZATA 2░ SEMESTRE 2016 ART. 159 TUEL.0,0029/06/201614/07/2016
  185 / 2016SETT01 N.65 del 22.06.2016DETERMINA   LIQUIDAZIONE FATTURA IDEA DIGITALE SRL PER ECCEDENZA COPIE160,2622/06/201607/07/2016
  184 / 2016SETT01 N.64 del 22.06.2016DETERMINA   LIQUIDAZIONE FATTURE MAGGIOLI PER ELEZIONI COMUNALI DEL 05.06.2016239,1322/06/201607/07/2016
  183 / 2016SETT01 N.63 del 22.06.2016DETERMINA   RIMBORSO COMUNE DI NESPOLO PER SERVIZIO DI VIGILANZA I░ TRIMESTRE 20161.233,8422/06/201607/07/2016
  182 / 2016SETT02 N.71 del 22.06.2016DETERMINA   LIQUIDAZIONE FATTURA SEA PER ANALISI ACQUA341,6022/06/201607/07/2016
  181 / 2016SETT02 N.70 del 22.06.2016DETERMINA   IMPEGNO DI SPESA FORNITURA PNEUMATICI PER MOTOCARRO PIAGGIO TARGA BY 23577 DI PROPRIETA' COMUNALE.146,4022/06/201607/07/2016
  180 / 2016SETT02 N.69 del 22.06.2016DETERMINA   LIQUIDAZIONE FATTURA DIBEOL PER FORNITURA CARBURANTE AUTOMEZZI COMUNALI637,0122/06/201607/07/2016
  179 / 2016SETT02 N.68 del 22.06.2016DETERMINA   IMPEGNO DI SPESA PER LAVORI DI MANUTENZIONE ORDINARIA PER LA SISTEMAZIONE DEI CORPI RADIANTI EDIFICIO COMUNALE329,4022/06/201607/07/2016
  178 / 2016SETT02 N.67 del 20.06.2016DETERMINA   IMPEGNO DI SPESA PER MANUTENIZONE STRAORDINARIA CON RIPARAZIONE VALVOLE DI INTERCETTAZIONE IN POZZETTO STRADALE.275,0020/06/201605/07/2016
  177 / 2016SETT02 N.66 del 20.06.2016DETERMINA   IMPEGNO DI SPESA PER LAVORI DI MANUTENZIONE STRAORDINARIA CON SOSTITUZIONE VALDOLA DI SCARICO SERBATOI DI DECANTAZIONE SULLA LINEA COLLEGIOVE COLLALTO.462,0020/06/201605/07/2016
  176 / 2016SETT02 N.65 del 18.06.2016DETERMINA   APPOROVAZIONE RENDICONTO DELLA SPESA FINALE LAVORI DI INTERVENTI PER ELIMINAZIONE BARRIERE ARCHITETTONICHE NEGLI EDIFICI COMUNALI.0,0018/06/201603/07/2016
  175 / 2016SETT02 N.64 del 18.06.2016DETERMINA   APPROVAZIONE STATO FINALE E CERTIFICATO DI REGOLARE ESECUZIONE LAVORI DI ' INTERVENTI PER L'ELIMINAZIONE DELLE BARRIERE ARCHITETTONICHE.508,6018/06/201603/07/2016
  174 / 2016SETT02 N.63 del 18.06.2016DETERMINA   LIQUIDAZIONE INCENTIVO INTERVENTO ' LAVORI DI ACCESSIBILIT└ E ELIMINAZIONE DELLE BARRIERE ARCHITETTONICHE.472,0018/06/201603/07/2016
  173 / 2016SETT02 N.62 del 18.06.2016DETERMINA   LIQUIDAZIONE FATTURE SOCIETA' ALFA ELEVATORI PER INSTALLAZIONE MODULI FUNZIONAMENTO ASCENSORE PROGETTO ELIMINAZIONE BARRIERE ARCHITETTONICHE.2.348,9918/06/201603/07/2016
  172 / 2016SETT02 N.61 del 18.06.2016DETERMINA   LIQUIDAZIONE PARCELLA ING. DI LIGINIO SERAFINO DIREZIONE LAVORI ' ELIMINAZIONE BARRIERE ARCHITETTONICHE'6.820,6918/06/201603/07/2016
  171 / 2016SETT02 N.60 del 18.06.2016DETERMINA   LIQUIDAZIONE FATTURA V2-283 ECOLOGIA VITERBOI PER SMALTIMENTO R.S.U.1.690,1918/06/201603/07/2016
  170 / 2016SETT02 N.59 del 18.06.2016DETERMINA   LIQUIDAZIONE FATTURA ECOLOGIA VITERBO PER SMLATIMENTO RIFUITI SOLIDI URBANI.1.914,5018/06/201603/07/2016
  169 / 2016SETT02 N.58 del 18.06.2016DETERMINA   LIQUIDAZIONE FATTURA ING.LUPI PER SERVIZIO MANUTENZIONE IMPIANTO DEPURAZIONE.1.980,0018/06/201603/07/2016
  168 / 2016SETT02 N.57 del 17.06.2016DETERMINA   LIUQIDAZIONE FATTURA DITTA BEYFIN PER FORNITURA GPL4.964,7517/06/201602/07/2016
  167 / 2016SETT02 N.56 del 17.06.2016DETERMINA   LIQUIDAZIONE FATTURA MEDIACOLSUNL PER SERVIZIO AGGIORNAMENTO CODICE APPALTI.250,0017/06/201602/07/2016
  166 / 2016SETT01 N.62 del 14.06.2016DETERMINA   LIQUIDAZIONE COMPENSI SEGGIO ELEZIONI COMUNALI DEL 05.06.2016750,0014/06/201629/06/2016
  163 / 2016SETT01 N.61 del 13.06.2016DETERMINA   LIQUIDAZIONE FATTURA STUDIO K PER GESTIONE SERVIZIO DI CONSERVAZIONE ANNO 2015732,0013/06/201628/06/2016
  162 / 2016SETT01 N.60 del 13.06.2016DETERMINA   LIQUIDAZIONE FATTURA COOPERATIVA IL SOLCO PER MENSA SCOLASTICA MESE DI APRILE864,5013/06/201628/06/2016
  161 / 2016SETT01 N.59 del 13.06.2016DETERMINA   LIQUIDAZIONE FATTURA LINEA UFFICIO DI RIETI PER RIMOZIONE VIRUS E INSTALLAZIONE PROGRAMMI231,8013/06/201628/06/2016
  160 / 2016SETT01 N.58 del 09.06.2016DETERMINA   LIQUIDAZIONE DI SPESA DEL LAVORO STRAORDINARIO PRESTATO DAL PERSONAOLE DIPENDENTE IN OCCASIONE DEI REFERENDUM POPOLARI DEL 17.04.2016394,3809/06/201624/06/2016
  159 / 2016SETT01 N.57 del 09.06.2016DETERMINA   LIQUIDAZIONE FATTURA CE.DI.MAR PER FORNITURA LIBRI DI TESTO SCUOLA ELEMENTARE0,0009/06/201624/06/2016
  158 / 2016SETT01 N.56 del 30.05.2016DETERMINA   APPROVAZIONE ELENCO DOMANDE BANDO DISTRETTUALE PER EROGAZIONE CONTRIBUTO STRAORDINARIO FAMIGLIE CON DUE O PIU' FIGLI. FIGLI0,0030/05/201615/06/2016
  157 / 2016N.31 del 24.05.2016DELIBERA DI GIUNTA   APPROVAZIONE NOTA DI AGGIORNAMENTO AL DUP 2016/2018.0,0028/05/201612/06/2016
  154 / 2016N.11 del 24.05.2016DELIBERA DI CONSIGLIO   RATIFICA DELIBERA G.M. N. 19 DEL 28.04.2016 ' APPROVAZIONE ALIQUOTE IMU 2016'.0,0027/05/201611/06/2016
  153 / 2016N.12 del 24.05.2016DELIBERA DI CONSIGLIO   RATIFICA DELIBERA CONSIGLIO N. 25 DEL 7.5.2016 ' RICOGNIZIONE BENI IMMOBILI DI PROPRIETA' COMUNALE'.0,0027/05/201611/06/2016
  152 / 2016N.10 del 24.05.2016DELIBERA DI CONSIGLIO   RATIFICA DELIBERA G.M. N.18 DEL 28.04.2016 ' APPROVAZIONE ALIQUOTE TASI 2016.0,0027/05/201611/06/2016
  151 / 2016N.9 del 24.05.2016DELIBERA DI CONSIGLIO   RATIFIA DELIBERA G.M. N. 17 DEL 28.04.2016 ' APPROVAZIONE TARIFFE TARI 2016'0,0027/05/201611/06/2016
  150 / 2016N.8 del 24.05.2016DELIBERA DI CONSIGLIO   RATIFICA DELIBERA G.M. N. 16 DEL 28.04.2016 ' APPROVAZIONE PIANO FINANZIARIO TARI 2016'.0,0027/05/201611/06/2016
  149 / 2016N.7 del 24.05.2016DELIBERA DI CONSIGLIO   BILANCIO DI PREVIZIONE 2016 RELAZIONE PREVIZIONALE E PROGRAMMATICA 2016/2018 - BILANCIO PLURIENNALE 2016/2018 - APPROVAZIONE.0,0027/05/201611/06/2016
  148 / 2016N.6 del 24.05.2016DELIBERA DI CONSIGLIO   ADDIZIONALE IRPEF D.L.VO 28.08.1998 N. 360 -DETERMINAZIONE ANNO 2016.0,0027/05/201611/06/2016
  147 / 2016N.5 del 24.05.2016DELIBERA DI CONSIGLIO   APPROVAZIONE PROGRAMMA TRIENNALE OO.PP. 2016/2018 ED ELELNCO ANNUALE 2016.0,0027/05/201611/06/2016
  146 / 2016N.4 del 24.05.2016DELIBERA DI CONSIGLIO   VERIFICA QUANTITA' AREE E FABBRICATI DA DESTINARE ALLA RESIDENZA, ALLE ATTIVIT└ PRODUTTIVE E TERZIARIE EX LEGGE 167/62 L.865/71 E LEGGE 457/78.0,0027/05/201611/06/2016
  145 / 2016N.3 del 24.05.2016DELIBERA DI CONSIGLIO   APPROVAZIONE CONTO CONSUNTIVO ESERCIZIO 20150,0027/05/201611/06/2016
  144 / 2016N.2 del 24.05.2016DELIBERA DI CONSIGLIO   LETTURA ED APPROVAZIONE VERBALI PRECEDENTE SEDUTA.0,0027/05/201611/06/2016
  143 / 2016N.1 del 24.05.2016DELIBERA DI CONSIGLIO   CONVALIDA CONSIGLIERE COMUNALE0,0027/05/201611/06/2016
  142 / 2016N.13 del 24.05.2016DELIBERA DI CONSIGLIO   PARTECIPAZIONE AL COSTITUENDO GAL - GRUPPO DI AZIONE LOCALE AI SENSI DEL BANDO PER LA PREDISPOSIZIONE, PRESENTAZIONE E SELEZIONE DELLE PSL DEI GRUPPI GAL''.0,0025/05/201609/06/2016
  140 / 2016SETT02 N.55 del 20.05.2016DETERMINA   LIQUIDAZIONE FATTURA COOPERATIVA ANIENE PER SERVIZIO MANUTENZIONE STRADE GENNAIO 2016330,0020/05/201604/06/2016
  139 / 2016SETT02 N.54 del 20.05.2016DETERMINA   LIQUIDAZIONE FATURA COOP. ANIENE PER SERVIZIO SCUOLABUS MESE DI FEBBRAIO MARZO 20160,0020/05/201604/06/2016
  138 / 2016SETT02 N.53 del 19.05.2016DETERMINA   LIQUIDAZIONE FATTUR AN. 34 DEL 18.04.2016 COOPERATIVA ANIENE E SERVIZI PER SERVIZIO SCUOLABUS PERIODO GENNAIO 2016.673,2020/05/201604/06/2016
  132 / 2016SETT01 N.25 del 12.05.2016DETERMINA   IMPEGNO SPESA DITTA LINEA UFFICIO PER RIMOZIONE VIRUS231,8012/05/201627/05/2016
  131 / 2016SETT02 N.52 del 12.05.2016DETERMINA   APPROVAZIONE CERTIFICATO DI REGOLARE ESECUZIONE LAVORI RELATIVI AL 'RECUPERO EDIFICIO COMUNALE E ALLESTIMENTO PUNTO DI COMUNICAZIONE E DIVULGAZIONE' - APPROVAZIONE RENDICONTO DELLA SPESA.0,0012/05/201627/05/2016
  130 / 2016SETT01 N.24 del 12.05.2016DETERMINA   LIQUIDAZIONE FATTURA IL SOLCO PER MENSA SCOLASTICA MESE DI MARZO929,5012/05/201627/05/2016
  129 / 2016N.30 del 11.05.2016DELIBERA DI GIUNTA   ELEZIONI DEL SINDACO E DEL CONSIGLIO COMUNALE IN DATA 5 GIUGNO 2016. DELIMITAZIONE , RIPARTIZIONE ED ASSEGNAZIONE DEGLI SPAZI PER LE AFFISSIONI DI PROPAGANDA A COLORO CHE PARTECIPANO ALLA COMPETIZIONE CON LISTE E CANDIDATURE.0,0011/05/201626/05/2016
  128 / 2016N.29 del 07.05.2016DELIBERA DI GIUNTA   PARTECIPAZIONE AL COSTITUENDO GAL - GRUPPO AZIONE LOCALE.0,0011/05/201626/05/2016
  127 / 2016N.28 del 07.05.2016DELIBERA DI GIUNTA   ELEZIONI COMUNALI 05.06.2016 INDIVIDUAZIONE LUOGHI PER LA PROPAGANDA ELETTORALE.0,0011/05/201626/05/2016
  126 / 2016N.27 del 07.05.2016DELIBERA DI GIUNTA   APPROVAZIONE SCHEMA DI BILANCIO 2016-BILANCIO PLURIENNALE 2016/2018 E RELAZIONE PREVISIONALE PROGRAMMATICA TRIENNIO 2016/20180,0011/05/201626/05/2016
  125 / 2016N.26 del 07.05.2016DELIBERA DI GIUNTA   COSAP - DETERMINAZIONI TARIFFE ANNO 20160,0011/05/201626/05/2016
  124 / 2016N.25 del 07.05.2016DELIBERA DI GIUNTA   RICOGNIZIONE BENI IMMOBILI DI PROPRIETA' COMUNALE SUSCETTIBILI DI ALIENAZIONE E/O DI VALORIZZAZIONE AI SENSI DELL'ART.58 E DEL D.L. 112/2008 CONVERTITO CON MODIFICA DI LEGGE 133/20080,0011/05/201626/05/2016
  123 / 2016N.24 del 07.05.2016DELIBERA DI GIUNTA   ILLUMINAZIONE VOTIVA CIMITERI- DETERMINAZIONE TARIFFE 20160,0011/05/201626/05/2016
  122 / 2016N.23 del 07.05.2016DELIBERA DI GIUNTA   SERVIZI A DOMANDA INDIVIDUALE- DETERMINAZIONE TARIFFE MENSA SCOLASTICA 20160,0011/05/201626/05/2016
  121 / 2016N.22 del 07.05.2016DELIBERA DI GIUNTA   IMPOSTA COMUNALE PUBBLICITA' E DIRITTI PUBBLICHE AFFISSIONI-DETERMINAZIONI 20160,0011/05/201626/05/2016
  120 / 2016N.21 del 07.05.2016DELIBERA DI GIUNTA   PROGRAMMA FABBISOGNO DEL PERSONALE 2016/20180,0011/05/201626/05/2016
  119 / 2016N.20 del 07.05.2016DELIBERA DI GIUNTA   APPROVAZIONE PIANO TECNICO DI GESTIONE ACQUEDOTTO- DETERMINAZIONE TARIFFE ANNO 20160,0011/05/201625/05/2016
  115 / 2016SETT02 N.51 del 06.05.2016DETERMINA   LIQUIDAZIONE FATTURA IMPRESA CODIBER PER REALIZZAZIONE LAVORI DI ' RECUPERO EDIFICIO COMUANLE E ALLESTIMENTO PUNTO DI COMUNCIAZIONE E DIVULGAZIONE'.33.000,0006/05/201621/05/2016
  114 / 2016SETT02 N.50 del 06.05.2016DETERMINA   LIQUIDAZIONE FATTURA GEOM. ABOLIZIONE FRANCESCO PER PROGETTAZIONE ' LAVORI DI RECUPERO EDICIO COMUNALE E ALLESTIMENTO PUNTO DI DIVULGAZIONE':2.837,0406/05/201621/05/2016
  113 / 2016SETT02 N.49 del 06.05.2016DETERMINA   LIQUIDAZIONE FATTURA ARCH.BIAGI PER PROGETTAZIONE LAVORI DI 'RECUPERO EDIFICIO COMUNALE E ALLESTIMENTO PUNTO DI COMUNICAZIONE E DIVULGAZIONE'.2.704,0006/05/201621/05/2016
  112 / 2016SETT02 N.48 del 06.05.2016DETERMINA   LIQUIDAZIONE FATTURA IMPRESA CODIBER S.R.L. PER LAVORI DI MANUTENZIONE ORDINARIA EDIFICIO COMUNALE E SCOLALSTICO2.440,0006/05/201620/05/2016
  109 / 2016SETT02 N.47 del 02.05.2016DETERMINA   AFFIDAMENTO A TRATTATIVA PRIVATA VENDITA MATERIALE LEGNOSO PROVENIENTE DAI BOSCHI CUNCULA E PANNICARI:0,0002/05/201617/05/2016
  108 / 2016SETT01 N.23 del 30.04.2016DETERMINA   PROGETTO LEGGE 162/98 - LIQUIDAZIONE.1.823,5030/04/201615/05/2016
  107 / 2016SETT02 N.46 del 29.04.2016DETERMINA   LIQUIDAZIONE FATTURA DITTA ALFA SERVICE PER FORNITURA TONER MACCHINE STAMPANTI UFFICI396,7629/04/201614/05/2016
  106 / 2016SETT02 N.42 del 23.04.2016DETERMINA   ACQUISTO POMPE PER RICIRCOLO FANGHI DEPURATORE4.880,0029/04/201614/05/2016
  105 / 2016N.19 del 28.04.2016DELIBERA DI GIUNTA   APPROVAZIONE ALIQUOTE IMU 20160,0029/04/201614/05/2016
  104 / 2016N.18 del 28.04.2016DELIBERA DI GIUNTA   APPROVAZIONE ALIQUOTE TASI 20160,0029/04/201614/05/2016
  103 / 2016N.17 del 28.04.2016DELIBERA DI GIUNTA   APPROVAZIONE TARIFFE TARI 20160,0029/04/201614/05/2016
  102 / 2016N.16 del 28.04.2016DELIBERA DI GIUNTA   APPROVAZIONE PIANO FINANZIARIO TARI 20160,0029/04/201614/05/2016
  101 / 2016N.15 del 28.04.2016DELIBERA DI GIUNTA   VENDITA BOSCO COMUNALE LOC. CAMPEPOLI - TRATTATIVA PRIVATA.0,0029/04/201614/05/2016
  100 / 2016SETT02 N.45 del 29.04.2016DETERMINA   LIQUIDAZIONE FATTURE DIBEOL ROMA PER FORNITURA CARBURANTE AUTOEMZZI COMUNALI2.054,4129/04/201614/05/2016
  99 / 2016SETT02 N.44 del 29.04.2016DETERMINA   MPEGNO DI SPESA MEDIACONSUL SRL PER CORSO DI AGGIORNAMENTO NUOVO CODICE DEGLI APPALTI.750,0029/04/201614/05/2016
  98 / 2016SETT02 N.43 del 29.04.2016DETERMINA   IMPEGNO DI SPESA PER SERVIZIO MANUTENZIZONE IMPIANTI ANTINCENDIO.561,2029/04/201614/05/2016
  97 / 2016SETT01 N.22 del 27.04.2016DETERMINA   IMPEGNO DI SPESA MODULGRAFICA MAGGIOLI PER FORNITURA STAMPATI ELEZIONI COMUNALI 5.6.2016.240,0027/04/201612/05/2016
  96 / 2016SETT01 N.21 del 27.04.2016DETERMINA   COSTITUZIONE UFFICIO ELETTORALE PER LE ELEZIONI AMMINISTRATIVE 5.6.2016 - IMPEGNO DI SPESA PER ADEMPIMENTI CONNESSI.7.000,0027/04/201612/05/2016
  95 / 2016SETT01 N.20 del 22.04.2016DETERMINA   LIQUIDAZIONE COMPETENZE SEGGIO CONSULTAZIONI REFERENDARIE 17.04.2016.546,0022/04/201607/05/2016
  94 / 2016SETT01 N.19 del 21.04.2016DETERMINA   PROROGA SERVIZIO CIVICO COMUNALE.800,0021/04/201606/05/2016
  93 / 2016N.14 del 19.04.2016DELIBERA DI GIUNTA   ULTERIORE PROROGA SERVIZIO CIVICO COMUNALE: INDIRIZZO AL RESPONSABILE DEL SERVIZIO FINANZIARIO.0,0021/04/201606/05/2016
  89 / 2016SETT02 N.41 del 19.04.2016DETERMINA   AFFIDAMENTO INCARICO AL DOTT. ONORI FRANCO PER LA REDAZIONE DI GIUSTA RELAZIONE TECNICA SULLOO STATO DELL'ESSENZA RBOREA TIGLIO (TILIUS L.) PRESSO LA FRAZINE SAN LORENZO.200,0019/04/201604/05/2016
  87 / 2016SETT02 N.40 del 11.04.2016DETERMINA   IMPEGNO SPESA DITTA DIBEOL PER FORNITURA GASOLIO DA TRAZIONE6.000,0011/04/201626/04/2016
  86 / 2016SETT02 N.39 del 11.04.2016DETERMINA   IMPEGNO SPESA DITTA ING. LUPI PER MANUTENZIONE DEPURATORE8.000,0011/04/201626/04/2016
  85 / 2016SETT02 N.38 del 11.04.2016DETERMINA   IMPEGNO SPESA DITTA ECOLOGIA VITERBO PER SMALTIMENTO RIFIUTI SOLIDI URBANI19.000,0011/04/201626/04/2016
  84 / 2016SETT02 N.37 del 11.04.2016DETERMINA   IMPEGNO SPESA DITTA BEYFIN PER FORNITURA GPL19.500,0011/04/201626/04/2016
  83 / 2016SETT01 N.18 del 11.04.2016DETERMINA   IMPEGNO DI SPESA DITTA IEMME SISTEMI PER ASSISTENZA CENTRALINO1.200,0011/04/201626/04/2016
  82 / 2016SETT01 N.17 del 11.04.2016DETERMINA   IMPEGNO DI SPESA SOCIETA' TELECOM PER SERVIZIO LINEA TELEFONICA4.000,0011/04/201626/04/2016
  81 / 2016SETT01 N.16 del 11.04.2016DETERMINA   IMPEGNO SPESA SOCIETA' ENEL PER FORNITURA ENERGIA ELETTRICA17.500,0011/04/201626/04/2016
  80 / 2016SETT01 N.15 del 11.04.2016DETERMINA   IMPEGNO SPESA STUDIO K PER ASSISTENZA ANNO 20164.300,0011/04/201626/04/2016
  79 / 2016SETT01 N.14 del 11.04.2016DETERMINA   LIQUIDAZIONE MENSA ASILO855,0011/04/201626/04/2016
  78 / 2016SETT01 N.13 del 11.04.2016DETERMINA   LIQUIDAZIONE FATTURA IL SOLCO PER FORNITURA PASTI MENSA SCOLASTICA MESE DI FEBBRAIO 2016923,0011/04/201626/04/2016
  77 / 2016SETT02 N.36 del 08.04.2016DETERMINA   LIQUIDAZIONE FATTURA DITTA CIGNITTI MARIANO PER LAVORI DI SPURGO FOSSE BIOLOGICHE.2.090,0008/04/201623/04/2016
  76 / 2016SETT02 N.35 del 08.04.2016DETERMINA   LIQUIDAZIONE FATTURA SOCIETA' ECOLOGIA VITERBO SRL ROMA.2.849,0408/04/201623/04/2016
  75 / 2016SETT02 N.34 del 08.04.2016DETERMINA   LIQUIDAZIONE FATTURA ING. LUPI PER MANUTENZIONE IMPIANTO DI DEPURAZIONE.1.980,0008/04/201623/04/2016
  74 / 2016SETT02 N.33 del 08.04.2016DETERMINA   LIQUIDAZIOEN FATTUR AELETTROTERMOIDRAULICA DI FRANCESCO BIANCHI PER FORNITURA ACQUA POTABILE.183,0008/04/201623/04/2016
  73 / 2016SETT02 N.32 del 08.04.2016DETERMINA   LIQUIDAZIONE FATTURA ELETTRO TERMO IDRAULICA DI FRANCESCO BIANCHI PER FORNITURA IPOCLORITO DI SODIO.610,0008/04/201623/04/2016
  72 / 2016N.13 del 07.04.2016DELIBERA DI GIUNTA   APPROVAZIONE DELLO SCHEMA DI RENDICONTO DELLA GESTIONE 2015 .0,0007/04/201622/04/2016
  71 / 2016N.12 del 07.04.2016DELIBERA DI GIUNTA   RIACCERTAMENTO ORDINARIO DEI RESIDUI ATTIVI E PASSIVI.0,0007/04/201621/04/2016
  70 / 2016SETT02 N.31 del 07.04.2016DETERMINA   AGGIORNAMENTO INVENTARIO E PATRIMONIO COMUNALE ANNO 2015.0,0007/04/201622/04/2016
  69 / 2016SETT02 N.30 del 02.04.2016DETERMINA   IMPEGNO DI SPESA PER LA REDAZIONE DELL'INVENTARIO DEI BENI MOBILI ED IMMOBILI DI PROPRIETA' COMUNALE.3.202,5002/04/201617/04/2016
  68 / 2016SETT02 N.29 del 02.04.2016DETERMINA   IMPEGNO DI SPESA SOCIETA' Q.A.S. DI RIETI PER ADEMPIMENTI D:LGS.81/2008 SALUTE SICUREZZA DEL LAVORO.1.037,0002/04/201617/04/2016
  67 / 2016SETT02 N.28 del 02.04.2016DETERMINA   IMPEGNO DI SPESA REALFA SERVICE SAS PER FORNITURA CARTUCCE E TONER PER STAMPANTI E FAX UFFICI COMUNALI.396,7602/04/201617/04/2016
  66 / 2016SETT02 N.27 del 02.04.2016DETERMINA   IMPEGNO DI SPESA DITTA PRAGMA PER SMALTIMENTO E RIMOZIONE RIFIUTI INGOMBRANTI.660,0002/04/201617/04/2016
  65 / 2016SETT02 N.26 del 02.04.2016DETERMINA   IMPEGNO DI SPESA SOCIETA' PRAGMA ╚ER SVUOTAMENTO CAMPANE RACCOLTA VETRO.0,0002/04/201617/04/2016
  64 / 2016SETT02 N.25 del 02.04.2016DETERMINA   LIQUIDAZIONE FATTURA BIEMME SERVIZI PER LAVORI DI MANUTENZIONE STRAORDINARIA IMPIANTO PUBBLICA ILLUMINAZIONE.4.270,0002/04/201617/04/2016
  62 / 2016SETT02 N.24 del 25.03.2016DETERMINA   IMPEGNO DI SPESA PER FORNITURA IPOCLORITO DI SODIO.610,0025/03/201609/04/2016
  61 / 2016SETT02 N.23 del 22.03.2016DETERMINA   NOMINA COORDINATORE PER LA SICUREZZA IN FASE DI ESECUZIONE DEI LAVORI DI RECUPERO E MESSA IN SICUREZZA DELL'EDILIZIA SCOLASTICA SCUOLA ELEMENTARE DI COLLALTO SABINO.1.795,0522/03/201606/04/2016
  60 / 2016SETT02 N.22 del 22.03.2016DETERMINA   NOMINA DIRETTORE DEI LAVORI PER '' LAVORI DI RECUPERO E MESSA IN SICUREZZA DELL'EDILIZIA SCOLASTICA SCUOLA ELEMENTARE DI COLLALTO SABINO'.2.674,6222/03/201606/04/2016
  59 / 2016N.11 del 17.03.2016DELIBERA DI GIUNTA   INCARICO RESPONSABILE AREA TECNICO E MANUTENTIVA E AD INTERIM RESPONSABILE AREA URBANISTICA EX ART.110 COMMA 1 DEL TUEL. PROROGA ANNI 1 FINO AL 05.08.2017 - ARCH.GIAMPAOLO DESSI'. APPROVAZIONE.0,0022/03/201606/04/2016
  58 / 2016N.10 del 17.03.2016DELIBERA DI GIUNTA   REFERENDUM POPOLARE DEL 17.04.2016. DELIMITAZIONE, RIPARTIZIONE ED ASSEGNAZIONE DEGLI SPAZI PEWR LE AFFISSIONI DI PROPAGANDA DA PARTE DEI PARTITI O GRUPPI POLITICI RAPPRESENTATI IN PARLAMENTO E DEI PROMOTORI DEL REFERENDUM.0,0022/03/201606/04/2016
  57 / 2016N.9 del 17.03.2016DELIBERA DI GIUNTA   REFERENDUM POPOLARI 17.04.2016 INDIVIDUAZIONE DEGLI LUOGHI DESTINATI ALLE AFFISSIONI PER LA PROPAGANDA DA PARTE DEI PARTUITI E GRUPPI POLITICI RAPPRESENTATI IN PARLAMENTO E DEI PROMOTORI DEI REFERENDUM.0,0022/03/201606/04/2016
  56 / 2016SETT02 N.21 del 19.03.2016DETERMINA   AFFIDAMENTO LAVORI PER IL RECUPERO E MESSA IN SICUREZZA DELL'EDILIZIA SCOLASTICA SCUOLE ELEMENTARI DI COLLALTO SABINO50.665,0019/03/201603/04/2016
  55 / 2016SETT02 N.20 del 17.03.2016DETERMINA   RIAPPROVAZIONE QUADRO TECNICO ECONOMICO D.G.R. 42/2015 - PROGRAMMA STRAORDINARIO DI INTERVENTI PER IL RECUPERO E LA MESSA IN SICUREZZA DELL'EDILIZIA SCOLATICA SCUOLE ELEMENTARI COLLALTO SABINO CAPOLUOGO.0,0019/03/201602/04/2016
  54 / 2016SETT01 N.12 del 16.03.2016DETERMINA   LIQUIDAZIONE CONSIGLIERI COMUNALI GETTONI DI PRESENZA PERIODO 01.01.2013-31.12.20151.303,9016/03/201631/03/2016
  53 / 2016SETT01 N.11 del 16.03.2016DETERMINA   RIMBORSO COMUNE DI NESPOLO PER SERVIZIO VIGILANZA IV TRIMESTRE 20151.233,8416/03/201631/03/2016
  52 / 2016SETT01 N.10 del 16.03.2016DETERMINA   IMPEGNO DI SPESA PER ACQUISTO E CONFIGURAZIONE ANTIVIRUS80,0016/03/201631/03/2016
  51 / 2016SETT01 N.9 del 16.03.2016DETERMINA   IMPEGNO SPESA ACQUISTO FAX220,0016/03/201631/03/2016
  50 / 2016SETT01 N.8 del 16.03.2016DETERMINA   LIQUIDAZIONE FATTURA IDEA DIGITALE PER ECCEDENZA COPIE72,5916/03/201631/03/2016
  49 / 2016SETT02 N.19 del 15.03.2016DETERMINA   RIAPPROVAZIONE BANDO DI GARA TAGLIO COLTURALE DI FINE TURNO DEL BOSCO CEDUO DI PROPRIET└ COMUNALE SITUATO IN LOCALIT└ ' CAMPEPOLI':0,0015/03/201630/03/2016
  48 / 2016SETT02 N.18 del 15.03.2016DETERMINA   LAVORI DI MANUTENZIONE ORDINARIA ACQUEDOTTO COMUNALE IN FRAZIONE RICETTO. APPROVAZIONE CERTIFICATO DI R EGOLARE ESEUZIONE E RENDICONTO FINALE.0,0015/03/201630/03/2016
  47 / 2016SETT02 N.17 del 15.03.2016DETERMINA   LIQUIDAZIONE FATTURA IMPRESA CODIBER PERR LAVORI ACQUEDOTTO FRAZIONE RICETTO.4.723,8415/03/201630/03/2016
  43 / 2016SETT01 N.7 del 11.03.2016DETERMINA   IMPEGNO DI SPESA MAGGIOLI MODULGRAFICA PER FORNITURA STAMPATI ELETTORALI CONSULTAZIONI 17.04.2016.0,0011/03/201626/03/2016
  42 / 2016SETT01 N.6 del 11.03.2016DETERMINA   COSTITUZIONE UFFICIO ELETTORALE POER LA CONSULTAZIONE ELETTORALE DEL 17.04.2016 - IMPEGNO DI SPESA PER GLI ADEMPIMENTI CONNESSI.7.000,0011/03/201626/03/2016
  41 / 2016SETT02 N.16 del 11.03.2016DETERMINA   INCARICO STUDIO VITA PER RINNOVO C.P.I. ATTIVIT└ DI DEPOSITO GPL E VERIFICA DECENNALE.1.400,0011/03/201626/03/2016
  40 / 2016SETT01 N.5 del 09.03.2016DETERMINA   RIMBORSO LIBRI AGLI ALUNNI DELLE SCUOLE SUPERIORI ANNO SCOLASTICO 2014/2015 -500,0009/03/201624/03/2016
  39 / 2016SETT02 N.15 del 09.03.2016DETERMINA   LIQUIDAZIONE FATTURE OFFICINA FELICI SAS DI FELICI MARIO PER MANUTENZIONE ORDINARIA AUTOMEZZI COMUNALI.2.472,9409/03/201620/03/2016
  38 / 2016SETT02 N.15 del 09.03.2016DETERMINA   LIQUIDAZIONE FATTURE OFFICINA FELICI SAS DI FELICI MARIO PER MANUTENZIONE ORDINARIA AUTOMEZZI COMUNALI.2.472,9409/03/201620/03/2015
  37 / 2016SETT02 N.15 del 09.03.2016DETERMINA   LIQUIDAZIONE FATTURE OFFICINA FELICI SAS DI FELICI MARIO PER MANUTENZIONE ORDINARIA AUTOMEZZI COMUNALI.2.472,9409/03/201620/03/2015
  36 / 2016SETT02 N.14 del 09.03.2016DETERMINA   IMPEGNO DI SPESA OFFICINA FELICI SAS DI MARIO FELICI PER MANUTENZIONE ORDINARIA MOTOCARRO PIAGGIO.906,4609/03/201624/03/2016
  32 / 2016SETT01 N.4 del 02.03.2016DETERMINA   RIMBORSO CONVENZIONE VIGILANZA II E III TRIMESTRE 20151.357,2302/03/201617/03/2016
  31 / 2016SETT01 N.3 del 01.03.2016DETERMINA   LIQUIDAZIONE FATTURA COOPERATIVA IL SOLCO PER MENSA SCOLASTICA PERIODO NOVEMBRE E DICEMBRE1.462,5001/03/201616/03/2016
  30 / 2016SETT02 N.13 del 26.02.2016DETERMINA   REALIZZAZIONE INTERVENTO DI MANUTENZIONE ACQUEDOTTO NELLA FRAZIONE RICETTO- AFFIDAMENTO LAVORI DITTA CO.DI.BER.4.726,0026/02/201612/03/2016
  29 / 2016N.8 del 23.02.2016DELIBERA DI GIUNTA   APPROVAZIONE PROGETTO DEFINITIVO/ESECUTIVO PER INTERVENTO DI MANUTENZIONE ACQUEDOTTO COMUNALE PRESSO LA FRAZIONE DI RICETTO.0,0025/02/201611/03/2016
  27 / 2016N.7 del 22.02.2016DELIBERA DI GIUNTA   INDIRIZZO AL RESPONSABILE DEL SERVIZIO TECNICO PER AFFIDAMENTO DIRETTO SERVIZIO DI MANUTENZIONE PUBBLICA ILLUMINAZIONE.0,0023/02/201609/03/2016
  26 / 2016N.6 del 23.02.2016DELIBERA DI GIUNTA   APPROVAZIONE PROGETTO TAGLIO COLTURALE DI FINE TURNO DI UN BOSCO CEDUTO IN LOC. SELVA II░ LOTTO.0,0023/02/201609/03/2016
  25 / 2016N.5 del 23.02.2016DELIBERA DI GIUNTA   'SISTEMA PAGO PA': NOMINA REFERENTE DEI PAGAMENTI.0,0023/02/201610/03/2016
  23 / 2016SETT02 N.12 del 23.02.2016DETERMINA   LIQUIDAZIONE AMMINISTRAZIONE PROVINCIALE DI RIETI PER SPESE DI ISTRUTTORIA PROGETTO TAGLIO BOSCO SELVA 2░ LOTTO.500,0023/02/201608/03/2016
  75 / 2017SETT02 N.38 del 09.02.2017DETERMINA   IMPEGNO DI SPESA PER L'AFFIDAMENTO DEL SERVIZIO DI MANUTENZIONE ORDINARIA AUTOMEZZI DI PROPRIETA' DEL COMUNE DI COLLALTO SABINO390,0009/02/201624/02/2016
  22 / 2016N.4 del 26.01.2016DELIBERA DI GIUNTA   CONFERMA IMPIEGO ATTIVITA' LAVORATORI SOCIALMENTE UTILI ANNO 2016 PRESSO COMUNE DI COLLALTO SABINO.0,0026/01/201610/02/2016
  20 / 2016N.11 del 22.01.2016DETERMINA   IMPEGNO DI SPESA DITTA CODIBER PER LAVORI DI MANUTENZIONE ORDINARIA TETTO EDIFICIO COMUNALE E SCOLASTICO.2.440,0022/01/201606/02/2016
  19 / 2016N.10 del 21.01.2016DETERMINA   LIQUIDAZIONE MENSA ASILO0,0021/01/201605/02/2016
  18 / 2016N.9 del 15.01.2016DETERMINA   LIQUIDAZIONE FATTURA DITTA SOGEA PER INTERVENTI SOFFIANTI IMPIANTO DEPURAZIONE.2.071,8015/01/201630/01/2016
  17 / 2016N.8 del 15.01.2016DETERMINA   LIQUIDAZIONE FATTURA DITTA SOGEA PER INTERVENTI TUBAZIONI SEDIMENTATORI IMPIANTO DEPURAZIONE.1.432,2815/01/201630/01/2016
  16 / 2016N.7 del 15.01.2016DETERMINA   LIQUIDAZIONE FATTURA DITTA SOGEA PER FORNITURA ELETTROPOPA DEPURATORE.1.194,3815/01/201630/01/2016
  15 / 2016N.6 del 15.01.2016DETERMINA   LIQUIDAZIONE FATTURA ING. LUPI PER MANUTENZIONE IMPIANTO DEPURAZIONE.1.980,0015/01/201630/01/2016
  14 / 2016N.5 del 15.01.2016DETERMINA   LIQUIDAZIONE DITTA ELETTROTERMOIDRAULICA PER SERVIZIO ACCENSIONE E CONTROLLO CENTRALE TERMINA EDIFICIO COMUNALE488,0015/01/201630/01/2016
  13 / 2016N.4 del 15.01.2016DETERMINA   LIQUIDAZIOEN FATTURA SOCIETA' ECOLOGICA VITERBO SRL PER SERVIZIO SMALTIMENTO RIFIUTI.2.474,3115/01/201631/01/2016
  12 / 2016N.3 del 15.01.2016DETERMINA   LIQUIDAZIONE FATURA DITTA DIBEOL PER FORNITURA CARBURANTE AUTOMEZZI COMUNALI.601,0115/01/201630/01/2016
  11 / 2016N.2 del 15.01.2016DETERMINA   LIQUIDAZIONE FATTURA DITTA DIEBEOL PER FORNITURA CARBURANTE AUTOMEZZI COMUNALI910,7115/01/201630/01/2016
  10 / 2016N.1 del 15.01.2016DETERMINA   LIQUIDAZIONE FATTURA DITTA BEYFIN AREZZO PER FORNITURA GPL EDIFICIO COMUNALE.4.529,3315/01/201630/01/2016
  9 / 2016N.3 del 12.01.2016DELIBERA DI GIUNTA   QUANTIFICAZIONE SOMME NON SOGGETTE AD ESECUZIONE FORZATA 1░ SEMESTRE 2016 ART.159 TUEL.0,0012/01/201627/01/2016
  8 / 2016N.2 del 12.01.2016DELIBERA DI GIUNTA   ANTICIPAZIONE DI TESORERIA -UTILIZZO ENTRATE A SPECIFICA DESTINAZIONE-ART.195 E 222 D.L.VO 267/2000 AUTORIZZAZIONE AL TESORIERE AD ELEVARE IL LIMITE DI CUI ALL'ART.222 DEL TUEL DA 3 A 5 DODICESIMI AL 31.12.20160,0012/01/201627/01/2016
  7 / 2016N.1 del 12.01.2016DELIBERA DI GIUNTA   TRATTATIVA PRIVATA PER LA VENDITA DEI MATERIALE LEGNOSO RITRAIBILE DAI BOSCHI COMUNALI CUNCOLA E COLLE PANNICARI.0,0012/01/201627/01/2016
  347 / 2015N.204 del 28.12.2015DETERMINA   IMPEGNO DI SPESA PER SERVIZIO DI MANUTENZIONE SEMESTRALE IMPIANTI ANTICENDIO-561,2028/12/201512/01/2016
  346 / 2015N.203 del 28.12.2015DETERMINA   LIQUIDAWIONE FATTURA SOGEA PER INTERVENTI MANUTENZIONE DEPURATORE.401,3828/12/201512/01/2016
  345 / 2015N.202 del 28.12.2015DETERMINA   LIQUIDAZIONE FATTURA ARCH. PAOLO CAMILLETTI PER PRESTAZIONI INERENTI LE SUB DELEGHE IN MATERIA PAESAGGISTICHE.1.268,8028/12/201512/01/2016
  342 / 2015N.71 del 22.12.2015DELIBERA DI GIUNTA   RINVIO BILANCIO CONSOLIDATO AL 01.01.20170,0024/12/201508/01/2016
  341 / 2015N.70 del 22.12.2015DELIBERA DI GIUNTA   ART.151 E 170 DEL D.LGS. 18 AGOSTO 2000 N.267 - APPROVAZIONE SCHEMA DI DOCUMENTO UNICO DI PROGRAMMAZIONE ( DUP) 2016/2018.0,0024/12/201507/01/2016
  340 / 2015N.69 del 22.12.2015DELIBERA DI GIUNTA   INDIRIZZO AL RESPONSABILE DEL SERVIZIO PER INIZIATIVE A FAVORE DEGLI ANZIANI RESIDENTI.0,0024/12/201508/01/2016
  339 / 2015N.201 del 17.12.2015DETERMINA   LIQUIDAZIONE FATTURA 5E2015 DEL 7.12.2015 OFFICINA ELETTRAUTO FELLI GIANNI.195,2017/12/201501/01/2016
  338 / 2015N.200 del 15.12.2015DETERMINA   LIQUIDAZIONE FATTURA 63/W DEL 30.11.2015 DITTA SERITEL PER INTERVENTO SISTEMA GESTIONE ACQUA732,0015/12/201530/12/2015
  335 / 2015N.199 del 04.12.2015DETERMINA   NOMINA COORDINATORE PER LA SICUREZZA IN FASE DI ESECUZIONE DEI LAVORI DI ' RECUPERO EDIFICIO COMUNALE E ALLESTIMENTO PUNTO DI COMUNICAZIONE E DIVULGAZIONE'.30.000,0004/12/201519/12/2015
  334 / 2015N.28 del 30.11.2015DELIBERA DI CONSIGLIO   RIADOZIONE PIANO ASSESTAMENTO FORESTALE (PAGAF).0,0002/12/201516/12/2015
  333 / 2015N.27 del 30.11.2015DELIBERA DI CONSIGLIO   AMPLIAMENTO CONCESSIONE AREA CIMITERIALE SUORE MISSIONARIE CATECHISTE DI COLLALTO SABINO0,0002/12/201517/12/2015
  332 / 2015N.26 del 30.11.2015DELIBERA DI CONSIGLIO   PRESA D'ATTO SCIOGLIMENTO CONVENZIONE PER IL SERVIZIO DI RACCOLTA E TRASPORTO DEI RIFIUTI SOLIDI URGANI TRA I COMUNI DI COLLALTO E COLLEGIOVE.0,0002/12/201516/12/2015
  331 / 2015N.25 del 30.11.2015DELIBERA DI CONSIGLIO   ASSESTAMENTO BILANCIO DI PREVISIONE 20150,0002/12/201516/12/2015
  330 / 2015N.24 del 30.11.2015DELIBERA DI CONSIGLIO   COMUNICAZIONI DEL SINDACO IN MERITO ALLA GIUNTA COMUNALE.0,0002/12/201517/12/2015
  329 / 2015N.23 del 30.11.2015DELIBERA DI CONSIGLIO   LLETTURA ED APPROVAZIONE VERBALI PRECEDENTE SEDUTA.0,0002/12/201516/12/2015
  328 / 2015N.68 del 10.11.2015DELIBERA DI GIUNTA   APPROVAZIONE PROGETTO ESECUTIVO 'INTERVENTI DI COMPLETAMENTO PER LA SISTEMAZIONE DELLA SCARPATA LUNGO IL VERSANTE IN LOCALITA' RICETTO.0,0030/11/201515/12/2015
  327 / 2015N.198 del 27.11.2015DETERMINA   AFFIDAMENTO LABORATORIO SEA NARNI - SERVIZIO DI ANALISI ACQUE POTABILI CAPOLUOGO1.220,0027/11/201512/12/2015
  325 / 2015N.197 del 23.11.2015DETERMINA   LIQUIDAZIONE FATTURA N. 46 ALLA COOPERATIVA SOCIALE ANIENE SERVIZI E SVILUPPO - PER LAVORI TAGLIO ERBA E SISTEMAZIONE STRADA DI ACCESSO AL DEPURATORE1.045,0023/11/201508/12/2015
  324 / 2015N.196 del 21.11.2015DETERMINA   IMPEGNO DI SPESA PER MANUTENZIONE ORDINARIA FIAT PANDA.65,6821/11/201506/12/2015
  323 / 2015N.195 del 21.11.2015DETERMINA   IMPEGNO DI SPESA OFFICINA FELICI DI CARSOLI PER MANUTENZIONE PALA MECCANICA1.878,8021/11/201506/12/2015
  322 / 2015N.194 del 21.11.2015DETERMINA   IMPEGNO DI SPESA SOCIET└ SERITEL PER RIPARAZIONE SISTEMA TELECONTROLLO ACQUEDOTTO732,0021/11/201506/12/2015
  321 / 2015N.193 del 21.11.2015DETERMINA   LIQUIDAZIONE FATTURA 35/90 DITTA DIBEAOL PER FORNITURA CARBURANTE AUTOMEZZI COMUNALI.1.183,0021/11/201506/12/2015
  320 / 2015N.192 del 21.11.2015DETERMINA   LIQUIDAZIONE FATTURA N.V2-826 ECOLOGIA VITERBO PER SMALTIMENTO R.S.U.2.670,0921/11/201506/12/2015
  319 / 2015N.191 del 20.11.2015DETERMINA   RISARCIMENTO DANNI BALCONE ABITAZIONE SIG. GIUSEPPINI DOMENICO.350,0020/11/201505/12/2015
  317 / 2015N.190 del 20.11.2015DETERMINA   IMPEGNO DI SPESA OFFICINA ELETTRAUTO FELLI GIANNI PER RIPARAZIONE APE PIAGGIO.195,2020/11/201505/12/2015
  316 / 2015N.189 del 17.11.2015DETERMINA   LIQUIDAZIONE FATTURA IL SOLCO SOCIETA' COOP. PER FORNITURA PASTI SCUOLA ELEMENTARE PERIODO SETTEMBRE 2015650,0017/11/201502/12/2015
  315 / 2015N.188 del 17.11.2015DETERMINA   LIQUIDAZIONE FATTURA MYO SRL E MISSIONE UFFICIO PER FORNITURA MATERIALE D'UFFICIO CIG. ZB4169BDBF1.426,5117/11/201502/12/2015
  314 / 2015N.187 del 17.11.2015DETERMINA   LIQUIDAZIONE FATTURA IEMME SISTEMI PER ASSISTENZA CENTRALINO TELEFONICO PERIODO 01.11.2015-30.04.2016374,0017/11/201502/12/2015
  313 / 2015N.186 del 17.11.2015DETERMINA   LIQUIDAZIONE FATTURA MAGGIOLI SPA PER FORNITURA REGISTRI STATO CIVILE ANNO 2016152,6217/11/201502/12/2015
  312 / 2015N.185 del 17.11.2015DETERMINA   LIQUIDAZIONE FATTURA ANIENE SERVIZI COOP. SOCIALE PER SERVIZIO SCUOLABUS MESE SETTEMBRE 2015475,2017/11/201502/12/2015
  311 / 2015N.184 del 17.11.2015DETERMINA   LIQUIDAZIONE FATTURA ANIENE E SERVIZI COOP. SOCIALE PER SERVIZIO SCUOLABUS MESE GIUGNO 2015435,6017/11/201502/12/2015
  310 / 2015N.183 del 16.11.2015DETERMINA   LIQUIDAZIONE FATTURA DITTA OFFICINA FELICI PER MANUTENZIONE AUTOCOMPATTATORE552,6616/11/201501/12/2015
  309 / 2015N.182 del 16.11.2015DETERMINA   LIQUIDAZIONE ELETTRAUTO FELLI GIANNI PER MANUTENZIONE AUTOCOMPATTATORE.256,2016/11/201501/12/2015
  308 / 2015N.181 del 16.11.2015DETERMINA   LIQUIDAZIONE FATTURE COOPERATIVA SOCIALE ANIENE SERVIZI PER SERVIZI DI MANUT. STRADE PARCHI, RACCOLTA R.S.U. E SERVIZIO SCUOLABUS.4.039,2016/11/201530/11/2015
  307 / 2015N.180 del 16.11.2015DETERMINA   LIQUIDAZIONE FATTURA ING. LUPI PER MANUTENZIONE IMPIANTO DEPURAZIONE.1.980,0016/11/201501/12/2015
  306 / 2015N.179 del 16.11.2015DETERMINA   LIQUIDAZIONE FATTURA DITTA BEYFIN PER FORNITURA GPL RISCALDAMENTO UFFICI COMUNALI.230,4516/11/201501/12/2015
  305 / 2015N.178 del 16.11.2015DETERMINA   LIQUIDAZIONE FATTURA SOCIET└ ECOLOGIA VITERBO PER SMALTIMENTO R.S.U.2.407,8816/11/201501/12/2015
  304 / 2015N.177 del 16.11.2015DETERMINA   LIQUIDAZIONE FATTURA DIEBEOL PER FORNITURA CARBURANTI MEZZI COMUNALI.910,7116/11/201501/12/2015
  303 / 2015N.176 del 16.11.2015DETERMINA   LIQUIDAZIONE FATTURA OFFICINA STRAPPINI PER INTERVENTI DI MANUTENZIONEAUTOCOMPATTORE.4.188,9616/11/201501/12/2015
  302 / 2015N.175 del 16.11.2015DETERMINA   LIQUIDAZIONE FATTURA SOCIET└ PRAGMA PER SVUOTAMENTO CAMPANE DI VETRO.385,0016/11/201501/12/2015
  301 / 2015N.174 del 16.11.2015DETERMINA   LIQUIDAZIONE FATTURA ELETTRAUTO FELLI FIANNI PER MANUTENZIONE PALA MECCANICA.671,0016/11/201501/12/2015
  300 / 2015N.173 del 16.11.2015DETERMINA   LIQUIDAZIOEN FATTURA BIEMME SERVIZI PER RIPARAIZONE IMPIANTO ELETTRICO.207,4016/11/201501/12/2015
  299 / 2015N.67 del 10.11.2015DELIBERA DI GIUNTA   INDICAZIONI AL RESPONSABILE DEL SERVIZIO PER CONTRIBUTO SCUOLA ELEMENTARE PROGETTO CORSO INGLESE.0,0012/11/201527/11/2015
  298 / 2015N.66 del 10.11.2015DELIBERA DI GIUNTA   APPROVAZIONE PROGRAMMA TRIENNALE DELLE OPERE PUBBBLICHE 2016/2018 DEI LL.PP. ED ELENCO ANNUALE DEI LAVORI DA REALIZZARE NELL'ANNO 2016.0,0012/11/201527/11/2015
  297 / 2015N.65 del 10.11.2015DELIBERA DI GIUNTA   APPROVAZIONE PROGETTO DI TAGLIO PER IL TAGLIO COLTURALE DI FINE TURNO DEL BOSCO COMUNALE LOC. CAMPEPOLI.0,0012/11/201527/11/2015
  296 / 2015N.64 del 10.11.2015DELIBERA DI GIUNTA   APPROVAZIONE PROGETTO DI TAGLIO PER IL TAGLIO DI FINE TURNO DEL BOSCO CEDUO A PREVALENZA CASTAGNO IN LOC. COLLE PANNICARI.0,0012/11/201526/11/2015
  295 / 2015N.63 del 10.11.2015DELIBERA DI GIUNTA   ANTICIPAZIONE DI TESORERIA ANNO 2016.0,0012/11/201526/11/2015
  294 / 2015N.170 del 12.11.2015DETERMINA   LIQUIDAZIONE ALLA PROVINCIA DI RIETI PER SPESE ISTRUTTORIA AUTORIZZAZIONE TAGLIO BOSCHI COMUNALI COLLE PANNICARI E CAMPE POLI300,0012/11/201527/11/2015
  293 / 2015N.172 del 12.11.2015DETERMINA   INCARICO PROFESSIONALE PER INTRVENTI SELVICOLTURALI DA REALIZZARE NELLA STAGIONE SILVANA 2015/2016 NEI BOSCHI DI PROPRIET└ COMUNALE.0,0012/11/201527/11/2015
  292 / 2015N.171 del 12.11.2015DETERMINA   LIQUIDAZIONE DITTA G2 PER FORNITURA CONTATORI ACQUA.1.830,0012/11/201527/11/2015
  290 / 2015N.169 del 10.11.2015DETERMINA   IMPEGNO DI SPESA PER FORNITURA IPOCLORITO DI SODIO610,0010/11/201525/11/2015
  289 / 2015N.168 del 10.11.2015DETERMINA   ISTITUZIONE ANAGRAFE NAZIONALE DELLA POPOLAZIONE RESIDENTE - ACQUISTO SOFTWARE.1.200,0010/11/201525/11/2015
  287 / 2015N.167 del 02.11.2015DETERMINA   IMPEGNO DI SPESA DITTA ELETTROTERMOIDRUALICA DI BIANCHI PER FORNITURA AUTOBOTTI ACQUA.165,0002/11/201517/11/2015
  285 / 2015N.166 del 31.10.2015DETERMINA   AFFIDAMENTO DEI LAVORI DI 'RECUPERO EDIFICIO COMUNALE E ALLESTIMENTO PUNTO DI COMUNICAZIONE E DIVULGAZIONE ', CON RICORSO ALLE PROCEDURE IN ECONOMIA CON AFFIDAMENTO DIRETTO AI SENSI DEL COMMA 8 ART.125 DEL DECRETO LEGISLATIVO 163/2006.30.000,0031/10/201515/11/2015
  284 / 2015N.165 del 31.10.2015DETERMINA   LIQUIDAZIONE DITTA CODIBER PER LAVORI DI RIRPISTINO RETE FOGNARIA E IMPIANTO DEPURAZIONE.6.501,0031/10/201515/11/2015
  283 / 2015N.164 del 31.10.2015DETERMINA   LIQUIDAZIONE FATTURA DITTA FARID PER INTERVENTI DI RIPARAZIONE MEZZO ADIBITO ALLA RACCOLTA E TRASPORTO R.S.U.376,7431/10/201515/11/2015
  282 / 2015N.163 del 29.10.2015DETERMINA   APPROVAZIONE PROGETTO DEFINITIVO ESECUTIVO PROGRAMMA STRAORDINARIO DI INTERVENTUI PERIL RECUPERO E MESSA IN SICUREZZA DELL'EDILIZIA SCUOLASTICA - SCUOLA ELEMENTARE CAPOLUOGO.0,0029/10/201513/11/2015
  280 / 2015N.162 del 22.10.2015DETERMINA   IMPEGNO DI SPESA PER RIPARAZIONE AUTOMEZZO COMPATTATORE N.U.4.188,9622/10/201506/11/2015
  274 / 2015N.22 del 20.10.2015DELIBERA DI CONSIGLIO   ALIENAZIONE AREA APPARTENENTE AL DEMANIO PUBBLICO PREVIA SDEMANIALIZZAZIONE.0,0020/10/201504/11/2015
  273 / 2015N.21 del 20.10.2015DELIBERA DI CONSIGLIO   CONVENZIONE STATUTO PER L'ATTO DI COSTITUZIONE DEL 'CONSORZIO SOCIALE RIETI1' PER I SERVIZI SOCIALI TRA I COMUNI DEL DISTRETTO SOCIO-SANITARIO RIETI1. APPROVAZIONE.0,0020/10/201504/11/2015
  272 / 2015N.20 del 20.10.2015DELIBERA DI CONSIGLIO   LETTURA ED APPROVAZIONE VERBALI PRECEDENTE SEDUTA.0,0020/10/201503/11/2015
  271 / 2015N.62 del 20.10.2015DELIBERA DI GIUNTA   TARIFFE PER I SERVIZI DI MENSA SCOLASTICA PER GLI UTENTI NON RESIDENTI.0,0020/10/201504/11/2015
  279 / 2015N.160 del 19.10.2015DETERMINA   IMPEGNO DI SPESA DITTA MYO PER FORNITURA MATERIALE D'UFFICIO.761,5219/10/201503/11/2015
  278 / 2015N.159 del 19.10.2015DETERMINA   IMPEGNO DI SPESA ELETTROTERMOIDRAULICA DI BIANCHI F. PER CONTROLLO CALDAIA.488,0019/10/201503/11/2015
  277 / 2015N.158 del 19.10.2015DETERMINA   AFFIDAMENTO ALLA DITTA ELETTROTERMOIDRAULICA DI BIANCHI PER LA FORNITURA DI N. 2 AUTOBOTTI DI ACQUA.330,0019/10/201503/11/2015
  276 / 2015N.157 del 19.10.2015DETERMINA   L.R. 20/2006 - INTERVENTI A FAVORE DELLE PERSONE NON AUTOSUFFICIENTI - ANNO 2014.7.800,0019/10/201503/11/2015
  275 / 2015N.161 del 19.10.2015DETERMINA   IMPEGNO DI SPESA DITTA MISSIONE UFFICIO PER FORNITURA MATERIALE D'UFFICIO.665,0019/10/201503/11/2015
  266 / 2015N.156 del 13.10.2015DETERMINA   SERVIZIO DI FORNITURA E DISTRIBUZIONE GPL AGLI UTENTI DEL COMUNE DI COLLALTO SABINO. PROROGA.0,0013/10/201528/10/2015
  265 / 2015N.61 del 13.10.2015DELIBERA DI GIUNTA   APPROVAZIONE PROGETTO DEFINITIVO-ESECUTIVO ' RECUPERO EDIFICIO COMUNALE E ALLESTIMENTO PUNTO DI COMUNICAZIONE E DIVULGAZIONE.0,0013/10/201528/10/2015
  264 / 2015N.60 del 13.10.2015DELIBERA DI GIUNTA   SERVIZIO DI FORNITURA E DISTRIBUZIONE GPL AGLI UTENTI DEL COMUNE DI COLLALTO SABINO. INDIRIZZO AL RESPONSABILE DEL DELL'UFFICIO TECNICO COMUNALE.0,0013/10/201527/10/2015
  263 / 2015N.155 del 10.10.2015DETERMINA   APPROVAZIONE BANDO DI GARA PER LA VENDITA DEL MATERIALE LEGNOSO RIOTRAIBILE DAL TAGLIO COLTURALE DI FINE TURBNO DEI BOSCHI CEDUI DI PROPRIETA' COMUNALE SITUATI IN LOCALITA' CUNCULA E COLLE PANNICARI.0,0010/10/201525/10/2015
  262 / 2015N.154 del 10.10.2015DETERMINA   LIQUIDAZIONE BIEMME SERVIZI PER LAVORI RIFACIMENTO IMPIANTO ELETTRICO LOCALI COMUNALI IN FRAZIONE SAN LORENZO.2.928,0010/10/201525/10/2015
  261 / 2015N.153 del 10.10.2015DETERMINA   LIQUIDAZIONE FATTURA DITTA TOLLU GIUSEPPE PER PIANTUMAZIONE FIORI E PIANTINE PRIMAVERILE NELLE AIUOLE COMUNALI.923,3010/10/201524/10/2015
  260 / 2015N.152 del 10.10.2015DETERMINA   LIQUIDAZIONE FATTURA BIEMME SERVIZI PER LAVORI IMPIANTO ELETTIRICO CIMITERO CAPOLUOGO.1.342,0010/10/201525/10/2015
  259 / 2015N.151 del 10.10.2015DETERMINA   LIQUIDAZIONE FATTURA SRL DIBEAOL ECOLOGICA PER FORNITURA CARBURANTE AUTOMEZZI N.U.1.041,0310/10/201525/10/2015
  258 / 2015N.68 del 15.04.2015DETERMINA   AFFIDAMENTO INCARICO PROFESSIONALE PER LA PROGETTAZIONE PRELIMINARE, DEFINITIVA ED ESECUTIVA, DIREZ.LAVORI COOR.DI SICUREZZA PER L'ESECUZIONE DEI LAVORI DI: ' RECUPERO EDIFICIO COMUNALE ED ALLESTIMENTO PUNTO DI COMUNICAZIONE E DIVULGAZIONE.0,0008/10/201523/10/2015
  257 / 2015N.150 del 08.10.2015DETERMINA   AFFIDAMENTO SERVIZIO MENSA SCOLASTICA ANNO 2015/2016. CIG Z5E166E4A1.6.000,0008/10/201523/10/2015
  256 / 2015N.149 del 06.10.2015DETERMINA   RIMBORSO ABBONAMENTI ANNO SCOLASTICO 2014/2015.502,6006/10/201521/10/2015
  255 / 2015N.148 del 06.10.2015DETERMINA   PROGETTO LEGGE 162/98 - LIUIDAZIONE .1.823,5006/10/201521/10/2015
  253 / 2015N.147 del 05.10.2015DETERMINA   LIQUIDAZIONE FATTURE DITTA DIBEAOL PER FORNITURA CARBURANTE AUTOMEZZI COMUNALI.1.509,0105/10/201520/10/2015
  252 / 2015N.146 del 05.10.2015DETERMINA   LIQUIDAZIONE FATTURA ECOLOGIA VITERBO PER SMALTIMENTO R.S.U.2.304,1805/10/201520/10/2015
  249 / 2015N.143 del 01.10.2015DETERMINA   LIQUIDAZIONE COOPERATIVA ANIENE SERVIZI E SVILUPPO PER MANUTENZIONE STRADE E VERDE PUBBLICO.3.475,0001/10/201516/10/2015
  247 / 2015N.145 del 01.10.2015DETERMINA   IMPEGNO DI SPESA ELETTRAUTO FELLI GIANNI PER MANUTENZIONE MEZZI COMUNALI.854,0001/10/201516/10/2015
  246 / 2015N.59 del 29.09.2015DELIBERA DI GIUNTA   RIMBORSO ABBONAMENTI SCUOLE MEDIE SUPERIORI - DETERMINAZIONI - INDRIZZO AL RESPONSABILE DEL SERVIZIO FINANZIARIO.0,0029/09/201514/10/2015
  245 / 2015N.58 del 29.09.2015DELIBERA DI GIUNTA   PROROGA SERVIZIO CIVICO COMUNALE. INDIRIZZO AL RESPONSABILE DEL SERVIZIO FINANZIARIO.0,0029/09/201514/10/2015
  244 / 2015N.142 del 25.09.2015DETERMINA   LIQUIDAZIONE FATTURA DITTA PANITTI CLAUDIO PER RIPARAZIONE RETE FOGNANTE.732,0025/09/201510/10/2015
  243 / 2015N.141 del 25.09.2015DETERMINA   LIQUIDAZIONE DITTA DIBEOL PER FORNITURA CARBURANTE MEZZI COMUNALI.1.246,1825/09/201510/10/2015
  242 / 2015N.140 del 25.09.2015DETERMINA   AFFIDAMENTO LAVORI DITTA CODIBER PER RIRPRISTINO FUNZIONAMENTO RETE FOGNARIA TRATTO IMPIANTO DI DEPURAZIONE E PONTE GIOVANNETTI. IMPEGNO DI SPESA.6.500,0025/09/201510/10/2015
  241 / 2015N.139 del 23.09.2015DETERMINA   IMPEGNO DI SPESA PER LAVORI DI MANUTENZIONE STRAORDINARIA PER SERBATOI CAPOLUOGO.451,0023/09/201508/10/2015
  240 / 2015N.137 del 22.09.2015DETERMINA   LIQUIDAZIONE FATTURA DITTA SEA DI NARNI PER SERVIZIO ANALISI ACQUE.506,0022/09/201507/10/2015
  239 / 2015N.138 del 22.09.2015DETERMINA   LIQUIDAZIONE FATTURE STRUTTURA RIO OASI PER DEGENZA SIG. FELLI.1.894,4022/09/201507/10/2015
  235 / 2015N.134 del 18.09.2015DETERMINA   LIQUIDAZIONE FATTURA N. 205/2005 SOCIET└ ECOLOGIA VITERBO PER SERVIZIO DI SMALTIMENTO R.S.U.1.410,3318/09/201503/10/2015
  234 / 2015N.133 del 18.09.2015DETERMINA   LIQUIDAZIONE FATTURA DITTA ING. LUPI PER MANUTENIZSONE IMPIANTO DEPURATORE.1.980,0018/09/201503/10/2015
  232 / 2015N.132 del 16.09.2015DETERMINA   LIQUIDAZIONE SOCIETA' ECOLOGIA VIETERBO PER SERVIZIO SMALTIMENTO RIFIUTI.2.300,7616/09/201501/10/2015
  231 / 2015N.131 del 16.09.2015DETERMINA   LIAQUIDAZIOEN FATTURA BEYFIN SPA PER FORNITURA GPL.14,8916/09/201501/10/2015
  230 / 2015N.130 del 16.09.2015DETERMINA   LIQUIDAZIONE DITTA ELETTROTERMOIDRAULICA DI FRANCESCO BIANCHI PER SOSTITUZIONE POMPA DI CLORAZIONE ACQUA.517,0016/09/201501/10/2015
  229 / 2015N.129 del 16.09.2015DETERMINA   LIQUIDAZIONE ALLA DITTA DA.CA. CON SEDE IN TIVOLI - PER SERVIZIO DI BONIFICA STRAORDINARIA ESTINTORI LOCALI COMUNALI.1.268,8016/09/201501/10/2015
  228 / 2015N.128 del 15.09.2015DETERMINA   SERVIZIO TRASPORTO ALUNNI ANNO SCOLASTICO 2015/2016 - REPERIMENTO AUTISTA TRAMITE LA COOPERATIVA ANIENE SERVIZI E SVILUPPO.4.500,0015/09/201530/09/2015
  227 / 2015N.127 del 14.09.2015DETERMINA   LIQUIDAZIONE STUDIO ASSOCIATO Q.S.S. RIETI PER ATTIVIT└ DI GESTIONE SALUTE E SICUREZZA LUOGHI DI LAVORO.616,0014/09/201529/09/2015
  226 / 2015N.126 del 14.09.2015DETERMINA   APPROVAZIONE CERTIFICATO DI REGOLARE ESECUZIONE LAVORI DI 2MIGLIORAMENTO E RIPRISTINO DELLA VIABILIT└ FORESTALE NELO TERRITORIO COMUNALE' PSR LAZIO 2007/2013 - REG.TO CEE 1698/054 MISURA 125 AZIONE 2.0,0014/09/201529/09/2015
  225 / 2015N.125 del 12.09.2015DETERMINA   RIMBORSO SPESE ABBONAMENTO SCOLASTICO1.900,8012/09/201527/09/2015
  224 / 2015N.124 del 12.09.2015DETERMINA   LIQUIDAZIONE FATTURA BNP PARIBAS LEASE GROUP SA PER LOCAZIONE FOTOCOPIATRICE334,8912/09/201527/09/2015
  223 / 2015N.123 del 12.09.2015DETERMINA   LIQUIDAZIONE PARCELLA REVISORE PERIODO 01.01-19.03.2015470,5112/09/201527/09/2015
  222 / 2015N.122 del 12.09.2015DETERMINA   LIQUIDAZIONE FATTURA IDEA DIGITALE PER ECCEDENZA COPIE39,8712/09/201527/09/2015
  221 / 2015N.121 del 12.09.2015DETERMINA   LIQUIDAZIONE FATTURA COOOPERATIVA ANIENE E SERVIZI PER SERVIZIO SCUOLABUS PERIODO APRILE -MAGGIO 20152.197,8012/09/201527/09/2015
  220 / 2015N.120 del 12.09.2015DETERMINA   LIQUIDAZIONE FATTURA DITTA PCPOMPEI MARIO PEER RINNOVO PEC E FORNITURA MATERIALE465,0012/09/201527/09/2015
  219 / 2015N.119 del 12.09.2015DETERMINA   LIQUIDAZIONE COMPENSI DOTT.SSA VARI PER ATTIVITA' DI COMMISSARIO AD ACTA600,0012/09/201527/09/2015
  218 / 2015N.118 del 10.09.2015DETERMINA   RETTIFICA DETERMINAZIONE MN. 152 DEL 02.12.2014: ' PROGETTO SERVIZIO CIVICO APPROVAZIONE RISULTANZE'.0,0010/09/201525/09/2015
  216 / 2015N.117 del 29.08.2015DETERMINA   IMPEGNO DI SPESA PER FORNITURA REGISTRI STATO CIVILE ANNO 2016.152,6229/08/201513/09/2015
  215 / 2015N.116 del 11.08.2015DETERMINA   IMPEGNO DI SPESA PER LAVORI DI PULIZIA FOSSE BIOLOGICHE E PER IL TRASPORTO DI MATERIALI PRESSO IMPIANTO DEPURAZIONE AUTORIZZATO.2.090,0011/08/201526/08/2015
  214 / 2015N.115 del 11.08.2015DETERMINA   AFFIDAMENTO SOCIETA' PRAGMA PER SVUOTAMENTO CAMPANE DI VETRO - IMPEGNO DI SPESA.385,0011/08/201526/08/2015
  212 / 2015N.55 del 06.08.2015DELIBERA DI GIUNTA   INDIRIZZO AI RESPONSABILI DEI SERVIZI PER IL REPERIMENTO DI PERSONALE PER I SERVIZI DI MANUTENZIONE VERDE PUBBLICO, R.S.U. E TRASPORTO SCOLASTICO.0,0008/08/201523/08/2015
  211 / 2015N.19 del 06.08.2015DELIBERA DI CONSIGLIO   BILANCIO DI PREVISIONE 2014 RELAZIONE PREVISIONALE E PROGRAMMATICA 2015 - 2017 - BILANCIO PLURIENNALE 2015/2017 - APPROVAZIONE.0,0007/08/201521/08/2015
  210 / 2015N.18 del 06.08.2015DELIBERA DI CONSIGLIO   APPROVAZIONE ALIQUOTE IMU 20150,0007/08/201522/08/2015
  209 / 2015N.17 del 06.08.2015DELIBERA DI CONSIGLIO   APPROVAZIONE ALIQUOTE TASI 20150,0007/08/201522/08/2015
  208 / 2015N.16 del 06.08.2015DELIBERA DI CONSIGLIO   APPROVAZIONE TARIFFE TARI 2015.0,0007/08/201522/08/2015
  207 / 2015N.15 del 06.08.2015DELIBERA DI CONSIGLIO   APPROVAZIONE PIANO FINANZIARIO TARI 2015.0,0007/08/201522/08/2015
  206 / 2015N.14 del 06.08.2015DELIBERA DI CONSIGLIO   ADDIZIONALE IRPEF D.L.VO 28.08.1998 N. 360 - DETERMINAZIONE ANNO 2015.0,0007/08/201522/08/2015
  205 / 2015N.13 del 06.08.2015DELIBERA DI CONSIGLIO   RICOGNIZIONE DEGLI IMMOBILI DI PROPRIET└ COMUNALE SUSCETTIBILI DI ALIENAZIONE E/O VALORIZZAZIONE AI SENSI DELL'ART.58 D.L. 11/2008 CONV. CON LEGGE 133/2008.0,0007/08/201522/08/2015
  204 / 2015N.12 del 06.08.2015DELIBERA DI CONSIGLIO   APPROVAZIONE PROGRAMMA TRIENNALE OPERE PUBBLICHE 2015/2017 ED ELENCO ANNUALE 2015.0,0007/08/201522/08/2015
  203 / 2015N.11 del 06.08.2015DELIBERA DI CONSIGLIO   VERIFICA QUANTIT└ AREE E FABBRICATI DA DESTINARE ALLA RESIDENZA, ALLE ATTIVIT└ PRODUTTIVE E TERZIARIE EX LEGGE 167/62 L.865/71 E L.457/78.0,0007/08/201522/08/2015
  202 / 2015N.10 del 06.08.2015DELIBERA DI CONSIGLIO   LETTURA ED APPROVAZIONE VERBALI PRECEDENTE SEDUTA.0,0007/08/201522/08/2015
  213 / 2015N.56 del 06.08.2015DELIBERA DI GIUNTA   INDIRIZZO AL RESPONSABILE DEL SERVIZIO FINANZIARIO PER CONCESSIONE CONTRIBUTO ASSOCIAZIONE PRO-LOCO COLLALTO SABINO PER MANUTENZIONE FONTANA.0,0006/08/201520/08/2015
  201 / 2015N.114 del 06.08.2015DETERMINA   LIQUIDAZIONE FATTURA DITTA DIBEOL PER FORNITURA GASOLIO2.008,0106/08/201521/08/2015
  196 / 2015N.113 del 03.08.2015DETERMINA   LIQUIDAQZIONE IMPRESA EDILE FELLI MARIO COLLALTO SABINO E DITTA SANZI MARCO NESPOLO PER RIMOZIONE NEVE E SPARGIMENT SALE.1.602,6003/08/201518/08/2015
  195 / 2015N.112 del 03.08.2015DETERMINA   IMPEGNO DI SPESA SOCIET└ DIBEAOL DI CARSOLI PER FORNITURA CARBURANTE AUTOMEZZI COMUNALI.10.000,0003/08/201518/08/2015
  192 / 2015N.111 del 21.07.2015DETERMINA   PROROGA INCARICO AVV. ROCCA ALDO QUALE LEGALE DI FIDUCIA DEL COMUNE PER INCARICHI DI ASSISTENZA E DIFESA.4.829,6121/07/201505/08/2015
  191 / 2015N.110 del 20.07.2015DETERMINA   LIQUIDAZIONE IMPRESA CODIBER SALDO FATTURA N. PA/04/2015 DEL 9.6.2015.3.660,0020/07/201504/08/2015
  190 / 2015N.109 del 20.07.2015DETERMINA   LIQUIDAZIONE DITTA TECNOGOMME CARSOLI PER FORNITURA PNEUNATICI AUTOMEZZI COMUNALI.508,2020/07/201504/08/2015
  189 / 2015N.108 del 20.07.2015DETERMINA   IMPEGNO DI SPESA PER INTERVENTI DI FORNITURA E POSA IN OPERA INTERRUTORE MAGNETOTERMICO AL DEPURATORE.1.432,2820/07/201504/08/2015
  188 / 2015N.107 del 20.07.2015DETERMINA   AFFIDAMENTO LAVORI DITTA SOGEA SPA PER FORNITURA E POSA IN OPERA ELETTROPOMPA DEPURATORE - IMPEGNO DI SPESA.1.354,9420/07/201504/08/2015
  187 / 2015N.106 del 18.07.2015DETERMINA   LIQUIDAZIONE FATTURA IL SOLCO PER SERVIZIO MENSA SCOLASTICA PERIODO GENNAIO-MAGGIO 20153.466,3218/07/201502/08/2015
  186 / 2015N.105 del 18.07.2015DETERMINA   LIQUIDAZIONE MENSA ASILO PERIODO APRILE-GIUGNO 2015900,0018/07/201502/08/2015
  185 / 2015N.104 del 18.07.2015DETERMINA   LIQUIDAZIONE COMPENSO SEGRETARIO COMUNALE PERIODO 19-30.05.2015478,2218/07/201502/08/2015
  184 / 2015N.54 del 16.07.2015DELIBERA DI GIUNTA   APPROVAZIONE SCHEMA DI BILANCIO 2015 - BILANCIO PLURIENNALE 2015/2017 E RELAZIONE PREVISIONALE E PROGRAMMATICA TRIENNIO 2015/2017.0,0016/07/201531/07/2015
  183 / 2015N.53 del 16.07.2015DELIBERA DI GIUNTA   PROGRAMMA FABBISOGNO DEL PERSONALE 2015/2017 -0,0016/07/201531/07/2015
  182 / 2015N.52 del 16.07.2015DELIBERA DI GIUNTA   RICOGNIZIONE DEGLI IMMOBILI DI PROPRIET└ COMUNALE SUSCETTIBILI DI ALIENAZIONE E/O DI VALORIZZAZIONE AI SENSI DELL'ART.58 DEL D.L. 112/2008 CONVERTITO CON MODIFICAZIONE NELLA LEGGE 133/2008.0,0016/07/201531/07/2015
  181 / 2015N.51 del 16.07.2015DELIBERA DI GIUNTA   IMPOSTA COMUNALE PUBBLICIT└ E DIRITTI PUBBLICHE AFFISSIONI - DETERMINAZIONE ANNO 2015.0,0016/07/201531/07/2015
  180 / 2015N.50 del 16.07.2015DELIBERA DI GIUNTA   APPROVAZIONE PIANO TECNICO DI GESTIONE ACQUEDOTTO - DETERMINAZIONE TARIFFE ANNO 2015.0,0016/07/201531/07/2015
  179 / 2015N.49 del 16.07.2015DELIBERA DI GIUNTA   SERVIZI PUBBLICI A DOMANDA INDIVIDUALE - DETERMINAZIONE TARIFFE - MENSA SCOLASTICA ANNO 2015.0,0016/07/201531/07/2015
  178 / 2015N.48 del 16.07.2015DELIBERA DI GIUNTA   SERVIZI A DOMANDA INDIVIDUALE - DETERMINAZIONE TARIFFE ILLUMINAZIONE VOTIVA CIMITERI ANNO 2015.0,0016/07/201531/07/2015
  177 / 2015N.47 del 16.07.2015DELIBERA DI GIUNTA   COSAP ANNO 2015 - DETERMINAZIONI.0,0016/07/201531/07/2015
  176 / 2015N.46 del 16.07.2015DELIBERA DI GIUNTA   ADDIZIONALE IRPEF - DECRETO LEGISLATIVO 28.08.1998 N. 360 - DETERMINAZIONI ANNO 2015.0,0016/07/201531/07/2015
  175 / 2015N.45 del 16.07.2015DELIBERA DI GIUNTA   ARMONIZZAZIONE DEI SISTEMI CONTABILI AI SENSI DEL D.LGS 118/2011. RINVIO ALL'ANNO 2016 DELL'ADOZIONE DEI PRINCIPI APPLICATI ALLA CONTABILIT└ ECONOMICO PATRIMONIALE E DEL PIANO DEI CONTI INTEGRATI.0,0016/07/201531/07/2015
  174 / 2015N.103 del 13.07.2015DETERMINA   IMPEGNO DI SPESA PER LAVORI DI MANUTENZIONE STRAORDINARIA SERBATOI CAPOLUOGO.51.700,0013/07/201528/07/2015
  173 / 2015N.102 del 13.07.2015DETERMINA   CONTRIBUTO PER INTEGRAZIONE RETTA PER UTENTI RICOVERATI IN R.S.A. FORMALMENTE ACCREDITATE. ANNO 2015. IMPEGNO DI SPESA.1.894,4013/07/201528/07/2015
  171 / 2015N.101 del 04.07.2015DETERMINA   LIQUIDAZIONE FATTURA ANIENE SERVIZI E SVILUPPO- COOP. SOCIALE PER SERVIZIO SCUOLABUS PRIMO TRIMESTRE 2015672,0004/07/201519/07/2015
  170 / 2015N.100 del 04.07.2015DETERMINA   LIQUIDAZIONE FATTURA WOLTERS KLUWER ITALIA SRL PER LEGGI D'ITALIA1.999,5304/07/201519/07/2015
  169 / 2015N.99 del 04.07.2015DETERMINA   LIQUIDAZIONE FATTURA IDEA DIGITALE PER COPIE ECCEDENTI83,4704/07/201519/07/2015
  168 / 2015N.98 del 04.07.2015DETERMINA   LIQUIDAZIONE STUDIO K PER GIORNATA DI FORMAZIONE ADDETTO ANAGRAFE915,0004/07/201519/07/2015
  167 / 2015N.97 del 04.07.2015DETERMINA   LIQUIDAZIONE FATTURA STUDIO K PER FORNITURA SISTEMA INFORMATIVO GESTIONE TARSU ED ADEGUAMENTO SISTEMA CONTABILE0,0004/07/201519/07/2015
  166 / 2015N.96 del 04.07.2015DETERMINA   LIQUIDAZIONE FATTURA PC POMEPI DI MARIO POMPEI PER ASSITENZA COMPUTER SCUOLE E UFFICIO ANAGRAFE985,3404/07/201519/07/2015
  165 / 2015N.95 del 04.07.2015DETERMINA   LIQUIDAZIONE FATTURA STUDIO K PER ASSISTENZA ANNO 20150,0004/07/201519/07/2015
  164 / 2015N.94 del 01.07.2015DETERMINA   LIQUIDAZIONE FATTURA BNP PARIBAS SA PER CANONE LOCAZIONE FOTOCOPIATRICE PERIODO MARZO-AGOSTO 2015669,7801/07/201516/07/2015
  163 / 2015N.93 del 01.07.2015DETERMINA   LIQUIDAZIONE FATTURE BEYFIN PER FORNITURA GPL DA RISCALDAMENTO16.976,7701/07/201516/07/2015
  162 / 2015N.92 del 01.07.2015DETERMINA   LIQUIDAZIONE FATTURA IEMME SISTEMI PER ASSISTENZA CENTRALINO TELEFONICO PERIODO MAGGIO-OTTOBRE 2015456,2801/07/201516/07/2015
  161 / 2015N.91 del 01.07.2015DETERMINA   RIMBORSO COMUNE DI NESPOLO PER SERVIZIO DI VIGILANZA 1░ TRIMETSRE 20151.006,0701/07/201516/07/2015
  160 / 2015N.90 del 01.07.2015DETERMINA   LIQUIDAZIONE MENSA ASILO PERIODO GENNAIO-MARZO 2015885,0001/07/201515/07/2015
  159 / 2015N.44 del 25.06.2015DELIBERA DI GIUNTA   ATTO DI INDIRIZZO PER PROROGA CONFERIMEBNTO INCARICO LEGALE ESTERNO MEDIANTE CONVENZIONE PER PATROCINIO LEGALE DELL'ENTE RELATIVAMENTE A CONTENZIOSI CIVILI ED AMMINISTRATIVI.0,0025/06/201510/07/2015
  158 / 2015N.43 del 25.06.2015DELIBERA DI GIUNTA   L.R. 29/92 - DIRITTO ALLO STUDIO - ANNO 2015/2016.0,0025/06/201509/07/2015
  157 / 2015N.42 del 25.06.2015DELIBERA DI GIUNTA   L.R. 12/81 - RICHIESTA CONTRIBUTO ' EDILIZIA SCOLASTICA - ADEGUAMENTO SISMICO' - ANNO 2016.0,0025/06/201510/07/2015
  156 / 2015N.41 del 25.06.2015DELIBERA DI GIUNTA   L.R. 12/81 - REALIZZAZIONE IMPIANTO FOTOVOLTAICO - RICHIESTA CONTRIBUTO 2016.0,0025/06/201510/07/2015
  155 / 2015N.40 del 25.06.2015DELIBERA DI GIUNTA   L.R. 38/96 - INTERVENTI SOCIALI - RICHIESTA CONTRIBUTO ANNO 2016.0,0025/06/201510/07/2015
  154 / 2015N.39 del 25.06.2015DELIBERA DI GIUNTA   L.R. N. 4 DEL 29.04.2006 ' REALIZZAZIONE IMPIANTO FOTOVOLTAICO'. RICHIESTA CONTRIBUTO ANNO 2016.0,0025/06/201510/07/2015
  153 / 2015N.38 del 25.06.2015DELIBERA DI GIUNTA   L.R. 11/2004 - ART.14 - ILLUMINAZIONE PUBBLICA - RICHIESTA CONTRIBUTO ANNO 2016.0,0025/06/201510/07/2015
  152 / 2015N.37 del 25.06.2015DELIBERA DI GIUNTA   L.R. 12/81 ' EDILIZIA SCOLASTICA' - RICHIESTA CONTRIBUTO ANNO 2016.0,0025/06/201510/07/2015
  151 / 2015N.36 del 25.06.2015DELIBERA DI GIUNTA   L.R. 13/90 - PISTE CICLABILI - RICHIESTA CONTRIBUTO ANNO 2016.0,0025/06/201510/07/2015
  150 / 2015N.35 del 25.06.2015DELIBERA DI GIUNTA   L.R. 38/99 ' INTERVENTI SU EDIFICI COMUNALI RICADENTI NEI CENTRI STORICI NEL CAPOLUOGO E FRAZIONI' - RICHIESTA CONTRIBUTO ANNO 2016.0,0025/06/201510/07/2015
  149 / 2015N.34 del 25.06.2015DELIBERA DI GIUNTA   L.R.55/76 - RICHIESTA CONTRIBUTO PER LA FORMAZIONE DI STRUMENTI DI PIANIFICAZIONE TERRITORIALE ED URBANISTICA - ANNO 2016.0,0025/06/201510/07/2015
  148 / 2015N.33 del 25.06.2015DELIBERA DI GIUNTA   L.R. 39/2002 - RICHIESTA CONTRIBUTO PIANO COMUNALE PREVENZIONE E SPEGNIMENTO INCENDI ANNO 2016.0,0025/06/201509/07/2015
  147 / 2015N.32 del 25.06.2015DELIBERA DI GIUNTA   L.R. 72/80 ART.14 - VIABILITA' COMUNALE - RICHIESTA CONTRIBUTO ANNO 2016.0,0025/06/201510/07/2015
  146 / 2015N.31 del 25.06.2015DELIBERA DI GIUNTA   L.R. 88/90 - AMMODERNAMENTO RETE IDRICA E FOGNANTE CAPOLUOGO E FRAZIONI. RICHIESTA CONTRIBUTO ANNO 2016.0,0025/06/201510/07/2015
  145 / 2015N.30 del 25.06.2015DELIBERA DI GIUNTA   RICHIESTA CONTRIBUTO ' RISANAMENTO DISCARICHE ABUSIVE IN FRAZIONE RICETTO':0,0025/06/201509/07/2015
  144 / 2015N.29 del 25.06.2015DELIBERA DI GIUNTA   L.R. N. 9/2005 - ART. 34 - INTERVENTI SEDE COMUNALE - RICHIESTA CONTRIBNUTO ANNO 2016.0,0025/06/201509/07/2015
  143 / 2015N.28 del 25.06.2015DELIBERA DI GIUNTA   L.R. 38/99 - INTERVENTO DI RIQUALIFICAZIONE CENTRI STORICI CAPOLUOGO E FRAZIONI - RICHIESTA CONTRIBUTO ANNO 2016.0,0025/06/201510/07/2015
  142 / 2015N.88 del 25.06.2015DETERMINA   APPROVAZIONE II░ ED ULTIMO SAL DEI LAVORI DI ' REALIZZAZIONE ACQUEDOTTO RURALE IDROPOTABILE MONTAGLIANO - FONTE ORO'. LIQUIDAZIONE 2░ CERTIFICIATO DI PAGAMENTO A SALDO IMPRESA LIMACO SRL.22.913,7325/06/201510/07/2015
  141 / 2015N.87 del 25.06.2015DETERMINA   IMPEGNO DI SPESA DITTA TOLLU GIUSEPPE PER INTERVENTI DI MESSA A DIMORA E PULIZIA AREE VERDI.1.000,0025/06/201510/07/2015
  140 / 2015N.86 del 25.06.2015DETERMINA   AFIDAMENTO SOCIET└ COOPERATIVA SOCIALE ' ANIENE SERVIZI E SVILUPPO' PER LAVORI DI INTERVENTI TAGLIO ERBA E SISTEMAZIONE VIA DI ACCESSO DEPURATORE.1.045,0025/06/201510/07/2015
  139 / 2015N.85 del 20.06.2015DETERMINA   LIQUIDAZIONE PARCELLA DR. ONORI FRANCO PER TERZO ACCONTO A SALDO PER LA PROGETTAZIONE E DIREZIONE LAVORI: MIGLIORAMENTO E RIPRISTINO DELLA VIABILIT└ FORESTALE NELO TERRITORIO COMUNALE'1.499,5020/06/201505/07/2015
  138 / 2015N.84 del 20.06.2015DETERMINA   APPROVAZIONE L E LIQUIDAZIONE 2░ CERTIFICATO DI PAGAMENTO PER IL PAGAMENTO DEL II░ SAL A SALDO PER I LAVORI DI MIGLIORAMENTO E RIPRISTINO DELLA VIABILIT└ FORESTALE NEL TERRITORIO COMUNALE. IMPRESA CODIBER3.312,5320/06/201505/07/2015
  237 / 2015N.136 del 19.09.2015DETERMINA   LIQUIDAZIONE FATTURE ECOLOGIA VITERBO SRL PER SERVIZIO CONFERIMENTO RIFIUTI DISCARICA.13.951,0019/06/201504/07/2015
  136 / 2015N.27 del 09.06.2015DELIBERA DI GIUNTA   ATTO D'INDIRIZZO PER LA GESTIONE DEI SERVIZI SOCIALI IN FORMA ASSOCIATA NEL DISTRETTO RIETI I0,0009/06/201523/06/2015
  135 / 2015N.83 del 06.06.2015DETERMINA   PROGETTO ' VIAGGIO ALLA SCOPERTA DEI CINQUE SENSI LE TERRE DEI BORGHI PIU' BELLI D'ITALIA E DEL LAZIO - IMPEGNO DI SPESA.1.500,0006/06/201521/06/2015
  133 / 2015N.81 del 18.05.2015DETERMINA   AFFIDAMENTO INCARICO PROFESSIONALE PER PLA PROGETTAZIONE PRELIMINARE, DEFINITIVA ED ESECUTIVA DIREZ. LAVORI COORD. SICUREZZA IN FASE DI PROGETTAZIONE ED ESECUZIONE DEI LAVORI DI ' RIQUALIFICAZIONE VOLUMETRIE COMUNALI ESISTENTI PER LA REALIZZAZIONE DI UN POLO MUSEALE INFORMATICO. CONVENZIONE MIT-ANCI.0,0026/05/201510/06/2015
  132 / 2015N.26 del 21.05.2015DELIBERA DI GIUNTA   RICHIESTA DI ACCESSO ALL'UTILIZZO DELLE RISORSE DEL PROGRAMMA ' NUOVI PROGETTI DI INTERVENTI' DI CUI ALLA CONVENZIONE MIT - ANCI.0,0021/05/201505/06/2015
  131 / 2015N.25 del 21.05.2015DELIBERA DI GIUNTA   APPROVAZIONE PROGETTO DEFINITIVO DENOMINATO 'RIQUALIFICAZIONE VOLUMETRIE COMUNALI ESISTENTI PER LA REALIZZAZIONE DI UN POLO MUSEALE INFORMATICO':0,0021/05/201505/06/2015
  130 / 2015N.24 del 21.05.2015DELIBERA DI GIUNTA   INDIRIZZO AL RESPONSABILE DEL SERVIZIO AMMINISTRATIVO PER EROGAZIONE CONTRIBUTO STRAORDINARIO A FAVORE DI NUCLEI BISOGNOSI.0,0021/05/201505/06/2015
  129 / 2015N.23 del 21.05.2015DELIBERA DI GIUNTA   PROGETTO: ' VIAGGIO ALLA SCOPERTA DEI CINQUE SENSI LE TERRE DEI BORGHI PIU' BELLI D'ITALIA E DEL LAZIO'. INDIRIZZO AL RESPONSABILE PER IL PAGAMENTO DELLE QUOTA DI COOFINANZIAMENTO.0,0021/05/201505/06/2015
  128 / 2015N.80 del 18.05.2015DETERMINA   LIQUIDAZIONE FATTURA GINNASTICA POSTURALE PER CENTRO ANZIANI812,0018/05/201502/06/2015
  127 / 2015N.79 del 18.05.2015DETERMINA   INTEGRAZIONE IMPEGNO DI SPESA DITTA SEA PER SERVIZIO ANALISI ACQUA.1.000,0018/05/201502/06/2015
  126 / 2015N.78 del 18.05.2015DETERMINA   IMPEGNO DI SPESA PER BONIFICA STRAORDINARIA ESTINTORI LOCALITI PUBBLICI DI PROPRIETA' COMUNALE.1.268,8018/05/201502/06/2015
  125 / 2015N.77 del 18.05.2015DETERMINA   LIQUIDAZIONE SERITEL SAS FATTURA N. 64/V DEL 28.11.2014 PER RIPARAZIONE IMPIANTO TELECONTROLLO.2.135,0018/05/201502/06/2015
  124 / 2015N.22 del 14.05.2015DELIBERA DI GIUNTA   INDIRIZZO AL RESPONSABILE DEL SERVIZIO - PER ORGANIZZAZIONE GITA ANZIANI0,0015/05/201529/05/2015
  123 / 2015N.21 del 14.05.2015DELIBERA DI GIUNTA   D.LGS.VO 23.06.2011 N. 118 - APPROVAZIONE RIACCERTAMENTO STRAORDINARIO DEI RESIDUI ATTIVIT E PASSIVI.0,0015/05/201530/05/2015
  122 / 2015N.9 del 14.05.2015DELIBERA DI CONSIGLIO   MODIFICHE ALLO STATUTO COMUNALE.0,0015/05/201513/06/2015
  120 / 2015N.7 del 14.05.2015DELIBERA DI CONSIGLIO   LETTURA ED APPROVAZIONE VERBALI PRECEDENTE SEDUTA.0,0015/05/201530/05/2015
  121 / 2015N.8 del 14.05.2015DELIBERA DI CONSIGLIO   APPROVAZIONE DEL RENDICONTO DI GESTIONE 2014.0,0014/05/201529/05/2015
  137 / 2015N.76 del 08.05.2015DETERMINA   IMPEGNO DI SPESA DITTA SOGEA PER RIPARAZIONE SOFFIANTI IMPIANTO DEPURAZIONE COMUNALE. CIG ZB914747DB2.071,8108/05/201523/05/2015
  118 / 2015N.75 del 08.05.2015DETERMINA   RETROCESSIONE LOCULO CIMITERIALE - LIQUIDAZIONE.664,3508/05/201523/05/2015
  117 / 2015N.74 del 06.05.2015DETERMINA   LIQUIDAZIONE FATTURA PRAGMA PER SMALTIMENTO RIFIUTI675,7606/05/201521/05/2015
  105 / 2015N.73 del 06.05.2015DETERMINA   LIQUIDAZIONE COMPENSO SEGRETARIO COMUNALE PERIODO 02.01-31.03.20151.912,8606/05/201521/05/2015
  115 / 2015N.72 del 28.04.2015DETERMINA   AFFIDAMENTO INCARICO PER L'ADEGUAMENTO DELLA CARTA DI LIVELLO 1 DI MICROZONAZIONE SISMICA E REDAZIONE CLE.3.750,0028/04/201513/05/2015
  114 / 2015N.71 del 28.04.2015DETERMINA   IMPEGNO DI SPESA OFFICINA FELICI DI MARIO FELICI ╚ER LAVORI DI MANUTENZIONE AUTOMEZZO COMPATTATORE N.U.552,6628/04/201513/05/2015
  113 / 2015N.70 del 28.04.2015DETERMINA   LIQUIDAZIONE FATTURA DITTA SERITEL SAS PER LAVORI DI RIPARAZIONE IMPIANTO TELECONTROLLO2.150,8628/04/201513/05/2015
  110 / 2015N.69 del 16.04.2015DETERMINA   LIQUIDAZIONE FATTURA VALENTINI SECONDO PER FORNITURA GASOLIO DA TRAZIONE1.394,0016/04/201501/05/2015
  109 / 2015N.67 del 15.04.2015DETERMINA   IMPEGNO DI SPESA BIEMME SERVIZI PER RIPARAZIONE IMPIANTO ELETTRICO VOTIVO CIMITERO COLLALTO SABINO170,0015/04/201530/04/2015
  108 / 2015N.66 del 15.04.2015DETERMINA   IMPEGNO DI SPESA DITTA SOGEA PER MANUTENZIONE STRAORDINARIA IMPIANTO DEPURAZIONE COMUNALE LOC. FONTE VASSALLO2.541,2615/04/201529/04/2015
  107 / 2015N.65 del 14.04.2015DETERMINA   IMPEGNO DI SPESA DITTA SOGEA PER INTERVENTI DI MANUTENZIONE STRAORDINARIA IMPIANTO DI DEPURAZIONE.886,2114/04/201528/04/2015
  106 / 2015N.20 del 14.04.2015DELIBERA DI GIUNTA   APPROVAZIONE SCHEMA DI RENDICONTO DI GESTIONE DELL'ESERCIZIO FINANZIARIO 2014 E DELLA RELAZIONE ILLUSTRATIVA DI CUI ALL'ART. 231 T.U.E.L.0,0014/04/201528/04/2015
  104 / 2015N.64 del 14.04.2015DETERMINA   AGGIORNAMENTO INVENTARIO E PATRIIMONIO COMUNALE - ANNO 2014.0,0014/04/201529/04/2015
  103 / 2015N.63 del 14.04.2015DETERMINA   ACCERTAMENTO E REVISIONE DEI RESIDUI ATTIVT E PASSIVI - ART.228 T.U. N. 267/2000 - CONTO CONSUNTIVO 2014'0,0014/04/201529/04/2015
  102 / 2015N.62 del 11.04.2015DETERMINA   LIQUIDAZIONE FATTURA DITTA ELETTROTERMOIDRAULICA DI BIANCHI FRANCESCO PER LAVORI DI MANUTENIZONE ORDINARIA E STRAORDINARIA SERBATOI FRAZIONE RICETTO.7.645,0011/04/201526/04/2015
  101 / 2015N.61 del 11.04.2015DETERMINA   LIQUIDAZIONE FATTURA DITTA ELETTROTERMOIDRAULICA DI FRANCESCO BIANCHI PER FORNITURA E POSA IN OPERA NEI SERBATOI DI IPOCLORITO DI SODIO.610,0011/04/201525/04/2015
  100 / 2015N.60 del 11.04.2015DETERMINA   IMPEGNO SPESA DITTA IEMME SISTEMI SRL PER CANONE MANUTENZIONE CENTRALINO TELEFONICO912,5611/04/201526/04/2015
  99 / 2015N.59 del 11.04.2015DETERMINA   IMPEGNO SPESA TELCOM ITALIA SPA PER UTENZE TELEFONICHE7.000,0011/04/201526/04/2015
  98 / 2015N.58 del 11.04.2015DETERMINA   IMPEGNO SPESA ENEL ENERGIA SPA PER FORNITURA ENERGIA ELETTRICA19.500,0011/04/201526/04/2015
  97 / 2015N.57 del 11.04.2015DETERMINA   IMPEGNO SPESA DITTA BEYFIN PER FRONITURA GPL15.000,0011/04/201526/04/2015
  96 / 2015N.56 del 11.04.2015DETERMINA   IMPEGNO SPESA ING. LUPI PER MANUTENZIONE DEPURATORE7.920,0011/04/201526/04/2015
  95 / 2015N.55 del 11.04.2015DETERMINA   IMPEGNO SPESA ECOLOGIA VITERBO SRL PER SMALTIMENTO RSU15.000,0011/04/201526/04/2015
  94 / 2015N.19 del 09.04.2015DELIBERA DI GIUNTA   DOMANDA DI FINANZIAMENTO AI SENSI DELL'AVVISO PUBBLICO PER LA FORMULAZIONE DEI PIANI REGIONALI DI EDILIZIA SCOLASTICA IN ATTUAZIONE DELL'ART.10 DEL D.L. 12.09.2013 N. 104 CONVERTITO IN LEGGE 128/2013.0,0010/04/201524/04/2015
  93 / 2015N.54 del 08.04.2015DETERMINA   IMPEGNO DI SPESA STUDIO K PER FORNITURA E CONFIGURAZIONE DELLA GESTIONE DOCUMENTAZIONE E CANONE ANNUALE PER SERVIZIO DI MANUTENZIONE.732,0008/04/201522/04/2015
  92 / 2015N.53 del 08.04.2015DETERMINA   LIQUIDAZIONE FATTURA N. 54/2015 OFFICINA FELICI DI CARSOLI PER MANUTENZIONE AUTOVETTURA FIAT PIANDA POLIZIA MUNICIPALE.191,5408/04/201522/04/2015
  91 / 2015N.52 del 08.04.2015DETERMINA   L╠LIQUIDAZIONE FATTURA N. 53/2015 OFFICINA FELICI PER MANUTENZIONE AUTOCOMPATTATORE.2.257,7008/04/201522/04/2015
  90 / 2015N.51 del 08.04.2015DETERMINA   LIQUIDAZIONE FATTURA N.17/15 OFFICINA FELICI DI CARSOLI PER REVIZIONE PULMINO SERVIZI SOCIALI.46,4608/04/201522/04/2015
  89 / 2015N.50 del 07.04.2015DETERMINA   LIQUIDAZIONE FATTURA OFFICINA ELETTRAUTO FELLI GIANNI PER MANUTENZIONE AUTOCOMPATTATORE.455,0007/04/201521/04/2015
  88 / 2015N.49 del 30.03.2015DETERMINA   IMPEGNO DI SPESA SERITAL SAS, PER RIPARAZIONE GUASTO SISTEMA DI TELECONTROLLO ACQUEDOTTO.2.150,8601/04/201515/04/2015
  87 / 2015N.48 del 28.03.2015DETERMINA   RIMBORSO COMUNE NESPOLO PER SERVIZIO VIGILANZA E RIMBORSO SPESE VIGILE1.233,8428/03/201511/04/2015
  86 / 2015N.47 del 28.03.2015DETERMINA   LIQUIDAZIONE FATTURA VALENTINI SECONDO PER FORNITURA GASOLIO DA TRAZIONE677,0028/03/201511/04/2015
  85 / 2015N.46 del 26.03.2015DETERMINA   IMPEGNO DI SPESA PER ASSISTENZA AREA APPLICATIVI E SERVIZI: FINANZIARIA - PAGHE, DEMOGRAFICA PUBBLICAZIONE WEB - ANNOP 2015 STUDIO K.4.600,0026/03/201509/04/2015
  84 / 2015N.45 del 24.03.2015DETERMINA   IMPEGNO DI SPESA PER SOSTITUZIONE E MONTAGGIO PNEUMATICI SCUOLABUS.620,0024/03/201507/04/2015
  83 / 2015N.44 del 24.03.2015DETERMINA   LIQUIDAZIONE FATTURA DITTA ELETTROTERMOIDRAULICA DI BIANCHI FRANCESCO PER CONTROLLO E ACCENSIONE CENTRALE TERMICA EDIFIXCIO ADIBITO A SCUOLE E UFFICI COMUNALI.610,0024/03/201507/04/2015
  82 / 2015N.43 del 24.03.2015DETERMINA   LIQUIDAZIONE FATTURA ELETTROTERMOIDRAULICA DI BIANCHI FRANCESCO PER LAVORI DI MANUTENZIONE ODINARIA SERBATOI IDRICI RICETTO E SAN LORENZO.1.952,0024/03/201507/04/2015
  81 / 2015N.42 del 23.03.2015DETERMINA   PIUANO REGIONALE PER LA RIDUZIONE DEL RISCHIO SISMICO DI CUI ALL'OCDPC 171/2014 - ACCETTAIZONE DI CONTRIBUTO E IMPEGNO AL COFINANZIAMENTO.3.750,0023/03/201507/04/2015
  80 / 2015N.41 del 20.03.2015DETERMINA   IMPEGNO DI SPESA ELETTRAUTO FELLI GIANNI PER LAVORI DI RIPARAZIONE COMPATTATORE N.U.555,1020/03/201503/04/2015
  79 / 2015N.40 del 20.03.2015DETERMINA   IMPEGNO DI SPESA ASSISTENSA FIAT FELICI MARIO PER REVISIONE AUTOMEZZO ADIBITO AI SERVIZI SOCIALI.65,6820/03/201503/04/2015
  78 / 2015N.39 del 20.03.2015DETERMINA   IMPEGNO DI SPESA ASSISTENZA FELICI SAS DI FELICI MARIO PER LAVORI DI MANUTENZIONE FIAT PANDA191,5420/03/201503/04/2015
  77 / 2015N.18 del 18.03.2015DELIBERA DI GIUNTA   ANTICIPAZIONE DI TESORERIA - UTILIZZO DI ENTRATE A SPECIFICA DESTINAZIONE- ART. 195 E 222 DEL DECRETO LEGISLATIVO 267/2000 (TUEL) - AUTORIZZAZIONE AL TESORIERE AD ELEVARE IL LIMITE DI CUI ALL'ART. 2222 DEL TUEL DA TRE A CINQUE DODICESIMI AL 31.12.2015.0,0019/03/201503/04/2015
  73 / 2015N.38 del 16.03.2015DETERMINA   LIQUIDAZIONE FATTURA DITTA DI CLEMENTE NELLA E C. G. DI PETTINARI GIOVANNINA PER FORNITURA BUONI ANZIANI DI COLLALTO SABINO.0,0016/03/201530/03/2015
  72 / 2015N.37 del 09.03.2015DETERMINA   IMPEGNO DI SPESA SPALATURA NEVE E SPARGISALE STAGIONE 2015.5.856,0009/03/201523/03/2015
  71 / 2015N.36 del 09.03.2015DETERMINA   LIQUIDAZIONE FATTURA N. 42 ELETTROTERMOIDRAULICA DI BIANCHI PER RIPARAZIONE IMPIANTO PUBBLICA ILLUMINAZIONE.2.806,0009/03/201523/03/2015
  70 / 2015N.35 del 09.03.2015DETERMINA   IMPEGNO DI SPESA OFFICINA FELICI PER RIPARAZIONE COMPATTATORE N.U.225,7009/03/201523/03/2015
  69 / 2015N.34 del 09.03.2015DETERMINA   IMPEGNO DI SPESA PER MANUTENZIONE ORDINARIA SERBATOIO IDRICO IN LOCALITA' ARINGO.170,8009/03/201524/03/2015
  68 / 2015N.33 del 09.03.2015DETERMINA   IMPEGNO DI SPESA PER LAVORI DI MANUTENZIONE STRAORDINARIA SERBATOI IDRICI FRAZIONI DI RICETTO E SAN LORENZO.1.952,0009/03/201523/03/2015
  66 / 2015N.32 del 28.02.2015DETERMINA   IMPEWGNO DI SPESA E LIQUIDAZIONE PROVINCIA DI RIETI SPESE ISTRUTTORIA PER TAGLIO BOSCO COMUNALE ION LOC. ' CUNCOLA':250,0028/02/201514/03/2015
  65 / 2015N.31 del 28.02.2015DETERMINA   NOLEGGIO COPIATRICE MULTIFUNZIONE AD USO DEGLI UFFICI COMUNALI. IMPEGNO DI SPESA.1.207,8028/02/201514/03/2015
  64 / 2015N.30 del 27.02.2015DETERMINA   LIQUIDAZIONE FATTURA DITTA CODIBER SRL PER SISTEMAZ.AREA RIFIUTI INGOMBRANTI E FRANA CAMPO SPORTIVO.0,0027/02/201513/03/2015
  63 / 2015N.29 del 27.02.2015DETERMINA   LIQUIDAZIONE FATTURA DITTA TECNOGOMME DI CARSOLI PER FORNITURA PNEUMATICI.0,0027/02/201513/03/2015
  61 / 2015N.5 del 25.02.2015DELIBERA DI CONSIGLIO   LETTURA ED APPROVAZIONE VERBALI PRECEDENTE SEDUTA.0,0025/02/201511/03/2015
  60 / 2015N.17 del 25.02.2015DELIBERA DI GIUNTA   CAMPAGNA LOTTA BIOLOGICA AL 'CINIPEDE GALLIGENO' MEDIANTE RILASCIO DI ' TORYMUS SINESI'. ASSEGNAZIONE CONTRIBUTO ALLA ASSOCIAZIONE PROVINCIALE CASTANICOLTORI'.0,0025/02/201511/03/2015
  24 / 2016SETT01 N.2 del 23.02.2016DETERMINA   LIQUIDAZIONE PARCELLA AVV. MONACO2.188,6823/02/201509/03/2015
  58 / 2015N.28 del 21.02.2015DETERMINA   LIQUIDAZIONE FATTURA SOCIET└ COOPERATIVA IL SOLCO PER SERVIZIO DI MENSA SCOLASTICA.553,3621/02/201507/03/2015
  57 / 2015N.27 del 21.02.2015DETERMINA   LIQUIDAZIONE PARCELLA DOTT. ROSSI SEELYE MASSIMO, PER PRESTAZIONI EFFETTUATE QUALE REVISORE DEI CONTI.1.899,5221/02/201507/03/2015
  55 / 2015N.26 del 19.02.2015DETERMINA   IMPEGNO DI SPESA PER ATTIVITA' ' GESTIONE SALUTE E SICUREZZA LUOGHI DI LAVORO DL.VO 81/2008'.1.500,0019/02/201505/03/2015
  54 / 2015N.25 del 19.02.2015DETERMINA   IMPEGNO DI SPESA PER RIPARAZIONE IMPIANTO DI ILLUMINAZIONE PUBBLIA VIA ROMA FRAZIONE RICETTO.2.806,0019/02/201506/03/2015
  53 / 2015N.4 del 18.02.2015DELIBERA DI CONSIGLIO   RETTIFICA ED INTEGRAZIONE DELIBERA DI CONSIGLIO COMUNALE N. 02 DEL 15.01.2015.0,0018/02/201505/03/2015
  52 / 2015N.3 del 18.02.2015DELIBERA DI CONSIGLIO   LETTURA ED APPROVAZIONE VERBALI PRECEDENTE SEDUTA.0,0018/02/201504/03/2015
  51 / 2015N.16 del 18.02.2015DELIBERA DI GIUNTA   INDIRIZZO AL RESPONSABILE DEL SERVIZIO FINANZIARIO PER EROGAZIONE CONTRIBUTO SCUOLA ELEMENTARE CORSO INGLESE.0,0018/02/201505/03/2015
  49 / 2015N.14 del 18.02.2015DELIBERA DI GIUNTA   NOMINA DEL RESPONSABILE UNICO DEL PROCEDIMENTO IN MATERIA PAESAGGISTICO-AMBIENTALE LEGGE REGIONALE N. 8/2012 - EX 59/1995 S.M.I.0,0018/02/201505/03/2015
  48 / 2015N.13 del 11.02.2015DELIBERA DI GIUNTA   PIANO DI INFORMATIZZAZIONE ( ART.24 CO.3-BIS DEL DL 90/2014)0,0013/02/201528/02/2015
  44 / 2015N.23 del 07.02.2015DETERMINA   LIQUIDAZIONE FATTURA DITTA ELETTRUTO FELLI GIANNI213,5007/02/201522/02/2015
  43 / 2015N.22 del 07.02.2015DETERMINA   LIQUIDAZIONE FATTURA TPA PER ACQUISTO LAMPADE P.I.0,0007/02/201522/02/2015
  42 / 2015N.21 del 07.02.2015DETERMINA   LIQUIDAZIONE SOGEA PER ADEGUAMENTO TARIFFE IDRICHE2.000,0007/02/201522/02/2015
  41 / 2015N.20 del 07.02.2015DETERMINA   LIQUIDAZIONE FATTURE ACQUISTO MATERIALE DI CANCELLERIA1.011,1507/02/201522/02/2015
  40 / 2015N.19 del 07.02.2015DETERMINA   LIQUIDAZIONE MENSA SCOLASTICA1.491,3607/02/201522/02/2015
  39 / 2015N.18 del 07.02.2015DETERMINA   LIQUIDAZIONE VALENTINI SECONDO PER FORNITURA GASOLIO0,0007/02/201522/02/2015
  38 / 2015N.17 del 07.02.2015DETERMINA   LIQUIDAZIONE ECOLOGIA VITERBO PER SMALTIMENTO RSU0,0007/02/201522/02/2015
  37 / 2015N.16 del 06.02.2015DETERMINA   LIQUIDAZIONE FATTURA BEYFIN PER FORNITURA GPL3.488,4506/02/201521/02/2015
  36 / 2015N.15 del 06.02.2015DETERMINA   LIQUIDAZIONE FATTURA MAGGIOLI PER STATO CIVILE111,6306/02/201521/02/2015
  35 / 2015N.14 del 06.02.2015DETERMINA   LIQUIDAZIONE MENSA ASILO PERIODO OTTOBRE-DICEMBRE 20140,0006/02/201521/02/2015
  34 / 2015N.13 del 06.02.2015DETERMINA   LIQUIDAZIONE FATTURA IEMME SISTEMI PER CENTRALINO TELEFONICO456,2806/02/201521/02/2015
  33 / 2015N.12 del 06.02.2015DETERMINA   LIQUIDAZIONE FATTURA POMPEI MARIO PER FORNITURA STAMPANTI1.350,0006/02/201521/02/2015
  32 / 2015N.11 del 06.02.2015DETERMINA   LIQUIDAZIONE FATTURA GIADA PER REVISONE SCUOLABUS256,7506/02/201521/02/2015
  31 / 2015N.10 del 06.02.2015DETERMINA   LIQUIDAZIONE ANIENE E SERVIZIO PER TAGLIO ALBERO VIA ARINGO0,0006/02/201521/02/2015
  30 / 2015N.9 del 06.02.2015DETERMINA   LIQUIDAZIONE FATTURA ING. LUPI PER DEPURATORE0,0006/02/201521/02/2015
  29 / 2015N.8 del 06.02.2015DETERMINA   LIQUIDAZIONE FATTURA IDEA DIGITALE SRL PER CANONE ASSISTENZA FOTOCOPIATRICE143,2006/02/201521/02/2015
  28 / 2015N.7 del 06.02.2015DETERMINA   LIQUIDAZIONE FATTURE ANIENE SERVIZI E SVILUPPO PER TRASPORTO SCOLASTICO E MANUTENZIONE VERDE PUBBLICO0,0006/02/201521/02/2015
  27 / 2015N.6 del 04.02.2015DETERMINA   LIQUIDAZIONE FATTURA DITTA PRAGMA PER RITIRO RIFIUTI INGOMBRANTI.2.723,3004/02/201519/02/2015
  26 / 2015N.5 del 03.02.2015DETERMINA   LIQUIDAZIONE DITTA G2 MISURATORI SRL PER FORNITURA CONTATORI ACQUA.1.100,0003/02/201518/02/2015
  25 / 2015AREAC N.4 del 03.02.2015DETERMINA   FORMAZIONE ANAGRAFE - STATO CIVILE ELETTORALE IMPEGNO DI SPESA- RETTIFICA DETERMINA N. 3 DEL 28.01.2015.0,0003/02/2015
  3 / 2015BANDI VARI   AVVISO PUBBLICO ACQUISIZIONE OSSERVAZIONI E PROPOSTE PIANO TRIENNALE CORRUZIONE0,0014/01/201531/01/2015
  267 / 2015N.0 del . .DETERMINA   AFFIDAMENTO SERVIZIO MENSA SCOLASTICA ANNO 2014/2015. CODICE CIG. Z72111BD60.7.000,0007/10/201422/10/2014
  248 / 2015N.144 del 01.10.2015DETERMINA   LIQUIDAZIONE FATTURA ING. PAOLO CAMILLETTI PER ISTRUTTORIA PRATICHE SUBDELEGA L.R. 59/95.951,6001/01/197001/01/1970
  50 / 2015N.15 del 18.02.2015DELIBERA DI GIUNTA   RICHIESTA INDENNIZZO ALLA REGIONE LAZIO PER TOTALE PERDITA REDDITO IMPRESE MALATTIA DEL CASTAGNOI0,0001/01/197001/01/1970
  2 / 2016SETT02 N.12 del 23.02.2016DETERMINA   LIQUIDAZIONE AMMINISTRAZIONE PROVINCIALE DI RIETI PER SPESE DI ISTRUTTORIA PROGETTO TAGLIO BOSCO SELVA 2░ LOTTO.500,00
  236 / 2015N.135 del 18.09.2015DETERMINA   LIQUIDAZIONE FATTURA N. 47 ECOLOGIA VITERBO PER SERVIZIO SMALTIMENTO R.S.U.2.062,80
  62 / 2015N.6 del 25.02.2015DELIBERA DI CONSIGLIO   NOMINA REVISORE DEI CONTI - TRIENNIO 2015/2018.0,00
  45 / 2015N.24 del 10.02.2015DETERMINA   LIQUIDAZIONE FATTURA N. 411 DEL 23.12.2014 PER ANALISI ACQUE244,00